<?xml version='1.0' encoding='UTF-8'?><gpx version="1.1" creator="JPX - https://github.com/jenetics/jpx" xmlns="http://www.topografix.com/GPX/1/1"><trk><trkseg><trkpt lat="40.306262525213214" lon="17.57208469523695"><ele>12.999999999999998</ele><time>2026-04-29T13:44:58Z</time></trkpt><trkpt lat="40.30619619618172" lon="17.572072414766378"><ele>13.0</ele><time>2026-04-29T13:45:02Z</time></trkpt><trkpt lat="40.30612888510402" lon="17.57207410306979"><ele>13.0</ele><time>2026-04-29T13:45:06Z</time></trkpt><trkpt lat="40.30605744378091" lon="17.572092388040744"><ele>13.0</ele><time>2026-04-29T13:45:09Z</time></trkpt><trkpt lat="40.305977276216844" lon="17.572097869709037"><ele>12.999999999999998</ele><time>2026-04-29T13:45:11Z</time></trkpt><trkpt lat="40.30588382986253" lon="17.572112450990936"><ele>13.0</ele><time>2026-04-29T13:45:13Z</time></trkpt><trkpt lat="40.30581593084681" lon="17.572077523057274"><ele>12.999999999999998</ele><time>2026-04-29T13:45:15Z</time></trkpt><trkpt lat="40.30573792343628" lon="17.572074677909512"><ele>13.0</ele><time>2026-04-29T13:45:18Z</time></trkpt><trkpt lat="40.305651260749286" lon="17.572073194416497"><ele>13.0</ele><time>2026-04-29T13:45:21Z</time></trkpt><trkpt lat="40.30557705136411" lon="17.5720899918716"><ele>13.0</ele><time>2026-04-29T13:45:23Z</time></trkpt><trkpt lat="40.30550826178289" lon="17.572104191027325"><ele>12.999999999999998</ele><time>2026-04-29T13:45:25Z</time></trkpt><trkpt lat="40.30542532351668" lon="17.572101403713578"><ele>13.0</ele><time>2026-04-29T13:45:27Z</time></trkpt><trkpt lat="40.30533966479584" lon="17.572094421436542"><ele>12.666666666666666</ele><time>2026-04-29T13:45:29Z</time></trkpt><trkpt lat="40.30525267973421" lon="17.572087541260487"><ele>12.333333333333332</ele><time>2026-04-29T13:45:31.001Z</time></trkpt><trkpt lat="40.30516474622894" lon="17.57208351856466"><ele>12.0</ele><time>2026-04-29T13:45:33.001Z</time></trkpt><trkpt lat="40.30507459392464" lon="17.572098917916858"><ele>11.666666666666666</ele><time>2026-04-29T13:45:35.001Z</time></trkpt><trkpt lat="40.304982248867674" lon="17.572121169371716"><ele>11.333333333333332</ele><time>2026-04-29T13:45:37.001Z</time></trkpt><trkpt lat="40.30491606962995" lon="17.57212144201568"><ele>11.0</ele><time>2026-04-29T13:45:39.001Z</time></trkpt><trkpt lat="40.304804218818084" lon="17.57212498234529"><ele>10.8</ele><time>2026-04-29T13:45:42.001Z</time></trkpt><trkpt lat="40.30470335679244" lon="17.57211384027092"><ele>10.600000000000001</ele><time>2026-04-29T13:45:44.001Z</time></trkpt><trkpt lat="40.30460664333822" lon="17.57211637994674"><ele>10.4</ele><time>2026-04-29T13:45:46.001Z</time></trkpt><trkpt lat="40.30451220452354" lon="17.57213515971416"><ele>10.2</ele><time>2026-04-29T13:45:48.001Z</time></trkpt><trkpt lat="40.30441311426211" lon="17.572148672471002"><ele>10.0</ele><time>2026-04-29T13:45:50.001Z</time></trkpt><trkpt lat="40.304321561072626" lon="17.572164159499707"><ele>10.0</ele><time>2026-04-29T13:45:52.001Z</time></trkpt><trkpt lat="40.304225699912045" lon="17.572187483924413"><ele>10.0</ele><time>2026-04-29T13:45:54.001Z</time></trkpt><trkpt lat="40.30413013398461" lon="17.572197114988253"><ele>10.0</ele><time>2026-04-29T13:45:56.001Z</time></trkpt><trkpt lat="40.30407009313693" lon="17.572122426777074"><ele>10.0</ele><time>2026-04-29T13:45:58.001Z</time></trkpt><trkpt lat="40.304045178861884" lon="17.572030433661226"><ele>10.0</ele><time>2026-04-29T13:46:00.001Z</time></trkpt><trkpt lat="40.304062471859545" lon="17.57191662671474"><ele>10.0</ele><time>2026-04-29T13:46:02.001Z</time></trkpt><trkpt lat="40.304064564889885" lon="17.571799857309696"><ele>10.0</ele><time>2026-04-29T13:46:04.001Z</time></trkpt><trkpt lat="40.30406444293337" lon="17.571682540823915"><ele>10.0</ele><time>2026-04-29T13:46:06.001Z</time></trkpt><trkpt lat="40.304080638251165" lon="17.571551791431833"><ele>10.0</ele><time>2026-04-29T13:46:08.001Z</time></trkpt><trkpt lat="40.30408190674974" lon="17.571443343006116"><ele>10.0</ele><time>2026-04-29T13:46:10.001Z</time></trkpt><trkpt lat="40.30408809798272" lon="17.57132168313177"><ele>10.0</ele><time>2026-04-29T13:46:12.001Z</time></trkpt><trkpt lat="40.3040766944497" lon="17.571219256789515"><ele>10.0</ele><time>2026-04-29T13:46:14.001Z</time></trkpt><trkpt lat="40.30407884099035" lon="17.571100726514217"><ele>10.0</ele><time>2026-04-29T13:46:16.001Z</time></trkpt><trkpt lat="40.3040848819605" lon="17.570984118724983"><ele>10.0</ele><time>2026-04-29T13:46:18.001Z</time></trkpt><trkpt lat="40.304086743596315" lon="17.570849866252832"><ele>10.0</ele><time>2026-04-29T13:46:20.001Z</time></trkpt><trkpt lat="40.30406860525307" lon="17.570720562346914"><ele>10.0</ele><time>2026-04-29T13:46:22.001Z</time></trkpt><trkpt lat="40.30404907141262" lon="17.57058925373794"><ele>10.0</ele><time>2026-04-29T13:46:24.001Z</time></trkpt><trkpt lat="40.304025243966414" lon="17.570452195994143"><ele>10.2</ele><time>2026-04-29T13:46:26.001Z</time></trkpt><trkpt lat="40.303999936490634" lon="17.57031901303148"><ele>10.4</ele><time>2026-04-29T13:46:28.001Z</time></trkpt><trkpt lat="40.303982781775545" lon="17.57018726515601"><ele>10.600000000000001</ele><time>2026-04-29T13:46:30.001Z</time></trkpt><trkpt lat="40.30396032744523" lon="17.57006241714971"><ele>10.8</ele><time>2026-04-29T13:46:32.001Z</time></trkpt><trkpt lat="40.30395313218307" lon="17.569941793292294"><ele>11.0</ele><time>2026-04-29T13:46:34.001Z</time></trkpt><trkpt lat="40.30396685531149" lon="17.569816567499565"><ele>11.0</ele><time>2026-04-29T13:46:36.001Z</time></trkpt><trkpt lat="40.30396380171043" lon="17.569712656585686"><ele>11.0</ele><time>2026-04-29T13:46:38.001Z</time></trkpt><trkpt lat="40.30396752756755" lon="17.569603197581596"><ele>11.0</ele><time>2026-04-29T13:46:40.001Z</time></trkpt><trkpt lat="40.303971479332354" lon="17.5694842253003"><ele>11.0</ele><time>2026-04-29T13:46:42.002Z</time></trkpt><trkpt lat="40.30397792728773" lon="17.569385225019307"><ele>11.0</ele><time>2026-04-29T13:46:44.002Z</time></trkpt><trkpt lat="40.304001026944384" lon="17.56925450635381"><ele>11.0</ele><time>2026-04-29T13:46:46.002Z</time></trkpt><trkpt lat="40.3040302848795" lon="17.569113884048026"><ele>10.8</ele><time>2026-04-29T13:46:48.002Z</time></trkpt><trkpt lat="40.30405626415831" lon="17.568970439358594"><ele>10.600000000000001</ele><time>2026-04-29T13:46:50.002Z</time></trkpt><trkpt lat="40.30407867350163" lon="17.568844393985987"><ele>10.4</ele><time>2026-04-29T13:46:52.002Z</time></trkpt><trkpt lat="40.30411387405562" lon="17.568719935487433"><ele>10.2</ele><time>2026-04-29T13:46:54.002Z</time></trkpt><trkpt lat="40.30416499604753" lon="17.568586815581366"><ele>10.0</ele><time>2026-04-29T13:46:56.001Z</time></trkpt><trkpt lat="40.30421049378731" lon="17.568451963504966"><ele>9.75</ele><time>2026-04-29T13:46:58.001Z</time></trkpt><trkpt lat="40.3042529781472" lon="17.568310624957974"><ele>9.5</ele><time>2026-04-29T13:47:00.001Z</time></trkpt><trkpt lat="40.30429425781829" lon="17.568172434899594"><ele>9.25</ele><time>2026-04-29T13:47:02.001Z</time></trkpt><trkpt lat="40.304341989711986" lon="17.568040683605805"><ele>9.0</ele><time>2026-04-29T13:47:04.001Z</time></trkpt><trkpt lat="40.30438814982195" lon="17.567897083715547"><ele>9.2</ele><time>2026-04-29T13:47:06.001Z</time></trkpt><trkpt lat="40.30443222680029" lon="17.56777015845024"><ele>9.4</ele><time>2026-04-29T13:47:08.001Z</time></trkpt><trkpt lat="40.304482273813164" lon="17.567640538808714"><ele>9.6</ele><time>2026-04-29T13:47:10.001Z</time></trkpt><trkpt lat="40.3045229909993" lon="17.567509107608032"><ele>9.8</ele><time>2026-04-29T13:47:12.001Z</time></trkpt><trkpt lat="40.304573272118006" lon="17.567387870008623"><ele>10.0</ele><time>2026-04-29T13:47:14.001Z</time></trkpt><trkpt lat="40.30462245854035" lon="17.5672729814631"><ele>10.0</ele><time>2026-04-29T13:47:16.001Z</time></trkpt><trkpt lat="40.30464092043526" lon="17.567181680579647"><ele>10.0</ele><time>2026-04-29T13:47:18.001Z</time></trkpt><trkpt lat="40.30467864605295" lon="17.567071719778877"><ele>10.0</ele><time>2026-04-29T13:47:20.001Z</time></trkpt><trkpt lat="40.304696389332676" lon="17.56695901003912"><ele>10.0</ele><time>2026-04-29T13:47:22.001Z</time></trkpt><trkpt lat="40.30470874906161" lon="17.56684672699489"><ele>10.0</ele><time>2026-04-29T13:47:24.001Z</time></trkpt><trkpt lat="40.304731568225044" lon="17.56670988493935"><ele>10.0</ele><time>2026-04-29T13:47:26.001Z</time></trkpt><trkpt lat="40.304751773143586" lon="17.566563975529714"><ele>9.8</ele><time>2026-04-29T13:47:28.001Z</time></trkpt><trkpt lat="40.304767412127" lon="17.56641615957031"><ele>9.6</ele><time>2026-04-29T13:47:30.001Z</time></trkpt><trkpt lat="40.304785272550376" lon="17.566268997611036"><ele>9.4</ele><time>2026-04-29T13:47:32.001Z</time></trkpt><trkpt lat="40.304795966317315" lon="17.566127005396392"><ele>9.2</ele><time>2026-04-29T13:47:34.001Z</time></trkpt><trkpt lat="40.304814022428324" lon="17.566001750908526"><ele>9.0</ele><time>2026-04-29T13:47:36.001Z</time></trkpt><trkpt lat="40.30488752016159" lon="17.565926099756656"><ele>8.75</ele><time>2026-04-29T13:47:39.001Z</time></trkpt><trkpt lat="40.30497502394221" lon="17.565922863111783"><ele>8.5</ele><time>2026-04-29T13:47:41.001Z</time></trkpt><trkpt lat="40.305054136606145" lon="17.565928685985728"><ele>8.25</ele><time>2026-04-29T13:47:43.001Z</time></trkpt><trkpt lat="40.30513946005608" lon="17.565929447803015"><ele>8.0</ele><time>2026-04-29T13:47:45.001Z</time></trkpt><trkpt lat="40.30535386399146" lon="17.565939472216733"><ele>8.0</ele><time>2026-04-29T13:47:50.001Z</time></trkpt><trkpt lat="40.305445973037806" lon="17.565946271063655"><ele>8.0</ele><time>2026-04-29T13:47:52.001Z</time></trkpt><trkpt lat="40.30553569279566" lon="17.565951769686603"><ele>8.0</ele><time>2026-04-29T13:47:54.001Z</time></trkpt><trkpt lat="40.30562489174492" lon="17.565956193332124"><ele>8.0</ele><time>2026-04-29T13:47:56.001Z</time></trkpt><trkpt lat="40.30571066477891" lon="17.565957045213008"><ele>8.0</ele><time>2026-04-29T13:47:58.001Z</time></trkpt><trkpt lat="40.30580590922867" lon="17.565967362709678"><ele>7.833333333333333</ele><time>2026-04-29T13:48:00.001Z</time></trkpt><trkpt lat="40.30588813840344" lon="17.565967870984323"><ele>7.666666666666666</ele><time>2026-04-29T13:48:02.001Z</time></trkpt><trkpt lat="40.305966273127474" lon="17.56597479542922"><ele>7.5</ele><time>2026-04-29T13:48:04.001Z</time></trkpt><trkpt lat="40.30603433701213" lon="17.565975246599596"><ele>7.333333333333334</ele><time>2026-04-29T13:48:06.001Z</time></trkpt><trkpt lat="40.30605408492423" lon="17.56587714921163"><ele>7.166666666666667</ele><time>2026-04-29T13:48:48.002Z</time></trkpt><trkpt lat="40.306077731762905" lon="17.565758135730075"><ele>7.0</ele><time>2026-04-29T13:48:50.002Z</time></trkpt><trkpt lat="40.306103675860655" lon="17.56563481143463"><ele>7.0</ele><time>2026-04-29T13:48:52.002Z</time></trkpt><trkpt lat="40.30613631505592" lon="17.5655573010253"><ele>6.999999999999999</ele><time>2026-04-29T13:48:53.002Z</time></trkpt><trkpt lat="40.30616687876265" lon="17.565394066893344"><ele>6.999999999999999</ele><time>2026-04-29T13:48:55.002Z</time></trkpt><trkpt lat="40.3061775974048" lon="17.565305440664353"><ele>7.0</ele><time>2026-04-29T13:48:56.002Z</time></trkpt><trkpt lat="40.30619596602032" lon="17.565136454426806"><ele>7.0</ele><time>2026-04-29T13:48:58.002Z</time></trkpt><trkpt lat="40.306194881151576" lon="17.564987619069285"><ele>6.8</ele><time>2026-04-29T13:49:00.002Z</time></trkpt><trkpt lat="40.306218760707914" lon="17.564814676841706"><ele>6.6</ele><time>2026-04-29T13:49:02.002Z</time></trkpt><trkpt lat="40.30623314145154" lon="17.564723567738074"><ele>6.3999999999999995</ele><time>2026-04-29T13:49:03.002Z</time></trkpt><trkpt lat="40.30624827603107" lon="17.56463434961106"><ele>6.199999999999999</ele><time>2026-04-29T13:49:04.002Z</time></trkpt><trkpt lat="40.306262240079974" lon="17.56447007324425"><ele>6.0</ele><time>2026-04-29T13:49:06.002Z</time></trkpt><trkpt lat="40.30626926006038" lon="17.56438632300861"><ele>6.0</ele><time>2026-04-29T13:49:07.002Z</time></trkpt><trkpt lat="40.306282236626096" lon="17.56421314715144"><ele>6.0</ele><time>2026-04-29T13:49:09.001Z</time></trkpt><trkpt lat="40.30629551975937" lon="17.56412161849741"><ele>6.0</ele><time>2026-04-29T13:49:10.001Z</time></trkpt><trkpt lat="40.306310560787345" lon="17.564031465741294"><ele>6.0</ele><time>2026-04-29T13:49:11.001Z</time></trkpt><trkpt lat="40.30632134958905" lon="17.563941191436268"><ele>6.0</ele><time>2026-04-29T13:49:12.001Z</time></trkpt><trkpt lat="40.30633376045826" lon="17.563848403504547"><ele>6.0</ele><time>2026-04-29T13:49:13.001Z</time></trkpt><trkpt lat="40.30634220448912" lon="17.56375582805171"><ele>6.166666666666667</ele><time>2026-04-29T13:49:14.001Z</time></trkpt><trkpt lat="40.30635795017504" lon="17.56366752375977"><ele>6.333333333333334</ele><time>2026-04-29T13:49:15.001Z</time></trkpt><trkpt lat="40.30636842975322" lon="17.56357971261213"><ele>6.5</ele><time>2026-04-29T13:49:16.001Z</time></trkpt><trkpt lat="40.30637995387133" lon="17.563493916308598"><ele>6.666666666666667</ele><time>2026-04-29T13:49:17.001Z</time></trkpt><trkpt lat="40.30640058681456" lon="17.56332801685315"><ele>6.833333333333334</ele><time>2026-04-29T13:49:19.001Z</time></trkpt><trkpt lat="40.30640532371035" lon="17.563245213289374"><ele>7.0</ele><time>2026-04-29T13:49:20.001Z</time></trkpt><trkpt lat="40.30639200890671" lon="17.563093409207216"><ele>7.0</ele><time>2026-04-29T13:49:22.001Z</time></trkpt><trkpt lat="40.306333638779925" lon="17.562949578520765"><ele>6.999999999999999</ele><time>2026-04-29T13:49:24.001Z</time></trkpt><trkpt lat="40.306302723821496" lon="17.562872961389996"><ele>6.999999999999999</ele><time>2026-04-29T13:49:25.001Z</time></trkpt><trkpt lat="40.30623714567674" lon="17.562748600424445"><ele>7.0</ele><time>2026-04-29T13:49:27.001Z</time></trkpt><trkpt lat="40.30621577284492" lon="17.562670454794276"><ele>7.0</ele><time>2026-04-29T13:49:28.001Z</time></trkpt><trkpt lat="40.306125759655515" lon="17.56258597298431"><ele>7.75</ele><time>2026-04-29T13:49:30.001Z</time></trkpt><trkpt lat="40.30602679800372" lon="17.56251408155354"><ele>8.5</ele><time>2026-04-29T13:49:32.001Z</time></trkpt><trkpt lat="40.305926020446236" lon="17.56244479644581"><ele>9.25</ele><time>2026-04-29T13:49:34.001Z</time></trkpt><trkpt lat="40.305817255528986" lon="17.56239590659462"><ele>10.0</ele><time>2026-04-29T13:49:36.001Z</time></trkpt><trkpt lat="40.305716730944816" lon="17.56234153168481"><ele>10.0</ele><time>2026-04-29T13:49:38.001Z</time></trkpt><trkpt lat="40.30561501563714" lon="17.562282568405564"><ele>10.0</ele><time>2026-04-29T13:49:40.001Z</time></trkpt><trkpt lat="40.30551154312743" lon="17.562244186458013"><ele>10.0</ele><time>2026-04-29T13:49:42.001Z</time></trkpt><trkpt lat="40.305417139550514" lon="17.562183539957957"><ele>10.0</ele><time>2026-04-29T13:49:44.001Z</time></trkpt><trkpt lat="40.30532175681593" lon="17.562131560183673"><ele>10.0</ele><time>2026-04-29T13:49:46.001Z</time></trkpt><trkpt lat="40.305233690328" lon="17.56207226774087"><ele>10.2</ele><time>2026-04-29T13:49:48.001Z</time></trkpt><trkpt lat="40.3051500758869" lon="17.562003226226857"><ele>10.4</ele><time>2026-04-29T13:49:50.001Z</time></trkpt><trkpt lat="40.30507196913732" lon="17.56192875581005"><ele>10.600000000000001</ele><time>2026-04-29T13:49:52.001Z</time></trkpt><trkpt lat="40.30499191041912" lon="17.561845964668045"><ele>10.8</ele><time>2026-04-29T13:49:54.001Z</time></trkpt><trkpt lat="40.30491574757212" lon="17.56176798992048"><ele>11.0</ele><time>2026-04-29T13:49:56.001Z</time></trkpt><trkpt lat="40.304837138006825" lon="17.561675027655145"><ele>11.0</ele><time>2026-04-29T13:49:58.001Z</time></trkpt><trkpt lat="40.30477236983958" lon="17.56158158926167"><ele>11.0</ele><time>2026-04-29T13:50:00.001Z</time></trkpt><trkpt lat="40.30470386764126" lon="17.56148958057506"><ele>11.0</ele><time>2026-04-29T13:50:02.001Z</time></trkpt><trkpt lat="40.30465048618237" lon="17.56136988560152"><ele>11.0</ele><time>2026-04-29T13:50:04.001Z</time></trkpt><trkpt lat="40.304595261804245" lon="17.561247783944882"><ele>11.0</ele><time>2026-04-29T13:50:06.001Z</time></trkpt><trkpt lat="40.30455048987209" lon="17.561104294488064"><ele>10.5</ele><time>2026-04-29T13:50:08.001Z</time></trkpt><trkpt lat="40.30449439493602" lon="17.560977104189732"><ele>10.0</ele><time>2026-04-29T13:50:10.001Z</time></trkpt><trkpt lat="40.30446361871863" lon="17.560833082218565"><ele>9.5</ele><time>2026-04-29T13:50:12.001Z</time></trkpt><trkpt lat="40.30444353587851" lon="17.560691137546815"><ele>9.0</ele><time>2026-04-29T13:50:14.001Z</time></trkpt><trkpt lat="40.30443853724366" lon="17.560537719378964"><ele>9.0</ele><time>2026-04-29T13:50:16.001Z</time></trkpt><trkpt lat="40.30442816004862" lon="17.560394181134267"><ele>9.0</ele><time>2026-04-29T13:50:18.001Z</time></trkpt><trkpt lat="40.3044300963333" lon="17.56024601985011"><ele>9.0</ele><time>2026-04-29T13:50:20.001Z</time></trkpt><trkpt lat="40.30443249713853" lon="17.56009206040096"><ele>9.0</ele><time>2026-04-29T13:50:22.001Z</time></trkpt><trkpt lat="40.30443460919158" lon="17.559940079608065"><ele>9.25</ele><time>2026-04-29T13:50:24.001Z</time></trkpt><trkpt lat="40.30443758085312" lon="17.55978396424493"><ele>9.5</ele><time>2026-04-29T13:50:26.001Z</time></trkpt><trkpt lat="40.304438717129884" lon="17.5596292039341"><ele>9.75</ele><time>2026-04-29T13:50:28.001Z</time></trkpt><trkpt lat="40.304439247453075" lon="17.559470128806442"><ele>10.0</ele><time>2026-04-29T13:50:30.001Z</time></trkpt><trkpt lat="40.30444469698628" lon="17.559307839610977"><ele>10.0</ele><time>2026-04-29T13:50:32.001Z</time></trkpt><trkpt lat="40.30444172124674" lon="17.559144196885516"><ele>10.0</ele><time>2026-04-29T13:50:34.001Z</time></trkpt><trkpt lat="40.304443781311484" lon="17.559059505517233"><ele>10.0</ele><time>2026-04-29T13:50:35.001Z</time></trkpt><trkpt lat="40.30444285551314" lon="17.558895793943293"><ele>10.0</ele><time>2026-04-29T13:50:37.001Z</time></trkpt><trkpt lat="40.304443531931405" lon="17.558812539612735"><ele>10.0</ele><time>2026-04-29T13:50:38.001Z</time></trkpt><trkpt lat="40.304444484185495" lon="17.558647818840118"><ele>9.833333333333334</ele><time>2026-04-29T13:50:40.001Z</time></trkpt><trkpt lat="40.30445446293842" lon="17.558556531527444"><ele>9.666666666666668</ele><time>2026-04-29T13:50:41.001Z</time></trkpt><trkpt lat="40.30445173667937" lon="17.558393055117"><ele>9.5</ele><time>2026-04-29T13:50:43.001Z</time></trkpt><trkpt lat="40.30445305348404" lon="17.558309086959362"><ele>9.333333333333334</ele><time>2026-04-29T13:50:44.001Z</time></trkpt><trkpt lat="40.30445486864655" lon="17.558220602968866"><ele>9.166666666666666</ele><time>2026-04-29T13:50:45.001Z</time></trkpt><trkpt lat="40.304453939778845" lon="17.558135103412013"><ele>9.0</ele><time>2026-04-29T13:50:46.001Z</time></trkpt><trkpt lat="40.304451136138624" lon="17.557981519487246"><ele>9.0</ele><time>2026-04-29T13:50:48.001Z</time></trkpt><trkpt lat="40.304457231548966" lon="17.55789905940263"><ele>9.0</ele><time>2026-04-29T13:50:49.001Z</time></trkpt><trkpt lat="40.3044529926284" lon="17.557746521287545"><ele>9.0</ele><time>2026-04-29T13:50:51.001Z</time></trkpt><trkpt lat="40.30445822432555" lon="17.55758630810693"><ele>9.0</ele><time>2026-04-29T13:50:53.001Z</time></trkpt><trkpt lat="40.304456161719" lon="17.557433435624613"><ele>9.0</ele><time>2026-04-29T13:50:55.001Z</time></trkpt><trkpt lat="40.30445450710812" lon="17.557267676153458"><ele>8.75</ele><time>2026-04-29T13:50:57.001Z</time></trkpt><trkpt lat="40.304455421643276" lon="17.55710464683465"><ele>8.5</ele><time>2026-04-29T13:50:59.001Z</time></trkpt><trkpt lat="40.304451845072116" lon="17.556943728237368"><ele>8.25</ele><time>2026-04-29T13:51:01.001Z</time></trkpt><trkpt lat="40.304459051136476" lon="17.55678370650053"><ele>8.0</ele><time>2026-04-29T13:51:03.001Z</time></trkpt><trkpt lat="40.304454474806995" lon="17.556621148538298"><ele>7.999999999999999</ele><time>2026-04-29T13:51:05.002Z</time></trkpt><trkpt lat="40.30444979864691" lon="17.55646319480191"><ele>8.0</ele><time>2026-04-29T13:51:07.001Z</time></trkpt><trkpt lat="40.30445172558572" lon="17.556299243378827"><ele>8.0</ele><time>2026-04-29T13:51:09.001Z</time></trkpt><trkpt lat="40.30445293621315" lon="17.556216542790857"><ele>8.0</ele><time>2026-04-29T13:51:10.001Z</time></trkpt><trkpt lat="40.30445071160165" lon="17.55613302409624"><ele>7.999999999999999</ele><time>2026-04-29T13:51:11.001Z</time></trkpt><trkpt lat="40.30444817563821" lon="17.55604873597391"><ele>8.0</ele><time>2026-04-29T13:51:12.001Z</time></trkpt><trkpt lat="40.304446489015135" lon="17.555883860784046"><ele>7.7142857142857135</ele><time>2026-04-29T13:51:14.001Z</time></trkpt><trkpt lat="40.3044456434428" lon="17.55579520847697"><ele>7.428571428571428</ele><time>2026-04-29T13:51:15.001Z</time></trkpt><trkpt lat="40.304446253508345" lon="17.555709566885866"><ele>7.142857142857142</ele><time>2026-04-29T13:51:16.001Z</time></trkpt><trkpt lat="40.304449826453705" lon="17.555625375118417"><ele>6.857142857142857</ele><time>2026-04-29T13:51:17.001Z</time></trkpt><trkpt lat="40.304449931835514" lon="17.555538584678878"><ele>6.571428571428571</ele><time>2026-04-29T13:51:18.001Z</time></trkpt><trkpt lat="40.304449463882236" lon="17.555455691111074"><ele>6.285714285714285</ele><time>2026-04-29T13:51:19.001Z</time></trkpt><trkpt lat="40.304451496021684" lon="17.555370011201337"><ele>6.0</ele><time>2026-04-29T13:51:20.001Z</time></trkpt><trkpt lat="40.30445335106073" lon="17.555284985535156"><ele>6.0</ele><time>2026-04-29T13:51:21.001Z</time></trkpt><trkpt lat="40.304452174045856" lon="17.555196645038148"><ele>6.0</ele><time>2026-04-29T13:51:22.001Z</time></trkpt><trkpt lat="40.30445323569398" lon="17.555109565908893"><ele>6.0</ele><time>2026-04-29T13:51:23.001Z</time></trkpt><trkpt lat="40.304454596719474" lon="17.55502227160943"><ele>6.0</ele><time>2026-04-29T13:51:24.001Z</time></trkpt><trkpt lat="40.304455600803614" lon="17.554937773835285"><ele>6.0</ele><time>2026-04-29T13:51:25.001Z</time></trkpt><trkpt lat="40.30445608093782" lon="17.55477424266976"><ele>6.0</ele><time>2026-04-29T13:51:27.001Z</time></trkpt><trkpt lat="40.304443818487115" lon="17.554613980142303"><ele>6.199999999999999</ele><time>2026-04-29T13:51:29.001Z</time></trkpt><trkpt lat="40.3044477080786" lon="17.55452862283704"><ele>6.3999999999999995</ele><time>2026-04-29T13:51:30.001Z</time></trkpt><trkpt lat="40.30444154262949" lon="17.554370071596875"><ele>6.6</ele><time>2026-04-29T13:51:32.001Z</time></trkpt><trkpt lat="40.30443688805004" lon="17.55421786000269"><ele>6.8</ele><time>2026-04-29T13:51:34.001Z</time></trkpt><trkpt lat="40.30443137278993" lon="17.554068176782717"><ele>7.0</ele><time>2026-04-29T13:51:36.001Z</time></trkpt><trkpt lat="40.304438830469124" lon="17.553930656821482"><ele>7.000000000000001</ele><time>2026-04-29T13:51:38.001Z</time></trkpt><trkpt lat="40.30452628222684" lon="17.55392111704837"><ele>7.0</ele><time>2026-04-29T13:51:41.001Z</time></trkpt><trkpt lat="40.30459845375552" lon="17.553898886355956"><ele>7.0</ele><time>2026-04-29T13:51:43.001Z</time></trkpt><trkpt lat="40.304664961608175" lon="17.55391280396433"><ele>7.0</ele><time>2026-04-29T13:51:45.001Z</time></trkpt><trkpt lat="40.30473863914798" lon="17.553912872248873"><ele>7.000000000000001</ele><time>2026-04-29T13:51:47.001Z</time></trkpt><trkpt lat="40.304815152418946" lon="17.55391738926683"><ele>7.0</ele><time>2026-04-29T13:51:49.001Z</time></trkpt><trkpt lat="40.30488978047373" lon="17.55392424197664"><ele>7.199999999999999</ele><time>2026-04-29T13:51:51.001Z</time></trkpt><trkpt lat="40.30498035959134" lon="17.55393064862632"><ele>7.3999999999999995</ele><time>2026-04-29T13:51:53.001Z</time></trkpt><trkpt lat="40.30508322393769" lon="17.553910047889758"><ele>7.6000000000000005</ele><time>2026-04-29T13:51:55.001Z</time></trkpt><trkpt lat="40.30518858497506" lon="17.55389066830826"><ele>7.800000000000001</ele><time>2026-04-29T13:51:57.001Z</time></trkpt><trkpt lat="40.305287305966374" lon="17.553855560247545"><ele>8.0</ele><time>2026-04-29T13:51:59.001Z</time></trkpt><trkpt lat="40.30540154509057" lon="17.55383758878016"><ele>8.0</ele><time>2026-04-29T13:52:01.001Z</time></trkpt><trkpt lat="40.30551174529979" lon="17.55380375017761"><ele>8.0</ele><time>2026-04-29T13:52:03.001Z</time></trkpt><trkpt lat="40.3056175472763" lon="17.553756394290453"><ele>8.0</ele><time>2026-04-29T13:52:05.001Z</time></trkpt><trkpt lat="40.305719559676845" lon="17.55371739579036"><ele>8.0</ele><time>2026-04-29T13:52:07.001Z</time></trkpt><trkpt lat="40.305830196776014" lon="17.55371170999296"><ele>8.0</ele><time>2026-04-29T13:52:09.001Z</time></trkpt><trkpt lat="40.30592825724458" lon="17.553762503947823"><ele>8.166666666666666</ele><time>2026-04-29T13:52:11.001Z</time></trkpt><trkpt lat="40.30602454684204" lon="17.553831668801298"><ele>8.333333333333332</ele><time>2026-04-29T13:52:13.001Z</time></trkpt><trkpt lat="40.30611182417626" lon="17.55387986331893"><ele>8.5</ele><time>2026-04-29T13:52:15.001Z</time></trkpt><trkpt lat="40.30618206066551" lon="17.553934001673937"><ele>8.666666666666666</ele><time>2026-04-29T13:52:17.001Z</time></trkpt><trkpt lat="40.30624875578767" lon="17.55399182853182"><ele>8.833333333333334</ele><time>2026-04-29T13:52:19.001Z</time></trkpt><trkpt lat="40.30629587969884" lon="17.554048803077865"><ele>9.0</ele><time>2026-04-29T13:52:21.001Z</time></trkpt><trkpt lat="40.30636333699478" lon="17.55409350172262"><ele>9.0</ele><time>2026-04-29T13:52:23.001Z</time></trkpt><trkpt lat="40.30644420213173" lon="17.55409570758901"><ele>9.0</ele><time>2026-04-29T13:52:25.001Z</time></trkpt><trkpt lat="40.306531399533455" lon="17.55408114392317"><ele>9.0</ele><time>2026-04-29T13:52:27.001Z</time></trkpt><trkpt lat="40.30661965819746" lon="17.55404928260253"><ele>9.0</ele><time>2026-04-29T13:52:29.001Z</time></trkpt><trkpt lat="40.3067007245011" lon="17.554049568315836"><ele>9.0</ele><time>2026-04-29T13:52:31.001Z</time></trkpt><trkpt lat="40.30675630610631" lon="17.554110826849655"><ele>9.0</ele><time>2026-04-29T13:52:33.001Z</time></trkpt><trkpt lat="40.30681085212258" lon="17.554201553354375"><ele>9.0</ele><time>2026-04-29T13:52:35.001Z</time></trkpt><trkpt lat="40.30686819751862" lon="17.55429613755512"><ele>9.0</ele><time>2026-04-29T13:52:37.001Z</time></trkpt><trkpt lat="40.3069405632019" lon="17.554354735741"><ele>9.0</ele><time>2026-04-29T13:52:39.001Z</time></trkpt><trkpt lat="40.30702914916524" lon="17.55436856209275"><ele>9.0</ele><time>2026-04-29T13:52:41.001Z</time></trkpt><trkpt lat="40.30713396658478" lon="17.55435592824866"><ele>9.0</ele><time>2026-04-29T13:52:43.001Z</time></trkpt><trkpt lat="40.307240000524345" lon="17.554343745473542"><ele>8.333333333333334</ele><time>2026-04-29T13:52:45.001Z</time></trkpt><trkpt lat="40.30733041923313" lon="17.55434218637902"><ele>7.666666666666667</ele><time>2026-04-29T13:52:49.001Z</time></trkpt><trkpt lat="40.307662380869004" lon="17.554362579453503"><ele>7.0</ele><time>2026-04-29T13:52:52.001Z</time></trkpt><trkpt lat="40.30776771487408" lon="17.554355788373176"><ele>7.0</ele><time>2026-04-29T13:52:54.001Z</time></trkpt><trkpt lat="40.307876353441394" lon="17.554348501454996"><ele>6.999999999999999</ele><time>2026-04-29T13:52:56.001Z</time></trkpt><trkpt lat="40.307978207106316" lon="17.554341452315878"><ele>6.999999999999999</ele><time>2026-04-29T13:52:58.001Z</time></trkpt><trkpt lat="40.30807147110003" lon="17.554334997653058"><ele>7.0</ele><time>2026-04-29T13:53:00.001Z</time></trkpt><trkpt lat="40.308173011050535" lon="17.554307770561742"><ele>7.0</ele><time>2026-04-29T13:53:02.001Z</time></trkpt><trkpt lat="40.308282399519946" lon="17.55432039961029"><ele>7.3999999999999995</ele><time>2026-04-29T13:53:04.001Z</time></trkpt><trkpt lat="40.308385425684605" lon="17.554295289688355"><ele>7.799999999999999</ele><time>2026-04-29T13:53:06.001Z</time></trkpt><trkpt lat="40.3084837964858" lon="17.55429757484499"><ele>8.2</ele><time>2026-04-29T13:53:08.001Z</time></trkpt><trkpt lat="40.30858215361959" lon="17.554279068812992"><ele>8.6</ele><time>2026-04-29T13:53:10.001Z</time></trkpt><trkpt lat="40.30867275802274" lon="17.55429651750292"><ele>9.0</ele><time>2026-04-29T13:53:12.001Z</time></trkpt><trkpt lat="40.308751563525114" lon="17.554299583245793"><ele>9.0</ele><time>2026-04-29T13:53:14.001Z</time></trkpt><trkpt lat="40.308849584022695" lon="17.5542938352411"><ele>9.0</ele><time>2026-04-29T13:53:16.001Z</time></trkpt><trkpt lat="40.30895437080982" lon="17.554324440621723"><ele>9.0</ele><time>2026-04-29T13:53:18.001Z</time></trkpt><trkpt lat="40.30905388769876" lon="17.554319533508668"><ele>9.0</ele><time>2026-04-29T13:53:20.001Z</time></trkpt><trkpt lat="40.309161887364866" lon="17.554331752386524"><ele>9.0</ele><time>2026-04-29T13:53:22.001Z</time></trkpt><trkpt lat="40.309266816481475" lon="17.554324743344434"><ele>9.0</ele><time>2026-04-29T13:53:24.001Z</time></trkpt><trkpt lat="40.30936736196591" lon="17.55430304570227"><ele>9.0</ele><time>2026-04-29T13:53:26.001Z</time></trkpt><trkpt lat="40.309473406086965" lon="17.55429493692596"><ele>9.0</ele><time>2026-04-29T13:53:28.001Z</time></trkpt><trkpt lat="40.30959030083841" lon="17.554293160865353"><ele>9.0</ele><time>2026-04-29T13:53:31Z</time></trkpt><trkpt lat="40.30977756501654" lon="17.554278336575997"><ele>9.0</ele><time>2026-04-29T13:53:33Z</time></trkpt><trkpt lat="40.309894363542476" lon="17.554274342326003"><ele>9.0</ele><time>2026-04-29T13:53:35Z</time></trkpt><trkpt lat="40.31000596858213" lon="17.55426972053202"><ele>9.0</ele><time>2026-04-29T13:53:37Z</time></trkpt><trkpt lat="40.31011266035187" lon="17.554274420411712"><ele>9.0</ele><time>2026-04-29T13:53:39Z</time></trkpt><trkpt lat="40.31017747810039" lon="17.554250394812605"><ele>9.0</ele><time>2026-04-29T13:53:40Z</time></trkpt><trkpt lat="40.310288246792766" lon="17.554251548268834"><ele>9.0</ele><time>2026-04-29T13:53:42Z</time></trkpt><trkpt lat="40.310397217590804" lon="17.5542411425034"><ele>9.0</ele><time>2026-04-29T13:53:44Z</time></trkpt><trkpt lat="40.31050232791367" lon="17.554253867374765"><ele>9.0</ele><time>2026-04-29T13:53:46Z</time></trkpt><trkpt lat="40.31059776136055" lon="17.554249191085518"><ele>9.0</ele><time>2026-04-29T13:53:48Z</time></trkpt><trkpt lat="40.31069281148021" lon="17.554244531999778"><ele>9.0</ele><time>2026-04-29T13:53:50Z</time></trkpt><trkpt lat="40.31078558960109" lon="17.554239984268673"><ele>9.333333333333334</ele><time>2026-04-29T13:53:52Z</time></trkpt><trkpt lat="40.31086915363455" lon="17.554235888196914"><ele>9.666666666666666</ele><time>2026-04-29T13:53:54Z</time></trkpt><trkpt lat="40.31095367741311" lon="17.554231745084238"><ele>10.0</ele><time>2026-04-29T13:53:57Z</time></trkpt><trkpt lat="40.31102367508085" lon="17.554228313998117"><ele>10.333333333333332</ele><time>2026-04-29T13:53:59Z</time></trkpt><trkpt lat="40.31111259652568" lon="17.55422340464204"><ele>10.666666666666666</ele><time>2026-04-29T13:54:02Z</time></trkpt><trkpt lat="40.311195994190136" lon="17.554217566407818"><ele>11.0</ele><time>2026-04-29T13:54:05Z</time></trkpt><trkpt lat="40.311274961650355" lon="17.554212038309707"><ele>11.0</ele><time>2026-04-29T13:54:08Z</time></trkpt><trkpt lat="40.31135728628478" lon="17.554206275194616"><ele>11.0</ele><time>2026-04-29T13:54:11Z</time></trkpt><trkpt lat="40.311426357330575" lon="17.55420143989275"><ele>11.0</ele><time>2026-04-29T13:54:14Z</time></trkpt><trkpt lat="40.31151452934263" lon="17.554195267429048"><ele>11.0</ele><time>2026-04-29T13:54:17Z</time></trkpt><trkpt lat="40.311596908947415" lon="17.554163799115695"><ele>11.0</ele><time>2026-04-29T13:54:19Z</time></trkpt><trkpt lat="40.3116767911803" lon="17.554156788890865"><ele>11.0</ele><time>2026-04-29T13:54:21Z</time></trkpt><trkpt lat="40.3116560825999" lon="17.554052666802484"><ele>11.333333333333332</ele><time>2026-04-29T13:54:27Z</time></trkpt><trkpt lat="40.311646528798875" lon="17.553959674214376"><ele>11.666666666666666</ele><time>2026-04-29T13:54:29Z</time></trkpt><trkpt lat="40.31163222891173" lon="17.55385477538323"><ele>12.0</ele><time>2026-04-29T13:54:31Z</time></trkpt><trkpt lat="40.311600418047895" lon="17.553757708225312"><ele>12.333333333333332</ele><time>2026-04-29T13:54:33Z</time></trkpt><trkpt lat="40.311569075850656" lon="17.553656955974944"><ele>12.666666666666666</ele><time>2026-04-29T13:54:35Z</time></trkpt><trkpt lat="40.31153987178231" lon="17.553577870278"><ele>13.0</ele><time>2026-04-29T13:54:37Z</time></trkpt><trkpt lat="40.31149677329946" lon="17.553476192841366"><ele>13.0</ele><time>2026-04-29T13:54:39Z</time></trkpt><trkpt lat="40.31146466273365" lon="17.55335362691805"><ele>13.0</ele><time>2026-04-29T13:54:41Z</time></trkpt><trkpt lat="40.311428986881495" lon="17.553212154965355"><ele>13.0</ele><time>2026-04-29T13:54:43Z</time></trkpt><trkpt lat="40.31139242695356" lon="17.553063009680876"><ele>13.0</ele><time>2026-04-29T13:54:45Z</time></trkpt><trkpt lat="40.311360786763885" lon="17.55292300385983"><ele>13.0</ele><time>2026-04-29T13:54:47Z</time></trkpt><trkpt lat="40.31132547393912" lon="17.552772703641423"><ele>12.8</ele><time>2026-04-29T13:54:49Z</time></trkpt><trkpt lat="40.311291263666256" lon="17.552624298680556"><ele>12.600000000000001</ele><time>2026-04-29T13:54:51Z</time></trkpt><trkpt lat="40.311252994879524" lon="17.552480324561078"><ele>12.399999999999999</ele><time>2026-04-29T13:54:53Z</time></trkpt><trkpt lat="40.311226127086044" lon="17.55232239475267"><ele>12.2</ele><time>2026-04-29T13:54:55Z</time></trkpt><trkpt lat="40.311199149592056" lon="17.552246685212786"><ele>12.0</ele><time>2026-04-29T13:54:56Z</time></trkpt><trkpt lat="40.31117441980852" lon="17.552170029338722"><ele>11.999999999999998</ele><time>2026-04-29T13:54:57Z</time></trkpt><trkpt lat="40.3111539093136" lon="17.552089539656127"><ele>12.0</ele><time>2026-04-29T13:54:58Z</time></trkpt><trkpt lat="40.311144895051015" lon="17.552003795744618"><ele>12.0</ele><time>2026-04-29T13:54:59Z</time></trkpt><trkpt lat="40.31111953106525" lon="17.55191619716518"><ele>12.0</ele><time>2026-04-29T13:55:00Z</time></trkpt><trkpt lat="40.311103222807574" lon="17.551820277203692"><ele>12.0</ele><time>2026-04-29T13:55:01Z</time></trkpt><trkpt lat="40.311086715536895" lon="17.5517296046319"><ele>11.999999999999998</ele><time>2026-04-29T13:55:02Z</time></trkpt><trkpt lat="40.311068903816185" lon="17.55162940338952"><ele>12.0</ele><time>2026-04-29T13:55:03Z</time></trkpt><trkpt lat="40.311054381495154" lon="17.551536774553185"><ele>11.571428571428571</ele><time>2026-04-29T13:55:04Z</time></trkpt><trkpt lat="40.31103776269646" lon="17.551447341787053"><ele>11.142857142857142</ele><time>2026-04-29T13:55:05Z</time></trkpt><trkpt lat="40.31101700931148" lon="17.551360955567997"><ele>10.714285714285715</ele><time>2026-04-29T13:55:06Z</time></trkpt><trkpt lat="40.311003134382105" lon="17.551267912819032"><ele>10.285714285714285</ele><time>2026-04-29T13:55:07Z</time></trkpt><trkpt lat="40.31098725985982" lon="17.551176239944326"><ele>9.857142857142858</ele><time>2026-04-29T13:55:08Z</time></trkpt><trkpt lat="40.31096951181301" lon="17.551087493042026"><ele>9.428571428571429</ele><time>2026-04-29T13:55:09.001Z</time></trkpt><trkpt lat="40.31095824370258" lon="17.550996690265503"><ele>9.0</ele><time>2026-04-29T13:55:10.001Z</time></trkpt><trkpt lat="40.31094277581278" lon="17.55090885744062"><ele>9.000000000000002</ele><time>2026-04-29T13:55:11.001Z</time></trkpt><trkpt lat="40.31092518069311" lon="17.55081953143919"><ele>9.0</ele><time>2026-04-29T13:55:12.001Z</time></trkpt><trkpt lat="40.310911267619566" lon="17.550729560546248"><ele>9.0</ele><time>2026-04-29T13:55:13.001Z</time></trkpt><trkpt lat="40.310894701086816" lon="17.550641453521223"><ele>9.0</ele><time>2026-04-29T13:55:14.001Z</time></trkpt><trkpt lat="40.3108785034775" lon="17.55055820865492"><ele>9.0</ele><time>2026-04-29T13:55:15.001Z</time></trkpt><trkpt lat="40.310862104128724" lon="17.55047296744277"><ele>9.000000000000002</ele><time>2026-04-29T13:55:16.001Z</time></trkpt><trkpt lat="40.310847810171985" lon="17.550391429707588"><ele>9.0</ele><time>2026-04-29T13:55:17.001Z</time></trkpt><trkpt lat="40.31083216756165" lon="17.55031095288749"><ele>9.166666666666666</ele><time>2026-04-29T13:55:18.001Z</time></trkpt><trkpt lat="40.310813594630986" lon="17.550225480368738"><ele>9.333333333333334</ele><time>2026-04-29T13:55:19Z</time></trkpt><trkpt lat="40.310800969019326" lon="17.55014267820401"><ele>9.5</ele><time>2026-04-29T13:55:20Z</time></trkpt><trkpt lat="40.31078678917315" lon="17.550061336605786"><ele>9.666666666666668</ele><time>2026-04-29T13:55:21Z</time></trkpt><trkpt lat="40.31075864938941" lon="17.549900293766598"><ele>9.833333333333334</ele><time>2026-04-29T13:55:23Z</time></trkpt><trkpt lat="40.31073307994089" lon="17.54974311025966"><ele>10.0</ele><time>2026-04-29T13:55:25Z</time></trkpt><trkpt lat="40.31070933725327" lon="17.549592663304406"><ele>10.25</ele><time>2026-04-29T13:55:27Z</time></trkpt><trkpt lat="40.310686040389186" lon="17.549436331033835"><ele>10.5</ele><time>2026-04-29T13:55:29Z</time></trkpt><trkpt lat="40.310661140633165" lon="17.549288914612102"><ele>10.75</ele><time>2026-04-29T13:55:31Z</time></trkpt><trkpt lat="40.310638213431616" lon="17.549139351975555"><ele>11.0</ele><time>2026-04-29T13:55:33Z</time></trkpt><trkpt lat="40.31061445598101" lon="17.54898946692741"><ele>11.0</ele><time>2026-04-29T13:55:35Z</time></trkpt><trkpt lat="40.31059020779208" lon="17.54884547500888"><ele>11.0</ele><time>2026-04-29T13:55:37Z</time></trkpt><trkpt lat="40.31057240740694" lon="17.548701691489025"><ele>11.0</ele><time>2026-04-29T13:55:39Z</time></trkpt><trkpt lat="40.31054739008909" lon="17.548559616134657"><ele>11.0</ele><time>2026-04-29T13:55:41Z</time></trkpt><trkpt lat="40.31051896580192" lon="17.54842470839317"><ele>11.0</ele><time>2026-04-29T13:55:43Z</time></trkpt><trkpt lat="40.310495007438604" lon="17.548287816092643"><ele>10.8</ele><time>2026-04-29T13:55:45Z</time></trkpt><trkpt lat="40.310474686782115" lon="17.5481517729716"><ele>10.600000000000001</ele><time>2026-04-29T13:55:47Z</time></trkpt><trkpt lat="40.31045897258793" lon="17.54801201954142"><ele>10.4</ele><time>2026-04-29T13:55:49Z</time></trkpt><trkpt lat="40.31046353363926" lon="17.547877799647722"><ele>10.2</ele><time>2026-04-29T13:55:51Z</time></trkpt><trkpt lat="40.31045942299925" lon="17.547745964678576"><ele>10.0</ele><time>2026-04-29T13:55:53Z</time></trkpt><trkpt lat="40.31046816634096" lon="17.54761880830363"><ele>10.0</ele><time>2026-04-29T13:55:55Z</time></trkpt><trkpt lat="40.31047736621606" lon="17.547488065801755"><ele>10.0</ele><time>2026-04-29T13:55:57Z</time></trkpt><trkpt lat="40.31048924663809" lon="17.54735770154851"><ele>10.0</ele><time>2026-04-29T13:55:59Z</time></trkpt><trkpt lat="40.310498340448795" lon="17.547225824718186"><ele>10.0</ele><time>2026-04-29T13:56:01Z</time></trkpt><trkpt lat="40.31051374233221" lon="17.5470965564591"><ele>10.0</ele><time>2026-04-29T13:56:03Z</time></trkpt><trkpt lat="40.31052940254163" lon="17.546954437043247"><ele>10.166666666666668</ele><time>2026-04-29T13:56:05Z</time></trkpt><trkpt lat="40.31053919285506" lon="17.54683495924373"><ele>10.333333333333334</ele><time>2026-04-29T13:56:07Z</time></trkpt><trkpt lat="40.31054645065085" lon="17.546715335452124"><ele>10.5</ele><time>2026-04-29T13:56:09Z</time></trkpt><trkpt lat="40.31055988633326" lon="17.546587331098696"><ele>10.666666666666666</ele><time>2026-04-29T13:56:11Z</time></trkpt><trkpt lat="40.310586590895156" lon="17.546486151722767"><ele>10.833333333333332</ele><time>2026-04-29T13:56:13Z</time></trkpt><trkpt lat="40.310597584067935" lon="17.546384594552237"><ele>11.0</ele><time>2026-04-29T13:56:15Z</time></trkpt><trkpt lat="40.31061216079383" lon="17.546266366275596"><ele>11.200000000000001</ele><time>2026-04-29T13:56:17Z</time></trkpt><trkpt lat="40.31062948049458" lon="17.546128541574653"><ele>11.4</ele><time>2026-04-29T13:56:19Z</time></trkpt><trkpt lat="40.310647586093204" lon="17.545993500236293"><ele>11.6</ele><time>2026-04-29T13:56:21Z</time></trkpt><trkpt lat="40.31066953498608" lon="17.545868641199206"><ele>11.8</ele><time>2026-04-29T13:56:23Z</time></trkpt><trkpt lat="40.31070137780514" lon="17.545735020234773"><ele>12.0</ele><time>2026-04-29T13:56:25Z</time></trkpt><trkpt lat="40.31072975049378" lon="17.545652146285857"><ele>12.0</ele><time>2026-04-29T13:56:29Z</time></trkpt><trkpt lat="40.31076497740229" lon="17.545565786759017"><ele>12.0</ele><time>2026-04-29T13:56:31Z</time></trkpt><trkpt lat="40.310800685895195" lon="17.54549436177914"><ele>12.0</ele><time>2026-04-29T13:56:32Z</time></trkpt><trkpt lat="40.31087419030751" lon="17.54544767119037"><ele>12.0</ele><time>2026-04-29T13:56:34Z</time></trkpt><trkpt lat="40.31119367138693" lon="17.545260807326947"><ele>12.0</ele><time>2026-04-29T13:56:36Z</time></trkpt><trkpt lat="40.31130754990226" lon="17.545234260059686"><ele>12.0</ele><time>2026-04-29T13:56:38Z</time></trkpt><trkpt lat="40.31141093158452" lon="17.5451925332253"><ele>12.0</ele><time>2026-04-29T13:56:40Z</time></trkpt><trkpt lat="40.31152221852456" lon="17.545169150701774"><ele>12.0</ele><time>2026-04-29T13:56:42Z</time></trkpt><trkpt lat="40.311630461394785" lon="17.545142521679477"><ele>12.0</ele><time>2026-04-29T13:56:44Z</time></trkpt><trkpt lat="40.311725937811" lon="17.54510889180919"><ele>11.6</ele><time>2026-04-29T13:56:46Z</time></trkpt><trkpt lat="40.31183291208297" lon="17.545069363639634"><ele>11.2</ele><time>2026-04-29T13:56:48Z</time></trkpt><trkpt lat="40.31193144146902" lon="17.545027982443056"><ele>10.8</ele><time>2026-04-29T13:56:50Z</time></trkpt><trkpt lat="40.312021529838276" lon="17.54499392385696"><ele>10.4</ele><time>2026-04-29T13:56:52Z</time></trkpt><trkpt lat="40.31211526507502" lon="17.545002239173478"><ele>10.0</ele><time>2026-04-29T13:56:54Z</time></trkpt><trkpt lat="40.31223679520668" lon="17.545024226571137"><ele>10.2</ele><time>2026-04-29T13:56:56Z</time></trkpt><trkpt lat="40.31233391426845" lon="17.545011427185997"><ele>10.4</ele><time>2026-04-29T13:56:58Z</time></trkpt><trkpt lat="40.312447375141694" lon="17.545013721409603"><ele>10.600000000000001</ele><time>2026-04-29T13:57:00Z</time></trkpt><trkpt lat="40.312554428618334" lon="17.545032918382024"><ele>10.8</ele><time>2026-04-29T13:57:02Z</time></trkpt><trkpt lat="40.31266374858622" lon="17.545026692161763"><ele>11.0</ele><time>2026-04-29T13:57:04Z</time></trkpt><trkpt lat="40.312770929138445" lon="17.545033437958494"><ele>11.0</ele><time>2026-04-29T13:57:06Z</time></trkpt><trkpt lat="40.3128738940334" lon="17.545062164724783"><ele>11.0</ele><time>2026-04-29T13:57:08Z</time></trkpt><trkpt lat="40.31297527771286" lon="17.545070359091774"><ele>11.0</ele><time>2026-04-29T13:57:10Z</time></trkpt><trkpt lat="40.31306301544068" lon="17.545073090674524"><ele>11.0</ele><time>2026-04-29T13:57:12Z</time></trkpt><trkpt lat="40.31314400475122" lon="17.545075629286387"><ele>11.0</ele><time>2026-04-29T13:57:14Z</time></trkpt><trkpt lat="40.31323046470575" lon="17.54507833937599"><ele>11.333333333333332</ele><time>2026-04-29T13:57:16Z</time></trkpt><trkpt lat="40.31331988478382" lon="17.545063720340448"><ele>11.666666666666666</ele><time>2026-04-29T13:57:18Z</time></trkpt><trkpt lat="40.31340645459685" lon="17.545083855784764"><ele>12.0</ele><time>2026-04-29T13:57:20Z</time></trkpt><trkpt lat="40.31349227602043" lon="17.54507313794064"><ele>12.333333333333332</ele><time>2026-04-29T13:57:22Z</time></trkpt><trkpt lat="40.31358108335284" lon="17.54507184677558"><ele>12.666666666666666</ele><time>2026-04-29T13:57:24Z</time></trkpt><trkpt lat="40.31367100199613" lon="17.545072498916312"><ele>13.0</ele><time>2026-04-29T13:57:26Z</time></trkpt><trkpt lat="40.3137609392701" lon="17.545075330207812"><ele>12.999999999999998</ele><time>2026-04-29T13:57:28Z</time></trkpt><trkpt lat="40.31385205115227" lon="17.545081421250917"><ele>13.0</ele><time>2026-04-29T13:57:30Z</time></trkpt><trkpt lat="40.31393514289886" lon="17.545087437357296"><ele>13.0</ele><time>2026-04-29T13:57:32Z</time></trkpt><trkpt lat="40.314012874029785" lon="17.545094044252767"><ele>13.0</ele><time>2026-04-29T13:57:34Z</time></trkpt><trkpt lat="40.31408471026904" lon="17.545080182657248"><ele>12.999999999999998</ele><time>2026-04-29T13:57:36Z</time></trkpt><trkpt lat="40.31415672928822" lon="17.545086879024513"><ele>13.0</ele><time>2026-04-29T13:57:38Z</time></trkpt><trkpt lat="40.31422633308846" lon="17.545084904961413"><ele>13.166666666666666</ele><time>2026-04-29T13:57:40Z</time></trkpt><trkpt lat="40.314299328990785" lon="17.545077793664532"><ele>13.333333333333332</ele><time>2026-04-29T13:57:42Z</time></trkpt><trkpt lat="40.314379349029956" lon="17.54506898647537"><ele>13.5</ele><time>2026-04-29T13:57:44Z</time></trkpt><trkpt lat="40.314462520837424" lon="17.545082951228583"><ele>13.666666666666668</ele><time>2026-04-29T13:57:46Z</time></trkpt><trkpt lat="40.31454166454" lon="17.545101140856598"><ele>13.833333333333334</ele><time>2026-04-29T13:57:48Z</time></trkpt><trkpt lat="40.314622051841624" lon="17.54510830693553"><ele>14.0</ele><time>2026-04-29T13:57:50Z</time></trkpt><trkpt lat="40.31470088902388" lon="17.54509915574117"><ele>13.833333333333334</ele><time>2026-04-29T13:57:52Z</time></trkpt><trkpt lat="40.31477351174728" lon="17.54508864920857"><ele>13.666666666666668</ele><time>2026-04-29T13:57:54Z</time></trkpt><trkpt lat="40.31482470779115" lon="17.544979335504017"><ele>13.5</ele><time>2026-04-29T13:57:57Z</time></trkpt><trkpt lat="40.31485433589134" lon="17.544882437575087"><ele>13.333333333333332</ele><time>2026-04-29T13:57:59Z</time></trkpt><trkpt lat="40.31493034997767" lon="17.544839753845213"><ele>13.166666666666666</ele><time>2026-04-29T13:58:01Z</time></trkpt><trkpt lat="40.31501459809711" lon="17.544838031765867"><ele>13.0</ele><time>2026-04-29T13:58:03Z</time></trkpt><trkpt lat="40.31510697143529" lon="17.544820082538543"><ele>13.0</ele><time>2026-04-29T13:58:05Z</time></trkpt><trkpt lat="40.31519710982852" lon="17.54481369553875"><ele>13.0</ele><time>2026-04-29T13:58:07Z</time></trkpt><trkpt lat="40.315285333272676" lon="17.54478998275088"><ele>13.0</ele><time>2026-04-29T13:58:09Z</time></trkpt><trkpt lat="40.315380084265854" lon="17.544773025400183"><ele>13.0</ele><time>2026-04-29T13:58:11Z</time></trkpt><trkpt lat="40.31547022367754" lon="17.544760090904944"><ele>13.0</ele><time>2026-04-29T13:58:13Z</time></trkpt><trkpt lat="40.31555799341331" lon="17.544746545509668"><ele>12.8</ele><time>2026-04-29T13:58:15Z</time></trkpt><trkpt lat="40.31565249146476" lon="17.544720873494953"><ele>12.600000000000001</ele><time>2026-04-29T13:58:17Z</time></trkpt><trkpt lat="40.31574699479709" lon="17.54468966942088"><ele>12.399999999999999</ele><time>2026-04-29T13:58:19Z</time></trkpt><trkpt lat="40.31585622458415" lon="17.54465431609153"><ele>12.2</ele><time>2026-04-29T13:58:21Z</time></trkpt><trkpt lat="40.315969804388196" lon="17.544641172481732"><ele>12.0</ele><time>2026-04-29T13:58:23Z</time></trkpt><trkpt lat="40.3160711264434" lon="17.544627194774773"><ele>12.0</ele><time>2026-04-29T13:58:25Z</time></trkpt><trkpt lat="40.316187520504116" lon="17.54462051419903"><ele>12.0</ele><time>2026-04-29T13:58:27Z</time></trkpt><trkpt lat="40.31630280918575" lon="17.54460405267634"><ele>12.0</ele><time>2026-04-29T13:58:29Z</time></trkpt><trkpt lat="40.316417167894784" lon="17.54458912853922"><ele>12.0</ele><time>2026-04-29T13:58:31Z</time></trkpt><trkpt lat="40.316538132578714" lon="17.544575318543433"><ele>12.0</ele><time>2026-04-29T13:58:33Z</time></trkpt><trkpt lat="40.31666045361065" lon="17.544576915042054"><ele>12.0</ele><time>2026-04-29T13:58:35Z</time></trkpt><trkpt lat="40.31677994152412" lon="17.54455068679989"><ele>12.0</ele><time>2026-04-29T13:58:37Z</time></trkpt><trkpt lat="40.316905825596635" lon="17.544524632220522"><ele>12.0</ele><time>2026-04-29T13:58:39Z</time></trkpt><trkpt lat="40.316969249383014" lon="17.544510326599855"><ele>12.0</ele><time>2026-04-29T13:58:40Z</time></trkpt><trkpt lat="40.31708352085332" lon="17.544476428467323"><ele>11.8</ele><time>2026-04-29T13:58:42Z</time></trkpt><trkpt lat="40.317190217389296" lon="17.54446193821986"><ele>11.6</ele><time>2026-04-29T13:58:44Z</time></trkpt><trkpt lat="40.317282570560955" lon="17.544447708011656"><ele>11.4</ele><time>2026-04-29T13:58:46Z</time></trkpt><trkpt lat="40.31736903236637" lon="17.544425625762752"><ele>11.200000000000001</ele><time>2026-04-29T13:58:48Z</time></trkpt><trkpt lat="40.31739805917106" lon="17.544324807494096"><ele>11.0</ele><time>2026-04-29T13:58:50Z</time></trkpt><trkpt lat="40.317349153327896" lon="17.544225849126498"><ele>11.0</ele><time>2026-04-29T13:58:52Z</time></trkpt><trkpt lat="40.317299604719615" lon="17.54411715125985"><ele>11.0</ele><time>2026-04-29T13:58:54Z</time></trkpt><trkpt lat="40.317235232291225" lon="17.54398792776632"><ele>11.0</ele><time>2026-04-29T13:58:56Z</time></trkpt><trkpt lat="40.317210071032704" lon="17.543903059493772"><ele>11.0</ele><time>2026-04-29T13:58:57Z</time></trkpt><trkpt lat="40.31718104547056" lon="17.543826056924708"><ele>11.0</ele><time>2026-04-29T13:58:58Z</time></trkpt><trkpt lat="40.317157567341646" lon="17.543746097588315"><ele>11.0</ele><time>2026-04-29T13:58:59Z</time></trkpt><trkpt lat="40.31712733670312" lon="17.54366901461228"><ele>11.0</ele><time>2026-04-29T13:59:00Z</time></trkpt><trkpt lat="40.317075104665" lon="17.54352917950581"><ele>11.0</ele><time>2026-04-29T13:59:02Z</time></trkpt><trkpt lat="40.31702381402087" lon="17.543385640505466"><ele>11.0</ele><time>2026-04-29T13:59:04Z</time></trkpt><trkpt lat="40.316993209231256" lon="17.543312408490667"><ele>11.0</ele><time>2026-04-29T13:59:05Z</time></trkpt><trkpt lat="40.316941091138936" lon="17.543165776003985"><ele>11.0</ele><time>2026-04-29T13:59:07Z</time></trkpt><trkpt lat="40.316909605585174" lon="17.543091049584856"><ele>11.0</ele><time>2026-04-29T13:59:08Z</time></trkpt><trkpt lat="40.31685179671015" lon="17.542947263949262"><ele>11.0</ele><time>2026-04-29T13:59:10Z</time></trkpt><trkpt lat="40.316793829022124" lon="17.542802551841472"><ele>11.0</ele><time>2026-04-29T13:59:12Z</time></trkpt><trkpt lat="40.31676672047738" lon="17.5427277075101"><ele>11.0</ele><time>2026-04-29T13:59:13Z</time></trkpt><trkpt lat="40.31671110241029" lon="17.542579671492582"><ele>11.0</ele><time>2026-04-29T13:59:15Z</time></trkpt><trkpt lat="40.316652466985055" lon="17.54243683120287"><ele>11.0</ele><time>2026-04-29T13:59:17Z</time></trkpt><trkpt lat="40.31662343304475" lon="17.54236091193612"><ele>11.0</ele><time>2026-04-29T13:59:18Z</time></trkpt><trkpt lat="40.31659489706581" lon="17.54228482758509"><ele>11.0</ele><time>2026-04-29T13:59:19Z</time></trkpt><trkpt lat="40.31654637600838" lon="17.542141631319414"><ele>11.0</ele><time>2026-04-29T13:59:21Z</time></trkpt><trkpt lat="40.31649548466826" lon="17.54200262079382"><ele>11.0</ele><time>2026-04-29T13:59:23Z</time></trkpt><trkpt lat="40.31645332024293" lon="17.541859045282685"><ele>10.75</ele><time>2026-04-29T13:59:25Z</time></trkpt><trkpt lat="40.31641470348848" lon="17.54171380893477"><ele>10.5</ele><time>2026-04-29T13:59:27Z</time></trkpt><trkpt lat="40.31637046664912" lon="17.54157031151157"><ele>10.25</ele><time>2026-04-29T13:59:29Z</time></trkpt><trkpt lat="40.31632810856195" lon="17.54142974685885"><ele>10.0</ele><time>2026-04-29T13:59:31Z</time></trkpt><trkpt lat="40.31628617042464" lon="17.541283863593655"><ele>10.25</ele><time>2026-04-29T13:59:33Z</time></trkpt><trkpt lat="40.316251712025874" lon="17.541139036836327"><ele>10.5</ele><time>2026-04-29T13:59:35Z</time></trkpt><trkpt lat="40.316207502705495" lon="17.540999698011273"><ele>10.75</ele><time>2026-04-29T13:59:37Z</time></trkpt><trkpt lat="40.31617327112272" lon="17.540857950745576"><ele>11.0</ele><time>2026-04-29T13:59:39Z</time></trkpt><trkpt lat="40.31613022294366" lon="17.54071893910093"><ele>11.0</ele><time>2026-04-29T13:59:41Z</time></trkpt><trkpt lat="40.31609026665785" lon="17.540571829927927"><ele>11.0</ele><time>2026-04-29T13:59:43Z</time></trkpt><trkpt lat="40.316046279730756" lon="17.5404237248269"><ele>11.0</ele><time>2026-04-29T13:59:45Z</time></trkpt><trkpt lat="40.31600359945814" lon="17.540294908144155"><ele>11.0</ele><time>2026-04-29T13:59:47Z</time></trkpt><trkpt lat="40.31600222074265" lon="17.540208845027767"><ele>11.0</ele><time>2026-04-29T13:59:50Z</time></trkpt><trkpt lat="40.31609082618614" lon="17.54022682317462"><ele>11.0</ele><time>2026-04-29T13:59:52Z</time></trkpt><trkpt lat="40.31627718442709" lon="17.540270569203415"><ele>11.0</ele><time>2026-04-29T13:59:56Z</time></trkpt><trkpt lat="40.31636813163507" lon="17.540292338435044"><ele>11.0</ele><time>2026-04-29T13:59:58Z</time></trkpt><trkpt lat="40.316464709258035" lon="17.540315369974213"><ele>11.0</ele><time>2026-04-29T14:00:00Z</time></trkpt><trkpt lat="40.31656043667253" lon="17.54033633834915"><ele>11.0</ele><time>2026-04-29T14:00:02Z</time></trkpt><trkpt lat="40.316658400656436" lon="17.540355854765355"><ele>11.0</ele><time>2026-04-29T14:00:04Z</time></trkpt><trkpt lat="40.31675867694873" lon="17.540383403544556"><ele>11.0</ele><time>2026-04-29T14:00:06Z</time></trkpt><trkpt lat="40.31685940861674" lon="17.540399623898782"><ele>11.0</ele><time>2026-04-29T14:00:08Z</time></trkpt><trkpt lat="40.316959486173424" lon="17.540411602762166"><ele>11.0</ele><time>2026-04-29T14:00:10Z</time></trkpt><trkpt lat="40.31705650409169" lon="17.540433144603302"><ele>11.200000000000001</ele><time>2026-04-29T14:00:12Z</time></trkpt><trkpt lat="40.3171500024711" lon="17.5404374235037"><ele>11.4</ele><time>2026-04-29T14:00:14Z</time></trkpt><trkpt lat="40.31724668514095" lon="17.540472689122574"><ele>11.6</ele><time>2026-04-29T14:00:16Z</time></trkpt><trkpt lat="40.317329444251136" lon="17.540496513924346"><ele>11.8</ele><time>2026-04-29T14:00:18Z</time></trkpt><trkpt lat="40.317425022722354" lon="17.540513191024246"><ele>12.0</ele><time>2026-04-29T14:00:20Z</time></trkpt><trkpt lat="40.31750977006734" lon="17.54053251474921"><ele>12.2</ele><time>2026-04-29T14:00:22Z</time></trkpt><trkpt lat="40.31759573994884" lon="17.54055069324943"><ele>12.399999999999999</ele><time>2026-04-29T14:00:24Z</time></trkpt><trkpt lat="40.31777780072781" lon="17.540571219199315"><ele>12.600000000000001</ele><time>2026-04-29T14:00:28Z</time></trkpt><trkpt lat="40.31786662252509" lon="17.54058463903766"><ele>12.8</ele><time>2026-04-29T14:00:30Z</time></trkpt><trkpt lat="40.3179531193276" lon="17.540597788862886"><ele>13.0</ele><time>2026-04-29T14:00:32Z</time></trkpt><trkpt lat="40.31804167423822" lon="17.540613753045275"><ele>13.0</ele><time>2026-04-29T14:00:34Z</time></trkpt><trkpt lat="40.31813188463828" lon="17.54063041600617"><ele>13.0</ele><time>2026-04-29T14:00:36Z</time></trkpt><trkpt lat="40.318221158173216" lon="17.54064880172057"><ele>13.0</ele><time>2026-04-29T14:00:38Z</time></trkpt><trkpt lat="40.31831192443243" lon="17.540649041116886"><ele>13.0</ele><time>2026-04-29T14:00:40Z</time></trkpt><trkpt lat="40.31840525613643" lon="17.54068618964967"><ele>13.0</ele><time>2026-04-29T14:00:42Z</time></trkpt><trkpt lat="40.31848745508839" lon="17.54075878698222"><ele>13.0</ele><time>2026-04-29T14:00:44Z</time></trkpt><trkpt lat="40.318544950455966" lon="17.540870215704235"><ele>13.0</ele><time>2026-04-29T14:00:46Z</time></trkpt><trkpt lat="40.318588204598626" lon="17.540988909573585"><ele>13.0</ele><time>2026-04-29T14:00:48Z</time></trkpt><trkpt lat="40.31861786260435" lon="17.541112574111175"><ele>13.0</ele><time>2026-04-29T14:00:50Z</time></trkpt><trkpt lat="40.318648540025876" lon="17.541245360646013"><ele>13.0</ele><time>2026-04-29T14:00:52Z</time></trkpt><trkpt lat="40.31867463888721" lon="17.541370040822947"><ele>13.0</ele><time>2026-04-29T14:00:54Z</time></trkpt><trkpt lat="40.318686550085566" lon="17.541501774473822"><ele>13.0</ele><time>2026-04-29T14:00:56Z</time></trkpt><trkpt lat="40.31872495798741" lon="17.541615310106764"><ele>13.0</ele><time>2026-04-29T14:00:58Z</time></trkpt><trkpt lat="40.318744837256844" lon="17.54173531145316"><ele>13.0</ele><time>2026-04-29T14:01:00Z</time></trkpt><trkpt lat="40.31877421584769" lon="17.541860911536403"><ele>13.0</ele><time>2026-04-29T14:01:02Z</time></trkpt><trkpt lat="40.31881201246141" lon="17.54197724828954"><ele>12.8</ele><time>2026-04-29T14:01:04Z</time></trkpt><trkpt lat="40.31885897090286" lon="17.542099093767064"><ele>12.600000000000001</ele><time>2026-04-29T14:01:06Z</time></trkpt><trkpt lat="40.31892327605007" lon="17.542191680397362"><ele>12.399999999999999</ele><time>2026-04-29T14:01:08Z</time></trkpt><trkpt lat="40.31898426631005" lon="17.542294322930637"><ele>12.2</ele><time>2026-04-29T14:01:10Z</time></trkpt><trkpt lat="40.31904851955716" lon="17.54239043860733"><ele>12.0</ele><time>2026-04-29T14:01:12Z</time></trkpt><trkpt lat="40.319135276131085" lon="17.54245771082738"><ele>12.399999999999999</ele><time>2026-04-29T14:01:14Z</time></trkpt><trkpt lat="40.319230498337646" lon="17.5425090435442"><ele>12.799999999999999</ele><time>2026-04-29T14:01:16Z</time></trkpt><trkpt lat="40.31931943365857" lon="17.542563436565906"><ele>13.2</ele><time>2026-04-29T14:01:18Z</time></trkpt><trkpt lat="40.31941030141618" lon="17.542623797414976"><ele>13.6</ele><time>2026-04-29T14:01:20Z</time></trkpt><trkpt lat="40.319500916002276" lon="17.542671100378378"><ele>14.0</ele><time>2026-04-29T14:01:22Z</time></trkpt><trkpt lat="40.31959567322807" lon="17.542705790358994"><ele>14.0</ele><time>2026-04-29T14:01:24Z</time></trkpt><trkpt lat="40.31968987839928" lon="17.54275855633049"><ele>13.999999999999998</ele><time>2026-04-29T14:01:26Z</time></trkpt><trkpt lat="40.31977960805111" lon="17.542809171096685"><ele>13.999999999999998</ele><time>2026-04-29T14:01:28Z</time></trkpt><trkpt lat="40.31987778523901" lon="17.54285326227819"><ele>14.0</ele><time>2026-04-29T14:01:30Z</time></trkpt><trkpt lat="40.3199804574075" lon="17.542895898987577"><ele>14.0</ele><time>2026-04-29T14:01:32Z</time></trkpt><trkpt lat="40.320084000432715" lon="17.542949343637268"><ele>13.799999999999999</ele><time>2026-04-29T14:01:34Z</time></trkpt><trkpt lat="40.32019427207581" lon="17.542993488739942"><ele>13.599999999999998</ele><time>2026-04-29T14:01:36Z</time></trkpt><trkpt lat="40.320293992393125" lon="17.5430307564787"><ele>13.4</ele><time>2026-04-29T14:01:38Z</time></trkpt><trkpt lat="40.32038695087856" lon="17.54306518379249"><ele>13.2</ele><time>2026-04-29T14:01:40Z</time></trkpt><trkpt lat="40.320478537214015" lon="17.54309667276351"><ele>13.0</ele><time>2026-04-29T14:01:42Z</time></trkpt><trkpt lat="40.3205444221565" lon="17.543119178981517"><ele>13.0</ele><time>2026-04-29T14:01:45Z</time></trkpt><trkpt lat="40.320623996988516" lon="17.54314216398349"><ele>13.0</ele><time>2026-04-29T14:01:47Z</time></trkpt><trkpt lat="40.32072281897176" lon="17.54312905494685"><ele>13.0</ele><time>2026-04-29T14:01:49Z</time></trkpt><trkpt lat="40.320822490885035" lon="17.543198834324084"><ele>13.0</ele><time>2026-04-29T14:01:51Z</time></trkpt><trkpt lat="40.32092728286001" lon="17.54322850449335"><ele>13.0</ele><time>2026-04-29T14:01:53Z</time></trkpt><trkpt lat="40.32102224499194" lon="17.543230958840784"><ele>13.0</ele><time>2026-04-29T14:01:55Z</time></trkpt><trkpt lat="40.32110308699881" lon="17.54326182062548"><ele>13.0</ele><time>2026-04-29T14:01:57Z</time></trkpt><trkpt lat="40.32120679808458" lon="17.543284107531278"><ele>13.0</ele><time>2026-04-29T14:01:59Z</time></trkpt><trkpt lat="40.3213117390687" lon="17.543310191623956"><ele>13.0</ele><time>2026-04-29T14:02:01Z</time></trkpt><trkpt lat="40.32141876608541" lon="17.54333905353648"><ele>13.0</ele><time>2026-04-29T14:02:03Z</time></trkpt><trkpt lat="40.32152573773501" lon="17.54338133602151"><ele>13.0</ele><time>2026-04-29T14:02:05Z</time></trkpt><trkpt lat="40.32162966828786" lon="17.54341404514779"><ele>13.0</ele><time>2026-04-29T14:02:07Z</time></trkpt><trkpt lat="40.3217367861085" lon="17.543444718156728"><ele>13.0</ele><time>2026-04-29T14:02:09Z</time></trkpt><trkpt lat="40.32184153726057" lon="17.5434781637974"><ele>13.0</ele><time>2026-04-29T14:02:11Z</time></trkpt><trkpt lat="40.32194202190112" lon="17.54351008703334"><ele>13.0</ele><time>2026-04-29T14:02:13Z</time></trkpt><trkpt lat="40.32205008206601" lon="17.543547434146564"><ele>12.999999999999998</ele><time>2026-04-29T14:02:15Z</time></trkpt><trkpt lat="40.322154809773984" lon="17.543591746313478"><ele>13.0</ele><time>2026-04-29T14:02:17Z</time></trkpt><trkpt lat="40.32221686273006" lon="17.54369119305445"><ele>13.0</ele><time>2026-04-29T14:02:19Z</time></trkpt><trkpt lat="40.32227439249542" lon="17.543737804034897"><ele>13.0</ele><time>2026-04-29T14:02:23Z</time></trkpt><trkpt lat="40.322330387689576" lon="17.54381519272625"><ele>12.999999999999998</ele><time>2026-04-29T14:02:25Z</time></trkpt><trkpt lat="40.32240145017216" lon="17.54386649488474"><ele>13.0</ele><time>2026-04-29T14:02:27Z</time></trkpt><trkpt lat="40.32246637763945" lon="17.543895700086043"><ele>13.333333333333332</ele><time>2026-04-29T14:02:29Z</time></trkpt><trkpt lat="40.32255368023501" lon="17.54392878167069"><ele>13.666666666666666</ele><time>2026-04-29T14:02:32Z</time></trkpt><trkpt lat="40.32262763319311" lon="17.543965215382507"><ele>14.0</ele><time>2026-04-29T14:02:35Z</time></trkpt><trkpt lat="40.32270071629409" lon="17.543996373408834"><ele>14.333333333333332</ele><time>2026-04-29T14:02:38Z</time></trkpt><trkpt lat="40.32262499354626" lon="17.54396496060303"><ele>14.666666666666666</ele><time>2026-04-29T14:02:44Z</time></trkpt><trkpt lat="40.32256712812306" lon="17.54392069754389"><ele>15.0</ele><time>2026-04-29T14:02:46Z</time></trkpt><trkpt lat="40.32250122730085" lon="17.543868260928345"><ele>15.0</ele><time>2026-04-29T14:02:48Z</time></trkpt><trkpt lat="40.322419705565366" lon="17.543825676744174"><ele>15.0</ele><time>2026-04-29T14:02:50Z</time></trkpt><trkpt lat="40.32234287101141" lon="17.543767765853445"><ele>15.0</ele><time>2026-04-29T14:02:52Z</time></trkpt><trkpt lat="40.32226005784137" lon="17.543705802271266"><ele>15.0</ele><time>2026-04-29T14:02:54Z</time></trkpt><trkpt lat="40.322186912486806" lon="17.543706704375136"><ele>15.0</ele><time>2026-04-29T14:02:56Z</time></trkpt><trkpt lat="40.32216594853034" lon="17.54381292240134"><ele>15.0</ele><time>2026-04-29T14:02:58Z</time></trkpt><trkpt lat="40.32215401743557" lon="17.543939172173076"><ele>14.6</ele><time>2026-04-29T14:03:00Z</time></trkpt><trkpt lat="40.32215042735899" lon="17.54406327369943"><ele>14.2</ele><time>2026-04-29T14:03:02Z</time></trkpt><trkpt lat="40.32214656109835" lon="17.544189808724767"><ele>13.8</ele><time>2026-04-29T14:03:04Z</time></trkpt><trkpt lat="40.32212759995728" lon="17.54431603537835"><ele>13.4</ele><time>2026-04-29T14:03:06Z</time></trkpt><trkpt lat="40.322112086729014" lon="17.544441709690126"><ele>13.0</ele><time>2026-04-29T14:03:08Z</time></trkpt><trkpt lat="40.32209610931197" lon="17.54456949110375"><ele>13.0</ele><time>2026-04-29T14:03:10Z</time></trkpt><trkpt lat="40.32204957825627" lon="17.544698141679365"><ele>13.0</ele><time>2026-04-29T14:03:12Z</time></trkpt><trkpt lat="40.32203626666892" lon="17.54482592470273"><ele>13.0</ele><time>2026-04-29T14:03:14Z</time></trkpt><trkpt lat="40.322021978617265" lon="17.544961174126403"><ele>13.0</ele><time>2026-04-29T14:03:16Z</time></trkpt><trkpt lat="40.32200593149398" lon="17.545094001671888"><ele>13.0</ele><time>2026-04-29T14:03:18Z</time></trkpt><trkpt lat="40.32199067797342" lon="17.545231778390814"><ele>13.0</ele><time>2026-04-29T14:03:20Z</time></trkpt><trkpt lat="40.3219807343517" lon="17.545380760149662"><ele>13.0</ele><time>2026-04-29T14:03:22Z</time></trkpt><trkpt lat="40.32196352720858" lon="17.545525416808665"><ele>13.0</ele><time>2026-04-29T14:03:24Z</time></trkpt><trkpt lat="40.321947481706474" lon="17.545668004384247"><ele>13.0</ele><time>2026-04-29T14:03:26Z</time></trkpt><trkpt lat="40.32193540830013" lon="17.545806676173456"><ele>13.0</ele><time>2026-04-29T14:03:28Z</time></trkpt><trkpt lat="40.321924929821485" lon="17.545946227650223"><ele>13.0</ele><time>2026-04-29T14:03:30Z</time></trkpt><trkpt lat="40.32191717084871" lon="17.546067217126325"><ele>13.0</ele><time>2026-04-29T14:03:32Z</time></trkpt><trkpt lat="40.32190425238938" lon="17.54621193469517"><ele>13.0</ele><time>2026-04-29T14:03:34Z</time></trkpt><trkpt lat="40.321908190699574" lon="17.54635888489938"><ele>13.0</ele><time>2026-04-29T14:03:36Z</time></trkpt><trkpt lat="40.32191438302409" lon="17.54650153765573"><ele>13.0</ele><time>2026-04-29T14:03:38Z</time></trkpt><trkpt lat="40.321926921442156" lon="17.54663779305924"><ele>13.0</ele><time>2026-04-29T14:03:40Z</time></trkpt><trkpt lat="40.32193137169296" lon="17.546777003612487"><ele>13.0</ele><time>2026-04-29T14:03:42Z</time></trkpt><trkpt lat="40.32194155764583" lon="17.546912512668086"><ele>13.0</ele><time>2026-04-29T14:03:44Z</time></trkpt><trkpt lat="40.32195457266205" lon="17.547044461704317"><ele>13.0</ele><time>2026-04-29T14:03:46Z</time></trkpt><trkpt lat="40.32194566280283" lon="17.547170714033115"><ele>13.0</ele><time>2026-04-29T14:03:48Z</time></trkpt><trkpt lat="40.321964186166625" lon="17.54731138496296"><ele>13.2</ele><time>2026-04-29T14:03:50Z</time></trkpt><trkpt lat="40.32196881703066" lon="17.5474421809119"><ele>13.4</ele><time>2026-04-29T14:03:52Z</time></trkpt><trkpt lat="40.321988104322706" lon="17.547566789758186"><ele>13.599999999999998</ele><time>2026-04-29T14:03:54Z</time></trkpt><trkpt lat="40.3220349381227" lon="17.547685674418297"><ele>13.799999999999999</ele><time>2026-04-29T14:03:56Z</time></trkpt><trkpt lat="40.32207630523955" lon="17.54778642926814"><ele>14.0</ele><time>2026-04-29T14:03:58Z</time></trkpt><trkpt lat="40.322122188637394" lon="17.547905096366936"><ele>14.0</ele><time>2026-04-29T14:04:00Z</time></trkpt><trkpt lat="40.32215073038844" lon="17.54803146871592"><ele>13.999999999999998</ele><time>2026-04-29T14:04:02Z</time></trkpt><trkpt lat="40.32219494211389" lon="17.54815084397607"><ele>13.999999999999998</ele><time>2026-04-29T14:04:04Z</time></trkpt><trkpt lat="40.32224034673308" lon="17.548274190289153"><ele>14.0</ele><time>2026-04-29T14:04:06Z</time></trkpt><trkpt lat="40.322301856993846" lon="17.548379593620574"><ele>14.0</ele><time>2026-04-29T14:04:08Z</time></trkpt><trkpt lat="40.322346740319254" lon="17.54850731386362"><ele>14.166666666666668</ele><time>2026-04-29T14:04:10Z</time></trkpt><trkpt lat="40.322385459446984" lon="17.54858192575804"><ele>14.333333333333334</ele><time>2026-04-29T14:04:12Z</time></trkpt><trkpt lat="40.322357895822094" lon="17.548689087635797"><ele>14.5</ele><time>2026-04-29T14:04:35Z</time></trkpt><trkpt lat="40.322334232218275" lon="17.54882210141162"><ele>14.666666666666668</ele><time>2026-04-29T14:04:38Z</time></trkpt><trkpt lat="40.32231465212187" lon="17.54891556618232"><ele>14.833333333333334</ele><time>2026-04-29T14:04:40Z</time></trkpt><trkpt lat="40.32229066118325" lon="17.54901590548986"><ele>15.0</ele><time>2026-04-29T14:04:42Z</time></trkpt><trkpt lat="40.32226606600744" lon="17.54911314860796"><ele>15.0</ele><time>2026-04-29T14:04:44Z</time></trkpt><trkpt lat="40.32223514545868" lon="17.54920756054131"><ele>15.0</ele><time>2026-04-29T14:04:46Z</time></trkpt><trkpt lat="40.322222431611586" lon="17.54930852936426"><ele>15.0</ele><time>2026-04-29T14:04:48Z</time></trkpt><trkpt lat="40.32220212671085" lon="17.54940639370271"><ele>15.0</ele><time>2026-04-29T14:04:50Z</time></trkpt><trkpt lat="40.3221799554097" lon="17.54949937024769"><ele>15.0</ele><time>2026-04-29T14:04:52Z</time></trkpt><trkpt lat="40.32216584562013" lon="17.549586246404402"><ele>15.0</ele><time>2026-04-29T14:04:54Z</time></trkpt><trkpt lat="40.32217582001582" lon="17.549686145156546"><ele>15.0</ele><time>2026-04-29T14:04:56Z</time></trkpt><trkpt lat="40.32221734859038" lon="17.549768810571567"><ele>15.0</ele><time>2026-04-29T14:04:58Z</time></trkpt><trkpt lat="40.32224732631165" lon="17.54986341469135"><ele>15.0</ele><time>2026-04-29T14:05:00Z</time></trkpt><trkpt lat="40.32227170988746" lon="17.5499679627293"><ele>15.0</ele><time>2026-04-29T14:05:02Z</time></trkpt><trkpt lat="40.32229956532368" lon="17.55006683626325"><ele>15.0</ele><time>2026-04-29T14:05:04Z</time></trkpt><trkpt lat="40.32231403928848" lon="17.550160683417083"><ele>15.0</ele><time>2026-04-29T14:05:06Z</time></trkpt><trkpt lat="40.32232339094237" lon="17.55024743627056"><ele>15.166666666666666</ele><time>2026-04-29T14:05:08Z</time></trkpt><trkpt lat="40.32235456135618" lon="17.550348426377454"><ele>15.333333333333332</ele><time>2026-04-29T14:05:11Z</time></trkpt><trkpt lat="40.322384228311634" lon="17.550444136688657"><ele>15.5</ele><time>2026-04-29T14:05:14Z</time></trkpt><trkpt lat="40.3224008983452" lon="17.550534952492136"><ele>15.666666666666666</ele><time>2026-04-29T14:05:16Z</time></trkpt><trkpt lat="40.32241899246055" lon="17.55062141055777"><ele>15.833333333333332</ele><time>2026-04-29T14:05:18Z</time></trkpt><trkpt lat="40.32242728652806" lon="17.550716742714922"><ele>16.0</ele><time>2026-04-29T14:05:20Z</time></trkpt><trkpt lat="40.32245499491817" lon="17.55083429230247"><ele>16.333333333333332</ele><time>2026-04-29T14:05:23Z</time></trkpt><trkpt lat="40.3224627103699" lon="17.55092283743162"><ele>16.666666666666664</ele><time>2026-04-29T14:05:25Z</time></trkpt><trkpt lat="40.322462782772085" lon="17.55101112915507"><ele>17.0</ele><time>2026-04-29T14:05:28Z</time></trkpt><trkpt lat="40.322478752722596" lon="17.551142961682647"><ele>17.333333333333332</ele><time>2026-04-29T14:05:31Z</time></trkpt><trkpt lat="40.322494169207815" lon="17.55126100542377"><ele>17.666666666666668</ele><time>2026-04-29T14:05:33Z</time></trkpt><trkpt lat="40.322512171442085" lon="17.55139140917074"><ele>18.0</ele><time>2026-04-29T14:05:36Z</time></trkpt><trkpt lat="40.32252651689737" lon="17.551473753477776"><ele>18.333333333333332</ele><time>2026-04-29T14:05:38Z</time></trkpt><trkpt lat="40.3225449845704" lon="17.551587906705468"><ele>18.666666666666668</ele><time>2026-04-29T14:05:41Z</time></trkpt><trkpt lat="40.32255425360042" lon="17.551675048766352"><ele>19.0</ele><time>2026-04-29T14:05:43Z</time></trkpt><trkpt lat="40.32256108512458" lon="17.551793277725515"><ele>19.333333333333336</ele><time>2026-04-29T14:05:46Z</time></trkpt><trkpt lat="40.32257313701695" lon="17.55190181906947"><ele>19.666666666666668</ele><time>2026-04-29T14:05:49Z</time></trkpt><trkpt lat="40.32257403851666" lon="17.552018184970798"><ele>20.0</ele><time>2026-04-29T14:05:52Z</time></trkpt><trkpt lat="40.32260245094864" lon="17.552119584164004"><ele>20.2</ele><time>2026-04-29T14:05:54Z</time></trkpt><trkpt lat="40.322610810000185" lon="17.552251777596343"><ele>20.4</ele><time>2026-04-29T14:05:56Z</time></trkpt><trkpt lat="40.32260671137676" lon="17.552370278419666"><ele>20.6</ele><time>2026-04-29T14:05:58Z</time></trkpt><trkpt lat="40.32261849730933" lon="17.552494681343443"><ele>20.8</ele><time>2026-04-29T14:06:01Z</time></trkpt><trkpt lat="40.32262177490043" lon="17.552612456083818"><ele>21.0</ele><time>2026-04-29T14:06:04Z</time></trkpt><trkpt lat="40.322634409886824" lon="17.552726801058604"><ele>21.0</ele><time>2026-04-29T14:06:07Z</time></trkpt><trkpt lat="40.32264858065644" lon="17.552845421748696"><ele>21.0</ele><time>2026-04-29T14:06:10Z</time></trkpt><trkpt lat="40.32264335701518" lon="17.552953567429633"><ele>21.0</ele><time>2026-04-29T14:06:12Z</time></trkpt><trkpt lat="40.322628630212094" lon="17.553037519257277"><ele>21.0</ele><time>2026-04-29T14:06:13Z</time></trkpt><trkpt lat="40.32258650529066" lon="17.553137049146727"><ele>21.0</ele><time>2026-04-29T14:06:15Z</time></trkpt><trkpt lat="40.32257195363656" lon="17.553238015732923"><ele>21.0</ele><time>2026-04-29T14:06:17Z</time></trkpt><trkpt lat="40.32256903209841" lon="17.55333720484497"><ele>21.5</ele><time>2026-04-29T14:06:19Z</time></trkpt><trkpt lat="40.322583740079196" lon="17.553420457293363"><ele>22.0</ele><time>2026-04-29T14:06:22Z</time></trkpt><trkpt lat="40.32258409196631" lon="17.553527810840684"><ele>22.5</ele><time>2026-04-29T14:06:25Z</time></trkpt><trkpt lat="40.32270650834545" lon="17.55350688467974"><ele>23.0</ele><time>2026-04-29T14:06:52Z</time></trkpt><trkpt lat="40.322764429735315" lon="17.553462183419146"><ele>23.5</ele><time>2026-04-29T14:06:54Z</time></trkpt><trkpt lat="40.32282869589503" lon="17.553446288634735"><ele>24.0</ele><time>2026-04-29T14:06:56Z</time></trkpt><trkpt lat="40.32289831017588" lon="17.553434914422358"><ele>24.0</ele><time>2026-04-29T14:06:58Z</time></trkpt><trkpt lat="40.3229651691486" lon="17.553375406862095"><ele>24.0</ele><time>2026-04-29T14:07:00Z</time></trkpt><trkpt lat="40.32303281912976" lon="17.553320299991345"><ele>24.0</ele><time>2026-04-29T14:07:02Z</time></trkpt><trkpt lat="40.323138840422395" lon="17.553304984545136"><ele>24.0</ele><time>2026-04-29T14:07:04Z</time></trkpt><trkpt lat="40.32325039878211" lon="17.553258268480626"><ele>24.0</ele><time>2026-04-29T14:07:06Z</time></trkpt><trkpt lat="40.3233405281603" lon="17.55322910704742"><ele>24.333333333333332</ele><time>2026-04-29T14:07:08Z</time></trkpt><trkpt lat="40.32341178610919" lon="17.553234671598037"><ele>24.666666666666664</ele><time>2026-04-29T14:07:10Z</time></trkpt><trkpt lat="40.32346823167591" lon="17.553190004684385"><ele>25.0</ele><time>2026-04-29T14:07:13Z</time></trkpt><trkpt lat="40.323390870421825" lon="17.553303326542945"><ele>25.333333333333332</ele><time>2026-04-29T14:07:21Z</time></trkpt><trkpt lat="40.323288925498176" lon="17.553319058230734"><ele>25.666666666666664</ele><time>2026-04-29T14:07:24Z</time></trkpt><trkpt lat="40.32320885110648" lon="17.55334932741812"><ele>26.0</ele><time>2026-04-29T14:07:26Z</time></trkpt><trkpt lat="40.323121180624376" lon="17.553391391229646"><ele>25.666666666666664</ele><time>2026-04-29T14:07:29Z</time></trkpt><trkpt lat="40.32305639172433" lon="17.553437332444908"><ele>25.333333333333332</ele><time>2026-04-29T14:07:31Z</time></trkpt><trkpt lat="40.32297588212811" lon="17.553455540760982"><ele>25.0</ele><time>2026-04-29T14:07:34Z</time></trkpt><trkpt lat="40.322894156740745" lon="17.553489764982594"><ele>24.666666666666664</ele><time>2026-04-29T14:07:36Z</time></trkpt><trkpt lat="40.32282011172565" lon="17.55351963105414"><ele>24.333333333333332</ele><time>2026-04-29T14:07:38Z</time></trkpt><trkpt lat="40.322726142137995" lon="17.55355873237307"><ele>24.0</ele><time>2026-04-29T14:07:40Z</time></trkpt><trkpt lat="40.322616367379695" lon="17.553613251782746"><ele>24.0</ele><time>2026-04-29T14:07:42Z</time></trkpt><trkpt lat="40.32253756198409" lon="17.553658250594502"><ele>24.0</ele><time>2026-04-29T14:07:44Z</time></trkpt><trkpt lat="40.322461412896956" lon="17.553690019994676"><ele>24.0</ele><time>2026-04-29T14:07:46Z</time></trkpt><trkpt lat="40.322391742119336" lon="17.553744535620552"><ele>24.0</ele><time>2026-04-29T14:07:48Z</time></trkpt><trkpt lat="40.32231561902141" lon="17.55379151675018"><ele>24.0</ele><time>2026-04-29T14:07:50Z</time></trkpt><trkpt lat="40.32226034676425" lon="17.553862473054675"><ele>24.0</ele><time>2026-04-29T14:07:55Z</time></trkpt><trkpt lat="40.32228586431595" lon="17.553940187026637"><ele>24.666666666666668</ele><time>2026-04-29T14:07:59Z</time></trkpt><trkpt lat="40.32233466865087" lon="17.55405783469794"><ele>25.333333333333336</ele><time>2026-04-29T14:08:02Z</time></trkpt><trkpt lat="40.32238329336362" lon="17.55416615939219"><ele>26.0</ele><time>2026-04-29T14:08:04Z</time></trkpt><trkpt lat="40.3224222136859" lon="17.55424367517864"><ele>26.666666666666668</ele><time>2026-04-29T14:08:06Z</time></trkpt><trkpt lat="40.32246665116932" lon="17.554365406768955"><ele>27.333333333333336</ele><time>2026-04-29T14:08:09Z</time></trkpt><trkpt lat="40.3224863203149" lon="17.554453943474808"><ele>28.0</ele><time>2026-04-29T14:08:11Z</time></trkpt><trkpt lat="40.32252984073792" lon="17.5545271211188"><ele>28.000000000000004</ele><time>2026-04-29T14:08:13Z</time></trkpt><trkpt lat="40.322569981622934" lon="17.55463584527244"><ele>28.0</ele><time>2026-04-29T14:08:16Z</time></trkpt><trkpt lat="40.32260576606788" lon="17.55475205939999"><ele>28.0</ele><time>2026-04-29T14:08:19Z</time></trkpt><trkpt lat="40.32262039265029" lon="17.554835622063457"><ele>28.0</ele><time>2026-04-29T14:08:21Z</time></trkpt><trkpt lat="40.322647773209326" lon="17.55495193274959"><ele>28.000000000000004</ele><time>2026-04-29T14:08:24Z</time></trkpt><trkpt lat="40.32266248743024" lon="17.55503864925876"><ele>28.0</ele><time>2026-04-29T14:08:26Z</time></trkpt><trkpt lat="40.32267976079711" lon="17.555147366052267"><ele>28.000000000000004</ele><time>2026-04-29T14:08:29Z</time></trkpt><trkpt lat="40.3226844926608" lon="17.555270176818915"><ele>28.0</ele><time>2026-04-29T14:08:32Z</time></trkpt><trkpt lat="40.3226822338932" lon="17.555386743790113"><ele>28.0</ele><time>2026-04-29T14:08:35Z</time></trkpt><trkpt lat="40.322652530995434" lon="17.555483751010858"><ele>28.0</ele><time>2026-04-29T14:08:38Z</time></trkpt><trkpt lat="40.322613710790385" lon="17.555392164474185"><ele>28.000000000000004</ele><time>2026-04-29T14:08:41Z</time></trkpt><trkpt lat="40.32260427275938" lon="17.555283811673693"><ele>28.0</ele><time>2026-04-29T14:08:44Z</time></trkpt><trkpt lat="40.32261024590924" lon="17.55518782886929"><ele>28.0</ele><time>2026-04-29T14:08:47Z</time></trkpt><trkpt lat="40.322643055506624" lon="17.555111583851673"><ele>28.0</ele><time>2026-04-29T14:08:50Z</time></trkpt><trkpt lat="40.324181340285065" lon="17.555354889372826"><ele>28.333333333333336</ele><time>2026-04-29T14:10:48Z</time></trkpt><trkpt lat="40.32426306487523" lon="17.555337706570192"><ele>28.666666666666668</ele><time>2026-04-29T14:10:51Z</time></trkpt><trkpt lat="40.32435107508171" lon="17.555309543396664"><ele>29.0</ele><time>2026-04-29T14:10:54Z</time></trkpt><trkpt lat="40.32443680344805" lon="17.55530458778229"><ele>29.333333333333336</ele><time>2026-04-29T14:10:57Z</time></trkpt><trkpt lat="40.3244892395929" lon="17.555246688929245"><ele>29.666666666666668</ele><time>2026-04-29T14:10:59Z</time></trkpt><trkpt lat="40.3244994519002" lon="17.555145077827124"><ele>30.0</ele><time>2026-04-29T14:11:01Z</time></trkpt><trkpt lat="40.32449366134427" lon="17.555046284170846"><ele>30.0</ele><time>2026-04-29T14:11:03Z</time></trkpt><trkpt lat="40.32450194329989" lon="17.554953972455994"><ele>30.0</ele><time>2026-04-29T14:11:05Z</time></trkpt><trkpt lat="40.32450856796179" lon="17.55486178151075"><ele>30.0</ele><time>2026-04-29T14:11:07Z</time></trkpt><trkpt lat="40.32455229835579" lon="17.554775360173902"><ele>30.0</ele><time>2026-04-29T14:11:09Z</time></trkpt><trkpt lat="40.32462408014705" lon="17.55475349545565"><ele>30.0</ele><time>2026-04-29T14:11:11Z</time></trkpt><trkpt lat="40.32467775364893" lon="17.55464277621557"><ele>30.0</ele><time>2026-04-29T14:11:14Z</time></trkpt><trkpt lat="40.3246774778952" lon="17.554551897844867"><ele>29.666666666666668</ele><time>2026-04-29T14:11:16Z</time></trkpt><trkpt lat="40.324695824819095" lon="17.554444347295945"><ele>29.333333333333336</ele><time>2026-04-29T14:11:18Z</time></trkpt><trkpt lat="40.32472733170246" lon="17.55432676470486"><ele>29.0</ele><time>2026-04-29T14:11:20Z</time></trkpt><trkpt lat="40.32479335532998" lon="17.5542462060372"><ele>28.666666666666668</ele><time>2026-04-29T14:11:22Z</time></trkpt><trkpt lat="40.32483888575563" lon="17.554147860221132"><ele>28.333333333333336</ele><time>2026-04-29T14:11:24Z</time></trkpt><trkpt lat="40.32485082875032" lon="17.554029010833997"><ele>28.0</ele><time>2026-04-29T14:11:26Z</time></trkpt><trkpt lat="40.32490925844868" lon="17.55394644820847"><ele>28.0</ele><time>2026-04-29T14:11:28Z</time></trkpt><trkpt lat="40.325003412171434" lon="17.553901849740242"><ele>27.999999999999996</ele><time>2026-04-29T14:11:30Z</time></trkpt><trkpt lat="40.325074480292685" lon="17.553841961450836"><ele>27.999999999999996</ele><time>2026-04-29T14:11:32Z</time></trkpt><trkpt lat="40.325161102589284" lon="17.55374235697408"><ele>28.0</ele><time>2026-04-29T14:11:34Z</time></trkpt><trkpt lat="40.325250925329534" lon="17.553713161632533"><ele>28.0</ele><time>2026-04-29T14:11:36Z</time></trkpt><trkpt lat="40.325322333664325" lon="17.553705426231332"><ele>27.666666666666668</ele><time>2026-04-29T14:11:38Z</time></trkpt><trkpt lat="40.32540192611075" lon="17.553647759468266"><ele>27.333333333333336</ele><time>2026-04-29T14:11:41Z</time></trkpt><trkpt lat="40.32545389026399" lon="17.55359673728515"><ele>27.0</ele><time>2026-04-29T14:11:43Z</time></trkpt><trkpt lat="40.32551902223208" lon="17.5535240764508"><ele>26.666666666666664</ele><time>2026-04-29T14:11:45Z</time></trkpt><trkpt lat="40.32556844192739" lon="17.55345270044483"><ele>26.333333333333332</ele><time>2026-04-29T14:11:47Z</time></trkpt><trkpt lat="40.325590614599896" lon="17.553363092503393"><ele>26.0</ele><time>2026-04-29T14:11:49Z</time></trkpt><trkpt lat="40.3255988202645" lon="17.553262389087543"><ele>26.0</ele><time>2026-04-29T14:11:51Z</time></trkpt><trkpt lat="40.32560259780056" lon="17.553177507198907"><ele>26.0</ele><time>2026-04-29T14:11:53Z</time></trkpt><trkpt lat="40.32563653554348" lon="17.553064726708943"><ele>26.0</ele><time>2026-04-29T14:11:55Z</time></trkpt><trkpt lat="40.325681018682104" lon="17.5529582511488"><ele>26.0</ele><time>2026-04-29T14:11:57Z</time></trkpt><trkpt lat="40.32573941194145" lon="17.552833983131976"><ele>26.0</ele><time>2026-04-29T14:11:59Z</time></trkpt><trkpt lat="40.32579728626953" lon="17.552744580285168"><ele>25.6</ele><time>2026-04-29T14:12:01Z</time></trkpt><trkpt lat="40.32584787508494" lon="17.552609920657957"><ele>25.200000000000003</ele><time>2026-04-29T14:12:03Z</time></trkpt><trkpt lat="40.32589561400775" lon="17.552479546508273"><ele>24.799999999999997</ele><time>2026-04-29T14:12:05Z</time></trkpt><trkpt lat="40.32595815179715" lon="17.552386279913247"><ele>24.4</ele><time>2026-04-29T14:12:07Z</time></trkpt><trkpt lat="40.32601351862296" lon="17.552345928636758"><ele>24.0</ele><time>2026-04-29T14:12:08Z</time></trkpt><trkpt lat="40.32608929022195" lon="17.552320834823227"><ele>24.0</ele><time>2026-04-29T14:12:11Z</time></trkpt><trkpt lat="40.326166724509186" lon="17.55225158069128"><ele>24.0</ele><time>2026-04-29T14:12:15Z</time></trkpt><trkpt lat="40.32633652990586" lon="17.552167132877347"><ele>24.0</ele><time>2026-04-29T14:12:19Z</time></trkpt><trkpt lat="40.326363077656374" lon="17.55202883104937"><ele>24.0</ele><time>2026-04-29T14:12:21Z</time></trkpt><trkpt lat="40.32638342448202" lon="17.55193151307655"><ele>24.0</ele><time>2026-04-29T14:12:22Z</time></trkpt><trkpt lat="40.32641341427095" lon="17.551818007960737"><ele>24.0</ele><time>2026-04-29T14:12:23Z</time></trkpt><trkpt lat="40.32643653162717" lon="17.551739035908486"><ele>24.0</ele><time>2026-04-29T14:12:24Z</time></trkpt><trkpt lat="40.32648004253308" lon="17.55159484106235"><ele>24.0</ele><time>2026-04-29T14:12:26Z</time></trkpt><trkpt lat="40.32654479405771" lon="17.55136573682615"><ele>24.0</ele><time>2026-04-29T14:12:28Z</time></trkpt><trkpt lat="40.326585434471895" lon="17.551254957071883"><ele>24.0</ele><time>2026-04-29T14:12:30Z</time></trkpt><trkpt lat="40.326612310447366" lon="17.55113871372667"><ele>24.0</ele><time>2026-04-29T14:12:32Z</time></trkpt><trkpt lat="40.32664103669968" lon="17.551032106004055"><ele>24.0</ele><time>2026-04-29T14:12:34Z</time></trkpt><trkpt lat="40.326650466048186" lon="17.550925766413144"><ele>24.0</ele><time>2026-04-29T14:12:36Z</time></trkpt><trkpt lat="40.32668983412784" lon="17.550837903765697"><ele>24.0</ele><time>2026-04-29T14:12:38Z</time></trkpt><trkpt lat="40.326707463687434" lon="17.5507545580485"><ele>24.0</ele><time>2026-04-29T14:12:40Z</time></trkpt><trkpt lat="40.32671788584907" lon="17.550665025725127"><ele>24.0</ele><time>2026-04-29T14:12:42Z</time></trkpt><trkpt lat="40.326730322473395" lon="17.55056698839398"><ele>24.0</ele><time>2026-04-29T14:12:44Z</time></trkpt><trkpt lat="40.32674147255767" lon="17.55046198950658"><ele>24.0</ele><time>2026-04-29T14:12:46Z</time></trkpt><trkpt lat="40.32672975801128" lon="17.55036654388985"><ele>24.0</ele><time>2026-04-29T14:12:48Z</time></trkpt><trkpt lat="40.32673717027136" lon="17.55025715958731"><ele>24.0</ele><time>2026-04-29T14:12:50Z</time></trkpt><trkpt lat="40.326745202811104" lon="17.55013668568659"><ele>23.799999999999997</ele><time>2026-04-29T14:12:52Z</time></trkpt><trkpt lat="40.326763574897065" lon="17.55001753240377"><ele>23.599999999999998</ele><time>2026-04-29T14:12:53.999Z</time></trkpt><trkpt lat="40.32677635031248" lon="17.54989500144494"><ele>23.4</ele><time>2026-04-29T14:12:55.999Z</time></trkpt><trkpt lat="40.326798631004536" lon="17.549775397943485"><ele>23.2</ele><time>2026-04-29T14:12:57.999Z</time></trkpt><trkpt lat="40.32682586209012" lon="17.549652397339738"><ele>23.0</ele><time>2026-04-29T14:12:59.999Z</time></trkpt><trkpt lat="40.3268397055423" lon="17.54953611550371"><ele>23.0</ele><time>2026-04-29T14:13:01.999Z</time></trkpt><trkpt lat="40.326868262645576" lon="17.549417265095766"><ele>23.0</ele><time>2026-04-29T14:13:03.999Z</time></trkpt><trkpt lat="40.32688139630757" lon="17.549282591182212"><ele>23.0</ele><time>2026-04-29T14:13:05.999Z</time></trkpt><trkpt lat="40.32692689093922" lon="17.54916095263487"><ele>23.0</ele><time>2026-04-29T14:13:07.999Z</time></trkpt><trkpt lat="40.3269488835136" lon="17.549021843952733"><ele>23.0</ele><time>2026-04-29T14:13:09.999Z</time></trkpt><trkpt lat="40.326969048133414" lon="17.54889429756827"><ele>23.0</ele><time>2026-04-29T14:13:11.999Z</time></trkpt><trkpt lat="40.32699222565523" lon="17.548760278763787"><ele>23.0</ele><time>2026-04-29T14:13:14Z</time></trkpt><trkpt lat="40.32700907311328" lon="17.548612448106507"><ele>23.0</ele><time>2026-04-29T14:13:16Z</time></trkpt><trkpt lat="40.32704883021078" lon="17.548477063890747"><ele>23.0</ele><time>2026-04-29T14:13:18Z</time></trkpt><trkpt lat="40.32709948838315" lon="17.548336879184284"><ele>23.0</ele><time>2026-04-29T14:13:20Z</time></trkpt><trkpt lat="40.32715648771367" lon="17.548212679342786"><ele>23.0</ele><time>2026-04-29T14:13:22Z</time></trkpt><trkpt lat="40.32720553610604" lon="17.548092899617455"><ele>23.0</ele><time>2026-04-29T14:13:24Z</time></trkpt><trkpt lat="40.32726647738654" lon="17.54797142747871"><ele>23.0</ele><time>2026-04-29T14:13:26Z</time></trkpt><trkpt lat="40.32732894100604" lon="17.547860395478118"><ele>23.0</ele><time>2026-04-29T14:13:28Z</time></trkpt><trkpt lat="40.32738760322728" lon="17.547730154095127"><ele>23.0</ele><time>2026-04-29T14:13:30Z</time></trkpt><trkpt lat="40.32746297821679" lon="17.547622732729195"><ele>22.75</ele><time>2026-04-29T14:13:32Z</time></trkpt><trkpt lat="40.32751584222252" lon="17.54748736795856"><ele>22.5</ele><time>2026-04-29T14:13:34Z</time></trkpt><trkpt lat="40.32755993005574" lon="17.54735278127495"><ele>22.25</ele><time>2026-04-29T14:13:36Z</time></trkpt><trkpt lat="40.32760227937121" lon="17.54721871013285"><ele>22.0</ele><time>2026-04-29T14:13:38Z</time></trkpt><trkpt lat="40.32764504548562" lon="17.54708331949342"><ele>22.0</ele><time>2026-04-29T14:13:40Z</time></trkpt><trkpt lat="40.32768740088196" lon="17.546946446487688"><ele>22.0</ele><time>2026-04-29T14:13:42Z</time></trkpt><trkpt lat="40.3277270394843" lon="17.546809102868313"><ele>22.0</ele><time>2026-04-29T14:13:44Z</time></trkpt><trkpt lat="40.327752887784385" lon="17.546665498084625"><ele>22.0</ele><time>2026-04-29T14:13:46Z</time></trkpt><trkpt lat="40.32780319173018" lon="17.546527087237905"><ele>22.0</ele><time>2026-04-29T14:13:48Z</time></trkpt><trkpt lat="40.32782630082176" lon="17.546377407960474"><ele>22.0</ele><time>2026-04-29T14:13:50Z</time></trkpt><trkpt lat="40.327864767286215" lon="17.546235080308875"><ele>22.0</ele><time>2026-04-29T14:13:52Z</time></trkpt><trkpt lat="40.32790593825498" lon="17.546097323022686"><ele>22.0</ele><time>2026-04-29T14:13:54Z</time></trkpt><trkpt lat="40.32793979393683" lon="17.545959203546683"><ele>22.25</ele><time>2026-04-29T14:13:56Z</time></trkpt><trkpt lat="40.327990283113174" lon="17.545828884968714"><ele>22.5</ele><time>2026-04-29T14:13:58Z</time></trkpt><trkpt lat="40.32802699912446" lon="17.545690711700605"><ele>22.75</ele><time>2026-04-29T14:14:00Z</time></trkpt><trkpt lat="40.328063701167494" lon="17.545539520589294"><ele>23.0</ele><time>2026-04-29T14:14:02Z</time></trkpt><trkpt lat="40.32808190328299" lon="17.545378764133815"><ele>23.0</ele><time>2026-04-29T14:14:04Z</time></trkpt><trkpt lat="40.32811153407738" lon="17.545232958397733"><ele>23.0</ele><time>2026-04-29T14:14:06Z</time></trkpt><trkpt lat="40.32813805067769" lon="17.54508185110208"><ele>23.0</ele><time>2026-04-29T14:14:08Z</time></trkpt><trkpt lat="40.32817795014963" lon="17.544940119417745"><ele>23.0</ele><time>2026-04-29T14:14:10Z</time></trkpt><trkpt lat="40.32819504092139" lon="17.544800108762235"><ele>23.0</ele><time>2026-04-29T14:14:12Z</time></trkpt><trkpt lat="40.32819450275575" lon="17.544652190521152"><ele>23.0</ele><time>2026-04-29T14:14:14Z</time></trkpt><trkpt lat="40.32823476584224" lon="17.54451872583341"><ele>23.0</ele><time>2026-04-29T14:14:16Z</time></trkpt><trkpt lat="40.328220503088055" lon="17.544395137120304"><ele>23.0</ele><time>2026-04-29T14:14:18Z</time></trkpt><trkpt lat="40.328332076507635" lon="17.544276552201048"><ele>23.4</ele><time>2026-04-29T14:14:20Z</time></trkpt><trkpt lat="40.32840930423844" lon="17.54416973822857"><ele>23.799999999999997</ele><time>2026-04-29T14:14:22Z</time></trkpt><trkpt lat="40.32850870658876" lon="17.544102844295498"><ele>24.2</ele><time>2026-04-29T14:14:24Z</time></trkpt><trkpt lat="40.328609299373035" lon="17.54406244828461"><ele>24.6</ele><time>2026-04-29T14:14:26Z</time></trkpt><trkpt lat="40.32872039707644" lon="17.544039552280662"><ele>25.0</ele><time>2026-04-29T14:14:28Z</time></trkpt><trkpt lat="40.32883213012024" lon="17.544022035007067"><ele>25.5</ele><time>2026-04-29T14:14:30Z</time></trkpt><trkpt lat="40.328913925026555" lon="17.544012919116987"><ele>26.0</ele><time>2026-04-29T14:14:32Z</time></trkpt><trkpt lat="40.32901922505492" lon="17.543995112069855"><ele>26.5</ele><time>2026-04-29T14:14:34Z</time></trkpt><trkpt lat="40.32912289298229" lon="17.543965525216926"><ele>27.0</ele><time>2026-04-29T14:14:37Z</time></trkpt><trkpt lat="40.329341121798294" lon="17.543894042583585"><ele>27.0</ele><time>2026-04-29T14:14:40Z</time></trkpt><trkpt lat="40.32943298312" lon="17.543875021147343"><ele>27.000000000000004</ele><time>2026-04-29T14:14:42Z</time></trkpt><trkpt lat="40.3295152465104" lon="17.543911939050954"><ele>27.000000000000004</ele><time>2026-04-29T14:14:44Z</time></trkpt><trkpt lat="40.329595556990895" lon="17.543969412208675"><ele>27.0</ele><time>2026-04-29T14:14:46Z</time></trkpt><trkpt lat="40.329682084979986" lon="17.544034130951687"><ele>27.0</ele><time>2026-04-29T14:14:48Z</time></trkpt><trkpt lat="40.329768748499355" lon="17.54407619596762"><ele>27.666666666666668</ele><time>2026-04-29T14:14:50Z</time></trkpt><trkpt lat="40.32983846108259" lon="17.544153053884887"><ele>28.333333333333336</ele><time>2026-04-29T14:14:52Z</time></trkpt><trkpt lat="40.32991344121015" lon="17.544207590726288"><ele>29.0</ele><time>2026-04-29T14:14:54Z</time></trkpt><trkpt lat="40.32999030507312" lon="17.544254446165606"><ele>29.666666666666668</ele><time>2026-04-29T14:14:56Z</time></trkpt><trkpt lat="40.33006253770597" lon="17.54429760066717"><ele>30.333333333333336</ele><time>2026-04-29T14:14:58Z</time></trkpt><trkpt lat="40.33013246106378" lon="17.544330355052487"><ele>31.0</ele><time>2026-04-29T14:14:59.999Z</time></trkpt><trkpt lat="40.33020970627518" lon="17.544376506274528"><ele>31.0</ele><time>2026-04-29T14:15:01.999Z</time></trkpt><trkpt lat="40.33028813198666" lon="17.54442449231335"><ele>31.0</ele><time>2026-04-29T14:15:03.999Z</time></trkpt><trkpt lat="40.3303714366687" lon="17.544480562367237"><ele>31.0</ele><time>2026-04-29T14:15:05.999Z</time></trkpt><trkpt lat="40.330459669121986" lon="17.544553336796977"><ele>31.0</ele><time>2026-04-29T14:15:07.999Z</time></trkpt><trkpt lat="40.33054608881933" lon="17.544628971956747"><ele>31.0</ele><time>2026-04-29T14:15:09.999Z</time></trkpt><trkpt lat="40.33063423503776" lon="17.54470752339237"><ele>30.4</ele><time>2026-04-29T14:15:12Z</time></trkpt><trkpt lat="40.33073073821058" lon="17.544765603656405"><ele>29.8</ele><time>2026-04-29T14:15:14Z</time></trkpt><trkpt lat="40.33082732394528" lon="17.544823454219838"><ele>29.199999999999996</ele><time>2026-04-29T14:15:16Z</time></trkpt><trkpt lat="40.330933952680176" lon="17.544829932315004"><ele>28.599999999999998</ele><time>2026-04-29T14:15:18Z</time></trkpt><trkpt lat="40.331039946494045" lon="17.544820467755372"><ele>28.0</ele><time>2026-04-29T14:15:20Z</time></trkpt><trkpt lat="40.33113678362449" lon="17.54481301254698"><ele>28.0</ele><time>2026-04-29T14:15:22Z</time></trkpt><trkpt lat="40.331229509320615" lon="17.54479398574663"><ele>27.999999999999996</ele><time>2026-04-29T14:15:24Z</time></trkpt><trkpt lat="40.331316034772335" lon="17.544791779802708"><ele>27.999999999999996</ele><time>2026-04-29T14:15:26Z</time></trkpt><trkpt lat="40.33140785356554" lon="17.544788615588544"><ele>28.0</ele><time>2026-04-29T14:15:28Z</time></trkpt><trkpt lat="40.331497738095585" lon="17.54478038577385"><ele>28.0</ele><time>2026-04-29T14:15:30Z</time></trkpt><trkpt lat="40.33158842568368" lon="17.54477468502413"><ele>28.2</ele><time>2026-04-29T14:15:32Z</time></trkpt><trkpt lat="40.33168081938906" lon="17.54476084282211"><ele>28.4</ele><time>2026-04-29T14:15:34Z</time></trkpt><trkpt lat="40.33176829172764" lon="17.544717058919122"><ele>28.599999999999998</ele><time>2026-04-29T14:15:36Z</time></trkpt><trkpt lat="40.33184056801111" lon="17.544625404471756"><ele>28.799999999999997</ele><time>2026-04-29T14:15:38Z</time></trkpt><trkpt lat="40.331885549341244" lon="17.54450296504381"><ele>29.0</ele><time>2026-04-29T14:15:40Z</time></trkpt><trkpt lat="40.33194951400195" lon="17.544383750594907"><ele>29.0</ele><time>2026-04-29T14:15:42Z</time></trkpt><trkpt lat="40.33201000272769" lon="17.544261347420335"><ele>29.0</ele><time>2026-04-29T14:15:44Z</time></trkpt><trkpt lat="40.332077529998" lon="17.544138405964613"><ele>29.0</ele><time>2026-04-29T14:15:46Z</time></trkpt><trkpt lat="40.33214805009867" lon="17.54402189302321"><ele>29.0</ele><time>2026-04-29T14:15:48Z</time></trkpt><trkpt lat="40.3321905070657" lon="17.54395911008046"><ele>29.0</ele><time>2026-04-29T14:15:49Z</time></trkpt><trkpt lat="40.33226944470444" lon="17.543827554358533"><ele>29.142857142857146</ele><time>2026-04-29T14:15:51Z</time></trkpt><trkpt lat="40.332311340305715" lon="17.543765809924917"><ele>29.285714285714285</ele><time>2026-04-29T14:15:52Z</time></trkpt><trkpt lat="40.3323665263827" lon="17.543714261326958"><ele>29.42857142857143</ele><time>2026-04-29T14:15:53Z</time></trkpt><trkpt lat="40.33240917974141" lon="17.543649960472234"><ele>29.571428571428573</ele><time>2026-04-29T14:15:54Z</time></trkpt><trkpt lat="40.33244969816913" lon="17.543586100326284"><ele>29.714285714285715</ele><time>2026-04-29T14:15:55Z</time></trkpt><trkpt lat="40.33247822271125" lon="17.543507924729933"><ele>29.857142857142858</ele><time>2026-04-29T14:15:56Z</time></trkpt><trkpt lat="40.332520302806294" lon="17.543443397661623"><ele>30.0</ele><time>2026-04-29T14:15:57Z</time></trkpt><trkpt lat="40.33256353520551" lon="17.543381023077217"><ele>29.5</ele><time>2026-04-29T14:15:58Z</time></trkpt><trkpt lat="40.33265609967377" lon="17.54327281975402"><ele>29.0</ele><time>2026-04-29T14:16:00Z</time></trkpt><trkpt lat="40.332740421407" lon="17.54318356814298"><ele>28.5</ele><time>2026-04-29T14:16:02Z</time></trkpt><trkpt lat="40.3328325445914" lon="17.543110618968317"><ele>28.0</ele><time>2026-04-29T14:16:04Z</time></trkpt><trkpt lat="40.332931341324624" lon="17.54304651414172"><ele>28.0</ele><time>2026-04-29T14:16:06Z</time></trkpt><trkpt lat="40.33302146598332" lon="17.54298536558559"><ele>27.999999999999996</ele><time>2026-04-29T14:16:08Z</time></trkpt><trkpt lat="40.33312004623428" lon="17.5429159964765"><ele>27.999999999999996</ele><time>2026-04-29T14:16:10Z</time></trkpt><trkpt lat="40.3332114742736" lon="17.54285815978712"><ele>28.0</ele><time>2026-04-29T14:16:12Z</time></trkpt><trkpt lat="40.33329902874168" lon="17.5428112692844"><ele>28.0</ele><time>2026-04-29T14:16:14Z</time></trkpt><trkpt lat="40.33338233882789" lon="17.54276897774533"><ele>27.833333333333336</ele><time>2026-04-29T14:16:16Z</time></trkpt><trkpt lat="40.33346042455492" lon="17.542736543489614"><ele>27.666666666666668</ele><time>2026-04-29T14:16:18Z</time></trkpt><trkpt lat="40.333542305170106" lon="17.54269948317989"><ele>27.5</ele><time>2026-04-29T14:16:20Z</time></trkpt><trkpt lat="40.333622026170275" lon="17.54266406065319"><ele>27.333333333333336</ele><time>2026-04-29T14:16:22Z</time></trkpt><trkpt lat="40.33370359341411" lon="17.542642616715078"><ele>27.166666666666668</ele><time>2026-04-29T14:16:24Z</time></trkpt><trkpt lat="40.33378918877295" lon="17.542629360098"><ele>27.0</ele><time>2026-04-29T14:16:26Z</time></trkpt><trkpt lat="40.33386952419137" lon="17.542618927153903"><ele>27.0</ele><time>2026-04-29T14:16:28Z</time></trkpt><trkpt lat="40.333950320044245" lon="17.542639814108483"><ele>27.0</ele><time>2026-04-29T14:16:30Z</time></trkpt><trkpt lat="40.334020201663" lon="17.542646584936076"><ele>27.0</ele><time>2026-04-29T14:16:32Z</time></trkpt><trkpt lat="40.33405762362815" lon="17.54272881290846"><ele>27.0</ele><time>2026-04-29T14:16:33Z</time></trkpt><trkpt lat="40.33411611008885" lon="17.54279855412209"><ele>27.0</ele><time>2026-04-29T14:16:35Z</time></trkpt><trkpt lat="40.3341527591105" lon="17.542896887145137"><ele>27.0</ele><time>2026-04-29T14:16:37Z</time></trkpt><trkpt lat="40.33416621189033" lon="17.543007193503428"><ele>27.333333333333332</ele><time>2026-04-29T14:16:39Z</time></trkpt><trkpt lat="40.33416345515326" lon="17.543116602766425"><ele>27.666666666666664</ele><time>2026-04-29T14:16:41Z</time></trkpt><trkpt lat="40.334147780905965" lon="17.54320398491901"><ele>28.0</ele><time>2026-04-29T14:16:43Z</time></trkpt><trkpt lat="40.33411998514434" lon="17.54330509566825"><ele>28.333333333333332</ele><time>2026-04-29T14:16:45Z</time></trkpt><trkpt lat="40.334096900049786" lon="17.54340671732466"><ele>28.666666666666664</ele><time>2026-04-29T14:16:47Z</time></trkpt><trkpt lat="40.334069342044785" lon="17.543546907733433"><ele>29.0</ele><time>2026-04-29T14:16:49Z</time></trkpt><trkpt lat="40.33405045096328" lon="17.543696747681253"><ele>29.0</ele><time>2026-04-29T14:16:51Z</time></trkpt><trkpt lat="40.334027914605855" lon="17.54383482753097"><ele>29.0</ele><time>2026-04-29T14:16:53Z</time></trkpt><trkpt lat="40.3340349917738" lon="17.54398158264353"><ele>29.0</ele><time>2026-04-29T14:16:55Z</time></trkpt><trkpt lat="40.334024958846136" lon="17.544111037662834"><ele>29.0</ele><time>2026-04-29T14:16:57Z</time></trkpt><trkpt lat="40.33400940888837" lon="17.544242877679757"><ele>29.0</ele><time>2026-04-29T14:16:59Z</time></trkpt><trkpt lat="40.33401462640328" lon="17.54437655026945"><ele>29.0</ele><time>2026-04-29T14:17:01Z</time></trkpt><trkpt lat="40.334012279515186" lon="17.544515868979005"><ele>29.0</ele><time>2026-04-29T14:17:03Z</time></trkpt><trkpt lat="40.33399844629604" lon="17.544650634040085"><ele>29.0</ele><time>2026-04-29T14:17:05Z</time></trkpt><trkpt lat="40.33398413539804" lon="17.544804298156517"><ele>29.0</ele><time>2026-04-29T14:17:07Z</time></trkpt><trkpt lat="40.33397666082621" lon="17.544939127968863"><ele>29.0</ele><time>2026-04-29T14:17:09Z</time></trkpt><trkpt lat="40.33396754279519" lon="17.545093569827817"><ele>29.2</ele><time>2026-04-29T14:17:11Z</time></trkpt><trkpt lat="40.33395758597323" lon="17.54524470764235"><ele>29.4</ele><time>2026-04-29T14:17:13Z</time></trkpt><trkpt lat="40.333957266661024" lon="17.545390925909953"><ele>29.6</ele><time>2026-04-29T14:17:15Z</time></trkpt><trkpt lat="40.33394556658719" lon="17.54553999539178"><ele>29.8</ele><time>2026-04-29T14:17:17Z</time></trkpt><trkpt lat="40.33393442559494" lon="17.545622942359255"><ele>30.0</ele><time>2026-04-29T14:17:18Z</time></trkpt><trkpt lat="40.3339269858891" lon="17.54575620783546"><ele>30.2</ele><time>2026-04-29T14:17:20Z</time></trkpt><trkpt lat="40.333912316844525" lon="17.545896267505242"><ele>30.4</ele><time>2026-04-29T14:17:22Z</time></trkpt><trkpt lat="40.33389378426456" lon="17.546032847419774"><ele>30.6</ele><time>2026-04-29T14:17:24Z</time></trkpt><trkpt lat="40.33388766716733" lon="17.546175921131105"><ele>30.8</ele><time>2026-04-29T14:17:26Z</time></trkpt><trkpt lat="40.333876519758086" lon="17.546315514092647"><ele>31.0</ele><time>2026-04-29T14:17:28Z</time></trkpt><trkpt lat="40.33386718814152" lon="17.54645426473079"><ele>31.5</ele><time>2026-04-29T14:17:30Z</time></trkpt><trkpt lat="40.33385933710732" lon="17.546593567518954"><ele>32.0</ele><time>2026-04-29T14:17:32Z</time></trkpt><trkpt lat="40.33385604311849" lon="17.546729746875844"><ele>32.5</ele><time>2026-04-29T14:17:34Z</time></trkpt><trkpt lat="40.3338576556043" lon="17.546927084285002"><ele>33.0</ele><time>2026-04-29T14:17:37Z</time></trkpt><trkpt lat="40.3338386841984" lon="17.547052414474823"><ele>33.0</ele><time>2026-04-29T14:17:39Z</time></trkpt><trkpt lat="40.333832408606305" lon="17.54717851740325"><ele>33.0</ele><time>2026-04-29T14:17:41Z</time></trkpt><trkpt lat="40.33382581204408" lon="17.54730508951511"><ele>33.0</ele><time>2026-04-29T14:17:43Z</time></trkpt><trkpt lat="40.33381478596588" lon="17.54743186183469"><ele>33.0</ele><time>2026-04-29T14:17:45Z</time></trkpt><trkpt lat="40.33381578442495" lon="17.547559307090864"><ele>33.0</ele><time>2026-04-29T14:17:47Z</time></trkpt><trkpt lat="40.33379957620612" lon="17.54767875414822"><ele>33.0</ele><time>2026-04-29T14:17:49Z</time></trkpt><trkpt lat="40.33378460464877" lon="17.54779698072904"><ele>33.0</ele><time>2026-04-29T14:17:51Z</time></trkpt><trkpt lat="40.33376409005942" lon="17.547909503259767"><ele>33.0</ele><time>2026-04-29T14:17:53Z</time></trkpt><trkpt lat="40.33374312371197" lon="17.548022552409133"><ele>33.0</ele><time>2026-04-29T14:17:55Z</time></trkpt><trkpt lat="40.33373082886991" lon="17.54812800675573"><ele>33.0</ele><time>2026-04-29T14:17:57Z</time></trkpt><trkpt lat="40.33377679800223" lon="17.548212939699493"><ele>33.0</ele><time>2026-04-29T14:17:59Z</time></trkpt><trkpt lat="40.33382893612703" lon="17.548262838978808"><ele>32.833333333333336</ele><time>2026-04-29T14:18:02Z</time></trkpt><trkpt lat="40.33378142440041" lon="17.548243304446377"><ele>32.666666666666664</ele><time>2026-04-29T14:19:27Z</time></trkpt><trkpt lat="40.333690530354815" lon="17.54830416131693"><ele>32.5</ele><time>2026-04-29T14:19:30Z</time></trkpt><trkpt lat="40.33367662843754" lon="17.548413924917135"><ele>32.33333333333333</ele><time>2026-04-29T14:19:33Z</time></trkpt><trkpt lat="40.3336481036726" lon="17.548529427175648"><ele>32.166666666666664</ele><time>2026-04-29T14:19:36Z</time></trkpt><trkpt lat="40.33362249039709" lon="17.548624000021288"><ele>32.0</ele><time>2026-04-29T14:19:38Z</time></trkpt><trkpt lat="40.33359199846394" lon="17.548721807182208"><ele>32.0</ele><time>2026-04-29T14:19:40Z</time></trkpt><trkpt lat="40.3335570278051" lon="17.548824762224857"><ele>32.0</ele><time>2026-04-29T14:19:42Z</time></trkpt><trkpt lat="40.33352099663469" lon="17.548929966748695"><ele>32.0</ele><time>2026-04-29T14:19:44Z</time></trkpt><trkpt lat="40.33350319320642" lon="17.549044060600146"><ele>32.0</ele><time>2026-04-29T14:19:46Z</time></trkpt><trkpt lat="40.333465665980405" lon="17.549166663048027"><ele>32.0</ele><time>2026-04-29T14:19:48Z</time></trkpt><trkpt lat="40.33342979318679" lon="17.549281604054414"><ele>32.0</ele><time>2026-04-29T14:19:50Z</time></trkpt><trkpt lat="40.33338668333273" lon="17.549408564043283"><ele>32.0</ele><time>2026-04-29T14:19:52Z</time></trkpt><trkpt lat="40.333356437842085" lon="17.549544274885346"><ele>32.0</ele><time>2026-04-29T14:19:54Z</time></trkpt><trkpt lat="40.33331835482824" lon="17.54967878123305"><ele>32.0</ele><time>2026-04-29T14:19:56Z</time></trkpt><trkpt lat="40.33327675307623" lon="17.549813922691172"><ele>32.0</ele><time>2026-04-29T14:19:58Z</time></trkpt><trkpt lat="40.33323721935922" lon="17.54995551672464"><ele>32.0</ele><time>2026-04-29T14:20:00Z</time></trkpt><trkpt lat="40.333198908447415" lon="17.550098312713704"><ele>32.0</ele><time>2026-04-29T14:20:02Z</time></trkpt><trkpt lat="40.33315382732844" lon="17.550240773499567"><ele>32.0</ele><time>2026-04-29T14:20:04Z</time></trkpt><trkpt lat="40.33311421195648" lon="17.550394098929786"><ele>32.0</ele><time>2026-04-29T14:20:06Z</time></trkpt><trkpt lat="40.33309172460909" lon="17.550474392065773"><ele>32.0</ele><time>2026-04-29T14:20:07Z</time></trkpt><trkpt lat="40.33306585982911" lon="17.550552082843044"><ele>31.57142857142857</ele><time>2026-04-29T14:20:08Z</time></trkpt><trkpt lat="40.3330437576555" lon="17.550635133356902"><ele>31.14285714285714</ele><time>2026-04-29T14:20:09Z</time></trkpt><trkpt lat="40.33301813580912" lon="17.550718618721994"><ele>30.714285714285715</ele><time>2026-04-29T14:20:10Z</time></trkpt><trkpt lat="40.332993031011206" lon="17.550802827720013"><ele>30.285714285714285</ele><time>2026-04-29T14:20:11Z</time></trkpt><trkpt lat="40.33296687600574" lon="17.550888455353252"><ele>29.857142857142858</ele><time>2026-04-29T14:20:12Z</time></trkpt><trkpt lat="40.332940566665734" lon="17.550973008848743"><ele>29.42857142857143</ele><time>2026-04-29T14:20:13Z</time></trkpt><trkpt lat="40.33291947400979" lon="17.55105974565029"><ele>29.000000000000004</ele><time>2026-04-29T14:20:14Z</time></trkpt><trkpt lat="40.33289468775019" lon="17.551145658520536"><ele>29.142857142857146</ele><time>2026-04-29T14:20:15Z</time></trkpt><trkpt lat="40.3328693856147" lon="17.551232610694758"><ele>29.285714285714285</ele><time>2026-04-29T14:20:16Z</time></trkpt><trkpt lat="40.33284272153355" lon="17.55131867612133"><ele>29.42857142857143</ele><time>2026-04-29T14:20:17Z</time></trkpt><trkpt lat="40.33281674476961" lon="17.551405862878607"><ele>29.571428571428573</ele><time>2026-04-29T14:20:18Z</time></trkpt><trkpt lat="40.33279161372859" lon="17.551492494862785"><ele>29.714285714285715</ele><time>2026-04-29T14:20:19Z</time></trkpt><trkpt lat="40.33276921490406" lon="17.551579970150197"><ele>29.857142857142858</ele><time>2026-04-29T14:20:20Z</time></trkpt><trkpt lat="40.332745845397184" lon="17.55166870109311"><ele>30.0</ele><time>2026-04-29T14:20:21Z</time></trkpt><trkpt lat="40.332721090172505" lon="17.551753218667315"><ele>30.0</ele><time>2026-04-29T14:20:22Z</time></trkpt><trkpt lat="40.33269787595401" lon="17.55183919870253"><ele>30.0</ele><time>2026-04-29T14:20:23Z</time></trkpt><trkpt lat="40.33267105559077" lon="17.55192597127233"><ele>30.0</ele><time>2026-04-29T14:20:24Z</time></trkpt><trkpt lat="40.33264976075083" lon="17.55200420532244"><ele>30.0</ele><time>2026-04-29T14:20:25Z</time></trkpt><trkpt lat="40.332600558582214" lon="17.55215636048009"><ele>30.0</ele><time>2026-04-29T14:20:27Z</time></trkpt><trkpt lat="40.332563510428194" lon="17.55229400084816"><ele>30.0</ele><time>2026-04-29T14:20:29Z</time></trkpt><trkpt lat="40.332519101061465" lon="17.552425768327026"><ele>30.2</ele><time>2026-04-29T14:20:31Z</time></trkpt><trkpt lat="40.33248703300048" lon="17.5525451424363"><ele>30.4</ele><time>2026-04-29T14:20:33Z</time></trkpt><trkpt lat="40.33244973298584" lon="17.552648387055452"><ele>30.6</ele><time>2026-04-29T14:20:35Z</time></trkpt><trkpt lat="40.3324111692406" lon="17.552760287528216"><ele>30.8</ele><time>2026-04-29T14:20:37Z</time></trkpt><trkpt lat="40.332375682714655" lon="17.55287926419334"><ele>31.0</ele><time>2026-04-29T14:20:39Z</time></trkpt><trkpt lat="40.332336815285956" lon="17.55300192652749"><ele>31.0</ele><time>2026-04-29T14:20:41Z</time></trkpt><trkpt lat="40.33231046548162" lon="17.553122067851014"><ele>31.0</ele><time>2026-04-29T14:20:43Z</time></trkpt><trkpt lat="40.33228359533436" lon="17.553243511990377"><ele>31.0</ele><time>2026-04-29T14:20:45Z</time></trkpt><trkpt lat="40.33224811450129" lon="17.55335765398343"><ele>31.0</ele><time>2026-04-29T14:20:47Z</time></trkpt><trkpt lat="40.332214888593704" lon="17.55347156969974"><ele>31.0</ele><time>2026-04-29T14:20:49Z</time></trkpt><trkpt lat="40.332402770640996" lon="17.553577637390582"><ele>31.0</ele><time>2026-04-29T14:20:52Z</time></trkpt><trkpt lat="40.33250894170848" lon="17.55360401843186"><ele>31.0</ele><time>2026-04-29T14:20:54Z</time></trkpt><trkpt lat="40.33261841696074" lon="17.55364441842625"><ele>31.0</ele><time>2026-04-29T14:20:56Z</time></trkpt><trkpt lat="40.33272041548279" lon="17.55367883181086"><ele>31.0</ele><time>2026-04-29T14:20:58Z</time></trkpt><trkpt lat="40.33283587131822" lon="17.553722364276968"><ele>31.0</ele><time>2026-04-29T14:21:00Z</time></trkpt><trkpt lat="40.33294750623462" lon="17.553765852379364"><ele>30.6</ele><time>2026-04-29T14:21:02.001Z</time></trkpt><trkpt lat="40.33305906378124" lon="17.553809645136802"><ele>30.200000000000003</ele><time>2026-04-29T14:21:04.001Z</time></trkpt><trkpt lat="40.333167591116364" lon="17.55384865087987"><ele>29.799999999999997</ele><time>2026-04-29T14:21:06.001Z</time></trkpt><trkpt lat="40.33327662589597" lon="17.55389819562844"><ele>29.4</ele><time>2026-04-29T14:21:08.001Z</time></trkpt><trkpt lat="40.333376279126455" lon="17.553938328579946"><ele>29.0</ele><time>2026-04-29T14:21:10.001Z</time></trkpt><trkpt lat="40.33347598437246" lon="17.553974056664124"><ele>28.999999999999996</ele><time>2026-04-29T14:21:12.001Z</time></trkpt><trkpt lat="40.333573163623036" lon="17.554019517654183"><ele>29.0</ele><time>2026-04-29T14:21:14.001Z</time></trkpt><trkpt lat="40.33363956014569" lon="17.554041794640476"><ele>29.0</ele><time>2026-04-29T14:21:17.001Z</time></trkpt><trkpt lat="40.33370113577631" lon="17.554071879148005"><ele>29.0</ele><time>2026-04-29T14:21:18Z</time></trkpt><trkpt lat="40.33378286781825" lon="17.55410271105568"><ele>28.999999999999996</ele><time>2026-04-29T14:21:19Z</time></trkpt><trkpt lat="40.33386685226396" lon="17.55414801664557"><ele>29.0</ele><time>2026-04-29T14:21:21Z</time></trkpt><trkpt lat="40.33394973082647" lon="17.554181874061086"><ele>29.833333333333332</ele><time>2026-04-29T14:21:23Z</time></trkpt><trkpt lat="40.334032168189594" lon="17.55421277967182"><ele>30.666666666666664</ele><time>2026-04-29T14:21:25Z</time></trkpt><trkpt lat="40.3341056760401" lon="17.554238666497675"><ele>31.5</ele><time>2026-04-29T14:21:27Z</time></trkpt><trkpt lat="40.3341845963284" lon="17.554267070892895"><ele>32.333333333333336</ele><time>2026-04-29T14:21:29Z</time></trkpt><trkpt lat="40.33426108692023" lon="17.554292467428542"><ele>33.16666666666667</ele><time>2026-04-29T14:21:31Z</time></trkpt><trkpt lat="40.33433736358839" lon="17.554319800511056"><ele>34.0</ele><time>2026-04-29T14:21:33Z</time></trkpt><trkpt lat="40.33439664867883" lon="17.55434782588548"><ele>34.0</ele><time>2026-04-29T14:21:35Z</time></trkpt><trkpt lat="40.33446297464363" lon="17.55436128354378"><ele>34.0</ele><time>2026-04-29T14:21:37Z</time></trkpt><trkpt lat="40.33452924159013" lon="17.554393809936634"><ele>34.0</ele><time>2026-04-29T14:21:39Z</time></trkpt><trkpt lat="40.33459887131223" lon="17.55443950722627"><ele>34.0</ele><time>2026-04-29T14:21:41Z</time></trkpt><trkpt lat="40.33468497113945" lon="17.55446301673059"><ele>34.0</ele><time>2026-04-29T14:21:43Z</time></trkpt><trkpt lat="40.33474854514413" lon="17.554494318434397"><ele>34.0</ele><time>2026-04-29T14:21:45Z</time></trkpt><trkpt lat="40.33483672525164" lon="17.554524290992145"><ele>34.66666666666667</ele><time>2026-04-29T14:21:49Z</time></trkpt><trkpt lat="40.33490731209829" lon="17.554560982902878"><ele>35.333333333333336</ele><time>2026-04-29T14:21:52Z</time></trkpt><trkpt lat="40.33497170167691" lon="17.554582733059075"><ele>36.0</ele><time>2026-04-29T14:21:55Z</time></trkpt><trkpt lat="40.33505550995978" lon="17.554539895219442"><ele>36.666666666666664</ele><time>2026-04-29T14:21:59Z</time></trkpt><trkpt lat="40.33512675699624" lon="17.55456488821505"><ele>37.33333333333333</ele><time>2026-04-29T14:22:03Z</time></trkpt><trkpt lat="40.3351977883655" lon="17.55460119039074"><ele>38.0</ele><time>2026-04-29T14:22:07Z</time></trkpt><trkpt lat="40.33526885862488" lon="17.55460085490226"><ele>38.0</ele><time>2026-04-29T14:22:10Z</time></trkpt><trkpt lat="40.33534953819152" lon="17.5546111828251"><ele>38.0</ele><time>2026-04-29T14:22:14Z</time></trkpt><trkpt lat="40.33542101694747" lon="17.554662345898695"><ele>38.0</ele><time>2026-04-29T14:22:18Z</time></trkpt><trkpt lat="40.335468635673934" lon="17.55472502899013"><ele>38.0</ele><time>2026-04-29T14:22:23Z</time></trkpt><trkpt lat="40.33556467358787" lon="17.554781192624947"><ele>38.0</ele><time>2026-04-29T14:23:59Z</time></trkpt><trkpt lat="40.33561982269952" lon="17.554707022186225"><ele>38.0</ele><time>2026-04-29T14:24:02Z</time></trkpt><trkpt lat="40.335672510693186" lon="17.554635962300637"><ele>38.285714285714285</ele><time>2026-04-29T14:24:05Z</time></trkpt><trkpt lat="40.335730983299925" lon="17.554552280398934"><ele>38.57142857142858</ele><time>2026-04-29T14:24:08Z</time></trkpt><trkpt lat="40.33577892616519" lon="17.554457118645136"><ele>38.85714285714286</ele><time>2026-04-29T14:24:10Z</time></trkpt><trkpt lat="40.3358317061771" lon="17.554396783295285"><ele>39.14285714285714</ele><time>2026-04-29T14:24:12Z</time></trkpt><trkpt lat="40.33588269186282" lon="17.55434395114039"><ele>39.42857142857143</ele><time>2026-04-29T14:24:14Z</time></trkpt><trkpt lat="40.33591572405218" lon="17.554261740350874"><ele>39.714285714285715</ele><time>2026-04-29T14:24:16Z</time></trkpt><trkpt lat="40.33595699765798" lon="17.554199153594038"><ele>40.0</ele><time>2026-04-29T14:24:18Z</time></trkpt><trkpt lat="40.33600822689815" lon="17.554130767255735"><ele>40.0</ele><time>2026-04-29T14:24:20Z</time></trkpt><trkpt lat="40.3360497366712" lon="17.55406326828985"><ele>40.0</ele><time>2026-04-29T14:24:22Z</time></trkpt><trkpt lat="40.33610351688208" lon="17.554008660835937"><ele>40.0</ele><time>2026-04-29T14:24:24Z</time></trkpt><trkpt lat="40.33617467494806" lon="17.554007329050936"><ele>40.0</ele><time>2026-04-29T14:24:27Z</time></trkpt><trkpt lat="40.33622839131635" lon="17.553931754184077"><ele>40.0</ele><time>2026-04-29T14:24:31Z</time></trkpt><trkpt lat="40.336211529266045" lon="17.553824951644483"><ele>40.0</ele><time>2026-04-29T14:24:34Z</time></trkpt><trkpt lat="40.336243167005506" lon="17.553698846508695"><ele>40.0</ele><time>2026-04-29T14:24:37Z</time></trkpt><trkpt lat="40.33631404549241" lon="17.553613431443313"><ele>40.0</ele><time>2026-04-29T14:24:40Z</time></trkpt><trkpt lat="40.33637997106339" lon="17.55356011224268"><ele>40.0</ele><time>2026-04-29T14:24:43Z</time></trkpt><trkpt lat="40.33642946119988" lon="17.553505681387943"><ele>40.0</ele><time>2026-04-29T14:24:46Z</time></trkpt><trkpt lat="40.336461977733585" lon="17.5533609946044"><ele>40.0</ele><time>2026-04-29T14:24:50Z</time></trkpt><trkpt lat="40.336530101896386" lon="17.553230035828282"><ele>40.0</ele><time>2026-04-29T14:25:07Z</time></trkpt><trkpt lat="40.336571431885254" lon="17.553164794428124"><ele>40.0</ele><time>2026-04-29T14:25:12Z</time></trkpt><trkpt lat="40.336617090144664" lon="17.553066630110887"><ele>40.0</ele><time>2026-04-29T14:25:15Z</time></trkpt><trkpt lat="40.3366558133272" lon="17.552980697515913"><ele>40.0</ele><time>2026-04-29T14:25:18Z</time></trkpt><trkpt lat="40.336702313351935" lon="17.552881148039727"><ele>40.0</ele><time>2026-04-29T14:25:21Z</time></trkpt><trkpt lat="40.33674884089549" lon="17.552779600566605"><ele>40.0</ele><time>2026-04-29T14:25:24Z</time></trkpt><trkpt lat="40.33680515549293" lon="17.552704918149875"><ele>39.857142857142854</ele><time>2026-04-29T14:25:27Z</time></trkpt><trkpt lat="40.336846916009506" lon="17.552618225069995"><ele>39.714285714285715</ele><time>2026-04-29T14:25:31Z</time></trkpt><trkpt lat="40.336860796899344" lon="17.552520094454735"><ele>39.57142857142857</ele><time>2026-04-29T14:25:34Z</time></trkpt><trkpt lat="40.336838622222146" lon="17.552438673109645"><ele>39.42857142857143</ele><time>2026-04-29T14:25:38Z</time></trkpt><trkpt lat="40.33680084838076" lon="17.552367388037432"><ele>39.285714285714285</ele><time>2026-04-29T14:25:42Z</time></trkpt><trkpt lat="40.336883993099825" lon="17.552405749934334"><ele>39.142857142857146</ele><time>2026-04-29T14:26:03Z</time></trkpt><trkpt lat="40.33693506416393" lon="17.552457615842357"><ele>39.0</ele><time>2026-04-29T14:26:06Z</time></trkpt><trkpt lat="40.336971142980566" lon="17.552532271593154"><ele>39.0</ele><time>2026-04-29T14:26:14Z</time></trkpt><trkpt lat="40.337019858543535" lon="17.55258565359814"><ele>39.0</ele><time>2026-04-29T14:26:18Z</time></trkpt><trkpt lat="40.33705479014776" lon="17.552661294391655"><ele>39.0</ele><time>2026-04-29T14:26:43Z</time></trkpt><trkpt lat="40.33707879466725" lon="17.552755121133142"><ele>39.0</ele><time>2026-04-29T14:26:48Z</time></trkpt><trkpt lat="40.337091848574545" lon="17.55284753254461"><ele>39.0</ele><time>2026-04-29T14:26:52Z</time></trkpt><trkpt lat="40.337120237262035" lon="17.552928279070905"><ele>39.0</ele><time>2026-04-29T14:26:57Z</time></trkpt><trkpt lat="40.337164184373194" lon="17.553004522870598"><ele>39.0</ele><time>2026-04-29T14:27:04Z</time></trkpt><trkpt lat="40.33720844243591" lon="17.553067247755134"><ele>39.142857142857146</ele><time>2026-04-29T14:27:13Z</time></trkpt><trkpt lat="40.33720369186398" lon="17.553158550044703"><ele>39.285714285714285</ele><time>2026-04-29T14:27:22Z</time></trkpt><trkpt lat="40.337186116576106" lon="17.553243781331634"><ele>39.42857142857143</ele><time>2026-04-29T14:27:43.001Z</time></trkpt><trkpt lat="40.337221074240354" lon="17.553323084515753"><ele>39.57142857142857</ele><time>2026-04-29T14:27:51.001Z</time></trkpt><trkpt lat="40.33725946336877" lon="17.55339967095644"><ele>39.714285714285715</ele><time>2026-04-29T14:28:01.001Z</time></trkpt><trkpt lat="40.33727082836123" lon="17.553483372203257"><ele>39.857142857142854</ele><time>2026-04-29T14:28:09Z</time></trkpt><trkpt lat="40.33724254041013" lon="17.553558236870835"><ele>40.0</ele><time>2026-04-29T14:28:15Z</time></trkpt><trkpt lat="40.33719740730337" lon="17.55364026989592"><ele>40.57142857142857</ele><time>2026-04-29T14:28:21Z</time></trkpt><trkpt lat="40.33716172346854" lon="17.553718863593097"><ele>41.142857142857146</ele><time>2026-04-29T14:28:27Z</time></trkpt><trkpt lat="40.33715058886004" lon="17.553814298460047"><ele>41.714285714285715</ele><time>2026-04-29T14:28:33Z</time></trkpt><trkpt lat="40.33714178849272" lon="17.553902630764973"><ele>42.285714285714285</ele><time>2026-04-29T14:28:39Z</time></trkpt><trkpt lat="40.33710794767574" lon="17.553979582913012"><ele>42.857142857142854</ele><time>2026-04-29T14:28:45Z</time></trkpt><trkpt lat="40.33706806139604" lon="17.554062007280585"><ele>43.42857142857143</ele><time>2026-04-29T14:28:51Z</time></trkpt><trkpt lat="40.33703897946417" lon="17.5541434024266"><ele>44.0</ele><time>2026-04-29T14:28:57Z</time></trkpt><trkpt lat="40.33700408565968" lon="17.554220418295166"><ele>44.0</ele><time>2026-04-29T14:29:03Z</time></trkpt><trkpt lat="40.33697990923533" lon="17.55429687231364"><ele>44.0</ele><time>2026-04-29T14:29:08Z</time></trkpt><trkpt lat="40.33696602327824" lon="17.55439011610766"><ele>44.0</ele><time>2026-04-29T14:29:14Z</time></trkpt><trkpt lat="40.33697637768931" lon="17.55448201578867"><ele>44.0</ele><time>2026-04-29T14:29:20Z</time></trkpt><trkpt lat="40.33696514117274" lon="17.554571256427668"><ele>44.0</ele><time>2026-04-29T14:29:26Z</time></trkpt><trkpt lat="40.33694975986143" lon="17.55465914273584"><ele>44.0</ele><time>2026-04-29T14:29:32Z</time></trkpt><trkpt lat="40.33691952429992" lon="17.554733595037863"><ele>44.0</ele><time>2026-04-29T14:29:44.001Z</time></trkpt><trkpt lat="40.3368702091391" lon="17.554787021668403"><ele>45.0</ele><time>2026-04-29T14:29:50.001Z</time></trkpt><trkpt lat="40.336819447669775" lon="17.55484978479994"><ele>46.0</ele><time>2026-04-29T14:29:56.001Z</time></trkpt><trkpt lat="40.336758403556814" lon="17.554897561618546"><ele>47.0</ele><time>2026-04-29T14:30:03.001Z</time></trkpt><trkpt lat="40.33671415294869" lon="17.554960812064884"><ele>48.0</ele><time>2026-04-29T14:30:09.001Z</time></trkpt><trkpt lat="40.336748480339054" lon="17.555030927550778"><ele>49.0</ele><time>2026-04-29T14:30:14Z</time></trkpt><trkpt lat="40.33677607813582" lon="17.55510609326019"><ele>50.0</ele><time>2026-04-29T14:30:20Z</time></trkpt><trkpt lat="40.33679146559296" lon="17.555187045976698"><ele>51.0</ele><time>2026-04-29T14:30:26Z</time></trkpt><trkpt lat="40.33679106336322" lon="17.55527514470577"><ele>51.0</ele><time>2026-04-29T14:30:33Z</time></trkpt><trkpt lat="40.33685226956165" lon="17.555302026972914"><ele>51.0</ele><time>2026-04-29T14:30:38Z</time></trkpt><trkpt lat="40.33692297358296" lon="17.55530183634975"><ele>51.0</ele><time>2026-04-29T14:30:44Z</time></trkpt><trkpt lat="40.33697201156991" lon="17.555360912245437"><ele>51.0</ele><time>2026-04-29T14:30:50Z</time></trkpt><trkpt lat="40.33702345318599" lon="17.555416331841403"><ele>51.0</ele><time>2026-04-29T14:30:57Z</time></trkpt><trkpt lat="40.33705320803384" lon="17.555489549871222"><ele>51.0</ele><time>2026-04-29T14:31:05Z</time></trkpt><trkpt lat="40.337043403861614" lon="17.555573725647246"><ele>51.0</ele><time>2026-04-29T14:31:11Z</time></trkpt><trkpt lat="40.33701746420921" lon="17.555650315165973"><ele>54.5</ele><time>2026-04-29T14:31:18Z</time></trkpt><trkpt lat="40.337040456676434" lon="17.5557295559078"><ele>58.0</ele><time>2026-04-29T14:31:25Z</time></trkpt><trkpt lat="40.33754807539723" lon="17.55691283802934"><ele>59.666666666666664</ele><time>2026-04-29T14:37:41Z</time></trkpt><trkpt lat="40.337496680219004" lon="17.556979712366154"><ele>61.33333333333333</ele><time>2026-04-29T14:37:47Z</time></trkpt><trkpt lat="40.33745210294862" lon="17.557062955031316"><ele>63.0</ele><time>2026-04-29T14:37:51Z</time></trkpt><trkpt lat="40.337425363099165" lon="17.5571512541373"><ele>64.66666666666667</ele><time>2026-04-29T14:37:54Z</time></trkpt><trkpt lat="40.33738865888191" lon="17.557235791132406"><ele>66.33333333333334</ele><time>2026-04-29T14:37:57Z</time></trkpt><trkpt lat="40.33734375622343" lon="17.55732566464105"><ele>68.0</ele><time>2026-04-29T14:38:01Z</time></trkpt><trkpt lat="40.337286527258954" lon="17.557410899998793"><ele>68.28571428571428</ele><time>2026-04-29T14:38:05Z</time></trkpt><trkpt lat="40.337237508564385" lon="17.557488340990787"><ele>68.57142857142857</ele><time>2026-04-29T14:38:08Z</time></trkpt><trkpt lat="40.3372027235559" lon="17.55755930512207"><ele>68.85714285714286</ele><time>2026-04-29T14:38:11Z</time></trkpt><trkpt lat="40.337162764151145" lon="17.557643168784693"><ele>69.14285714285714</ele><time>2026-04-29T14:38:15Z</time></trkpt><trkpt lat="40.33711936751117" lon="17.557730899562863"><ele>69.42857142857143</ele><time>2026-04-29T14:38:19Z</time></trkpt><trkpt lat="40.33708178502588" lon="17.557804260753688"><ele>69.71428571428571</ele><time>2026-04-29T14:38:22Z</time></trkpt><trkpt lat="40.337037321331195" lon="17.55788635951584"><ele>70.0</ele><time>2026-04-29T14:38:24Z</time></trkpt><trkpt lat="40.33700104058109" lon="17.557956325165843"><ele>70.6</ele><time>2026-04-29T14:38:26Z</time></trkpt><trkpt lat="40.3369429851039" lon="17.55804808245677"><ele>71.2</ele><time>2026-04-29T14:38:29Z</time></trkpt><trkpt lat="40.336893093563965" lon="17.558138271880928"><ele>71.8</ele><time>2026-04-29T14:38:32Z</time></trkpt><trkpt lat="40.336834589584306" lon="17.55824096772759"><ele>72.4</ele><time>2026-04-29T14:38:35Z</time></trkpt><trkpt lat="40.33678779853524" lon="17.558325261367685"><ele>73.0</ele><time>2026-04-29T14:38:37Z</time></trkpt><trkpt lat="40.33673993964201" lon="17.558435497098685"><ele>73.0</ele><time>2026-04-29T14:38:39Z</time></trkpt><trkpt lat="40.336681260701205" lon="17.558558553443937"><ele>73.0</ele><time>2026-04-29T14:38:41Z</time></trkpt><trkpt lat="40.33662421197673" lon="17.55868614190665"><ele>73.0</ele><time>2026-04-29T14:38:43Z</time></trkpt><trkpt lat="40.336567956155136" lon="17.55880779516578"><ele>73.0</ele><time>2026-04-29T14:38:45Z</time></trkpt><trkpt lat="40.33650496180034" lon="17.55893350595522"><ele>73.0</ele><time>2026-04-29T14:38:47Z</time></trkpt><trkpt lat="40.33644180160779" lon="17.559059265385"><ele>72.0</ele><time>2026-04-29T14:38:49Z</time></trkpt><trkpt lat="40.33638040277424" lon="17.559177300894135"><ele>71.0</ele><time>2026-04-29T14:38:51Z</time></trkpt><trkpt lat="40.33633210424027" lon="17.559298319749846"><ele>70.0</ele><time>2026-04-29T14:38:53Z</time></trkpt><trkpt lat="40.33625429136074" lon="17.559410196327377"><ele>69.0</ele><time>2026-04-29T14:38:55Z</time></trkpt><trkpt lat="40.33618959810534" lon="17.55952060476098"><ele>68.0</ele><time>2026-04-29T14:38:57Z</time></trkpt><trkpt lat="40.33614068531219" lon="17.55963921010067"><ele>67.5</ele><time>2026-04-29T14:38:59Z</time></trkpt><trkpt lat="40.33608101868608" lon="17.55975402304454"><ele>67.0</ele><time>2026-04-29T14:39:01Z</time></trkpt><trkpt lat="40.336036567189055" lon="17.559825231210954"><ele>66.5</ele><time>2026-04-29T14:39:03.001Z</time></trkpt><trkpt lat="40.335995827331615" lon="17.559899288968726"><ele>66.0</ele><time>2026-04-29T14:39:05.001Z</time></trkpt><trkpt lat="40.33595212939089" lon="17.55997756163806"><ele>65.5</ele><time>2026-04-29T14:39:07.001Z</time></trkpt><trkpt lat="40.33591697486163" lon="17.56008332245814"><ele>65.0</ele><time>2026-04-29T14:39:09.001Z</time></trkpt><trkpt lat="40.33587807161007" lon="17.560157253149743"><ele>65.0</ele><time>2026-04-29T14:39:12.001Z</time></trkpt><trkpt lat="40.33578470247711" lon="17.560193939168066"><ele>65.0</ele><time>2026-04-29T14:39:15.001Z</time></trkpt><trkpt lat="40.33569932138248" lon="17.560178374242327"><ele>65.0</ele><time>2026-04-29T14:39:17.001Z</time></trkpt><trkpt lat="40.33559483428917" lon="17.560165881056477"><ele>65.0</ele><time>2026-04-29T14:39:19.001Z</time></trkpt><trkpt lat="40.33552743056841" lon="17.560163167055627"><ele>65.0</ele><time>2026-04-29T14:39:20.001Z</time></trkpt><trkpt lat="40.33546093312143" lon="17.560150633268144"><ele>65.0</ele><time>2026-04-29T14:39:21.001Z</time></trkpt><trkpt lat="40.33539069159207" lon="17.560143578373996"><ele>64.33333333333334</ele><time>2026-04-29T14:39:22.001Z</time></trkpt><trkpt lat="40.335321553498225" lon="17.560134825795384"><ele>63.66666666666667</ele><time>2026-04-29T14:39:23.001Z</time></trkpt><trkpt lat="40.33524699636352" lon="17.560126859345626"><ele>63.0</ele><time>2026-04-29T14:39:24.001Z</time></trkpt><trkpt lat="40.33516921255536" lon="17.56012104170226"><ele>62.33333333333333</ele><time>2026-04-29T14:39:25.001Z</time></trkpt><trkpt lat="40.335095251182985" lon="17.560120366285556"><ele>61.666666666666664</ele><time>2026-04-29T14:39:26.001Z</time></trkpt><trkpt lat="40.33501400419058" lon="17.56011047213873"><ele>61.0</ele><time>2026-04-29T14:39:27.001Z</time></trkpt><trkpt lat="40.334937019508864" lon="17.560099379285727"><ele>60.99999999999999</ele><time>2026-04-29T14:39:28.001Z</time></trkpt><trkpt lat="40.334847845919846" lon="17.56009825437418"><ele>61.0</ele><time>2026-04-29T14:39:29.001Z</time></trkpt><trkpt lat="40.33475467164365" lon="17.560090277470476"><ele>61.0</ele><time>2026-04-29T14:39:30.001Z</time></trkpt><trkpt lat="40.334663408552125" lon="17.560087281924822"><ele>61.0</ele><time>2026-04-29T14:39:31.001Z</time></trkpt><trkpt lat="40.33456978210541" lon="17.560085341126282"><ele>60.99999999999999</ele><time>2026-04-29T14:39:32.001Z</time></trkpt><trkpt lat="40.33448957349819" lon="17.560076353544876"><ele>61.0</ele><time>2026-04-29T14:39:33.001Z</time></trkpt><trkpt lat="40.33441168635465" lon="17.560068328809468"><ele>59.99999999999999</ele><time>2026-04-29T14:39:34.001Z</time></trkpt><trkpt lat="40.334334964137774" lon="17.560063493183016"><ele>59.0</ele><time>2026-04-29T14:39:35.001Z</time></trkpt><trkpt lat="40.33425044362614" lon="17.560062799204488"><ele>58.0</ele><time>2026-04-29T14:39:36.001Z</time></trkpt><trkpt lat="40.33417006637856" lon="17.56006209423503"><ele>57.0</ele><time>2026-04-29T14:39:37.001Z</time></trkpt><trkpt lat="40.33409188286793" lon="17.56006308954316"><ele>55.99999999999999</ele><time>2026-04-29T14:39:38.001Z</time></trkpt><trkpt lat="40.334023327318135" lon="17.56005206807257"><ele>55.0</ele><time>2026-04-29T14:39:39.001Z</time></trkpt><trkpt lat="40.33389611827489" lon="17.56005395418215"><ele>53.99999999999999</ele><time>2026-04-29T14:39:41.001Z</time></trkpt><trkpt lat="40.33382924353677" lon="17.56001980943269"><ele>53.0</ele><time>2026-04-29T14:39:42.001Z</time></trkpt><trkpt lat="40.33375835620808" lon="17.560016436121042"><ele>52.0</ele><time>2026-04-29T14:39:43.001Z</time></trkpt><trkpt lat="40.333689761361114" lon="17.559985611191863"><ele>51.0</ele><time>2026-04-29T14:39:44.001Z</time></trkpt><trkpt lat="40.33364601862147" lon="17.559913593941218"><ele>50.0</ele><time>2026-04-29T14:39:45.001Z</time></trkpt><trkpt lat="40.333569861613654" lon="17.559848693071537"><ele>48.99999999999999</ele><time>2026-04-29T14:39:47Z</time></trkpt><trkpt lat="40.333534904600704" lon="17.559776700439652"><ele>48.0</ele><time>2026-04-29T14:39:49Z</time></trkpt><trkpt lat="40.33346953731856" lon="17.559822181719703"><ele>48.0</ele><time>2026-04-29T14:39:50Z</time></trkpt><trkpt lat="40.33343279241345" lon="17.559927440538612"><ele>48.0</ele><time>2026-04-29T14:39:53Z</time></trkpt><trkpt lat="40.3334487253771" lon="17.560024526689638"><ele>48.0</ele><time>2026-04-29T14:39:55Z</time></trkpt><trkpt lat="40.333448599081564" lon="17.560121203732354"><ele>48.0</ele><time>2026-04-29T14:39:57Z</time></trkpt><trkpt lat="40.33345440687318" lon="17.560260645550695"><ele>48.0</ele><time>2026-04-29T14:39:59Z</time></trkpt><trkpt lat="40.33344350673669" lon="17.5603947146279"><ele>48.0</ele><time>2026-04-29T14:40:01Z</time></trkpt><trkpt lat="40.33342163893438" lon="17.56052407702142"><ele>48.0</ele><time>2026-04-29T14:40:03Z</time></trkpt><trkpt lat="40.3333996396399" lon="17.56064488304942"><ele>48.0</ele><time>2026-04-29T14:40:05Z</time></trkpt><trkpt lat="40.33339963963228" lon="17.56077721835707"><ele>48.0</ele><time>2026-04-29T14:40:06Z</time></trkpt><trkpt lat="40.33339963963117" lon="17.560870669384315"><ele>48.0</ele><time>2026-04-29T14:40:07Z</time></trkpt><trkpt lat="40.3333979206986" lon="17.561032823473923"><ele>48.0</ele><time>2026-04-29T14:40:09Z</time></trkpt><trkpt lat="40.33339239446456" lon="17.561183139330144"><ele>48.4</ele><time>2026-04-29T14:40:11Z</time></trkpt><trkpt lat="40.33338542707801" lon="17.56134825984989"><ele>48.8</ele><time>2026-04-29T14:40:13Z</time></trkpt><trkpt lat="40.33338114716761" lon="17.56143801356836"><ele>49.2</ele><time>2026-04-29T14:40:14Z</time></trkpt><trkpt lat="40.33337194581727" lon="17.561606922721584"><ele>49.6</ele><time>2026-04-29T14:40:16Z</time></trkpt><trkpt lat="40.333367804402194" lon="17.561730499329087"><ele>50.0</ele><time>2026-04-29T14:40:18Z</time></trkpt><trkpt lat="40.333368939636415" lon="17.561815576742326"><ele>50.00000000000001</ele><time>2026-04-29T14:40:22Z</time></trkpt><trkpt lat="40.33336942606823" lon="17.56192047068977"><ele>50.0</ele><time>2026-04-29T14:40:26Z</time></trkpt><trkpt lat="40.33337042149297" lon="17.562038614461947"><ele>50.0</ele><time>2026-04-29T14:40:32Z</time></trkpt><trkpt lat="40.33339387775791" lon="17.562152174033027"><ele>50.0</ele><time>2026-04-29T14:40:35Z</time></trkpt><trkpt lat="40.33338481473787" lon="17.56225616328202"><ele>50.00000000000001</ele><time>2026-04-29T14:40:39Z</time></trkpt><trkpt lat="40.333383587953044" lon="17.56234080986367"><ele>50.0</ele><time>2026-04-29T14:40:42Z</time></trkpt><trkpt lat="40.333376511713716" lon="17.562430241995926"><ele>50.833333333333336</ele><time>2026-04-29T14:40:45Z</time></trkpt><trkpt lat="40.33336950114703" lon="17.562524194247686"><ele>51.66666666666667</ele><time>2026-04-29T14:40:48Z</time></trkpt><trkpt lat="40.33336719487641" lon="17.562619307533804"><ele>52.5</ele><time>2026-04-29T14:40:51Z</time></trkpt><trkpt lat="40.33336900523535" lon="17.56273039437945"><ele>53.33333333333333</ele><time>2026-04-29T14:40:55Z</time></trkpt><trkpt lat="40.33336842205351" lon="17.562847099488117"><ele>54.166666666666664</ele><time>2026-04-29T14:40:59Z</time></trkpt><trkpt lat="40.33336838904417" lon="17.5629444713349"><ele>55.0</ele><time>2026-04-29T14:41:03Z</time></trkpt><trkpt lat="40.33336090998384" lon="17.563038128635377"><ele>55.666666666666664</ele><time>2026-04-29T14:41:06Z</time></trkpt><trkpt lat="40.333349082400794" lon="17.563157011482843"><ele>56.33333333333333</ele><time>2026-04-29T14:41:09.001Z</time></trkpt><trkpt lat="40.333350424028744" lon="17.563240755353576"><ele>57.0</ele><time>2026-04-29T14:41:11.001Z</time></trkpt><trkpt lat="40.33333809859902" lon="17.563338216840076"><ele>57.66666666666667</ele><time>2026-04-29T14:41:14.001Z</time></trkpt><trkpt lat="40.33333709484787" lon="17.563429979488138"><ele>58.333333333333336</ele><time>2026-04-29T14:41:18.001Z</time></trkpt><trkpt lat="40.33332841785691" lon="17.563535060148652"><ele>59.0</ele><time>2026-04-29T14:41:22.001Z</time></trkpt><trkpt lat="40.3333326324235" lon="17.563635804662145"><ele>59.16666666666667</ele><time>2026-04-29T14:41:25.001Z</time></trkpt><trkpt lat="40.33333236409613" lon="17.56372579702701"><ele>59.333333333333336</ele><time>2026-04-29T14:41:28.001Z</time></trkpt><trkpt lat="40.333316183769135" lon="17.563822557577183"><ele>59.5</ele><time>2026-04-29T14:41:31.001Z</time></trkpt><trkpt lat="40.3333234771305" lon="17.56393550233873"><ele>59.66666666666667</ele><time>2026-04-29T14:41:34.001Z</time></trkpt><trkpt lat="40.333325105163105" lon="17.564018089134734"><ele>59.833333333333336</ele><time>2026-04-29T14:41:36.001Z</time></trkpt><trkpt lat="40.33331031093683" lon="17.564100285583585"><ele>60.0</ele><time>2026-04-29T14:41:38.001Z</time></trkpt><trkpt lat="40.33329575886577" lon="17.56422061231393"><ele>60.0</ele><time>2026-04-29T14:41:41.001Z</time></trkpt><trkpt lat="40.333290791892836" lon="17.564314673268075"><ele>60.0</ele><time>2026-04-29T14:41:43.001Z</time></trkpt><trkpt lat="40.3332963717777" lon="17.564411349920473"><ele>60.0</ele><time>2026-04-29T14:41:45.001Z</time></trkpt><trkpt lat="40.33330124670279" lon="17.564494143683277"><ele>60.0</ele><time>2026-04-29T14:41:47.001Z</time></trkpt><trkpt lat="40.33328893706671" lon="17.564583131828694"><ele>60.0</ele><time>2026-04-29T14:41:50.001Z</time></trkpt><trkpt lat="40.33329089418389" lon="17.564691176737075"><ele>60.0</ele><time>2026-04-29T14:41:53Z</time></trkpt><trkpt lat="40.33329092380002" lon="17.56477950474397"><ele>60.0</ele><time>2026-04-29T14:42:00Z</time></trkpt><trkpt lat="40.33327445159218" lon="17.564896708141283"><ele>60.0</ele><time>2026-04-29T14:42:04Z</time></trkpt><trkpt lat="40.33328669422395" lon="17.5652653138372"><ele>60.0</ele><time>2026-04-29T14:43:26Z</time></trkpt><trkpt lat="40.33328688039825" lon="17.56537134178114"><ele>60.0</ele><time>2026-04-29T14:43:29Z</time></trkpt><trkpt lat="40.333297178189994" lon="17.565477039272082"><ele>60.0</ele><time>2026-04-29T14:43:31.999Z</time></trkpt><trkpt lat="40.333294627822276" lon="17.56558570981423"><ele>60.166666666666664</ele><time>2026-04-29T14:43:34.999Z</time></trkpt><trkpt lat="40.333295643962344" lon="17.565697251507643"><ele>60.33333333333333</ele><time>2026-04-29T14:43:37.999Z</time></trkpt><trkpt lat="40.333291852318695" lon="17.565814922991557"><ele>60.5</ele><time>2026-04-29T14:43:40.999Z</time></trkpt><trkpt lat="40.33328152704111" lon="17.565937568703664"><ele>60.666666666666664</ele><time>2026-04-29T14:43:43.999Z</time></trkpt><trkpt lat="40.33327897048476" lon="17.56603780322546"><ele>60.83333333333333</ele><time>2026-04-29T14:43:45.999Z</time></trkpt><trkpt lat="40.33327435326057" lon="17.566133857472238"><ele>61.0</ele><time>2026-04-29T14:43:47.999Z</time></trkpt><trkpt lat="40.333264048976" lon="17.566231771111774"><ele>60.99999999999999</ele><time>2026-04-29T14:43:49.999Z</time></trkpt><trkpt lat="40.33324979063953" lon="17.566331530398724"><ele>61.0</ele><time>2026-04-29T14:43:51.999Z</time></trkpt><trkpt lat="40.33324644261982" lon="17.566433615770503"><ele>61.0</ele><time>2026-04-29T14:43:53.999Z</time></trkpt><trkpt lat="40.33325331056418" lon="17.566525863096885"><ele>61.0</ele><time>2026-04-29T14:43:55.999Z</time></trkpt><trkpt lat="40.33322980455962" lon="17.56663865607366"><ele>60.99999999999999</ele><time>2026-04-29T14:43:59Z</time></trkpt><trkpt lat="40.333236574577406" lon="17.566750983958134"><ele>61.0</ele><time>2026-04-29T14:44:02Z</time></trkpt><trkpt lat="40.33321687858135" lon="17.566878184131905"><ele>61.0</ele><time>2026-04-29T14:44:05Z</time></trkpt><trkpt lat="40.3332158431911" lon="17.56701264187285"><ele>60.99999999999999</ele><time>2026-04-29T14:44:07Z</time></trkpt><trkpt lat="40.333198774975706" lon="17.56714480695263"><ele>60.99999999999999</ele><time>2026-04-29T14:44:09Z</time></trkpt><trkpt lat="40.333202175389" lon="17.56726352273116"><ele>61.0</ele><time>2026-04-29T14:44:11Z</time></trkpt><trkpt lat="40.33319934412207" lon="17.567381507919404"><ele>61.0</ele><time>2026-04-29T14:44:13Z</time></trkpt><trkpt lat="40.3332026790808" lon="17.56748868300512"><ele>60.75</ele><time>2026-04-29T14:44:15Z</time></trkpt><trkpt lat="40.33320013799258" lon="17.567594838342103"><ele>60.5</ele><time>2026-04-29T14:44:17Z</time></trkpt><trkpt lat="40.333196955774156" lon="17.56767995013524"><ele>60.25</ele><time>2026-04-29T14:44:20Z</time></trkpt><trkpt lat="40.33320154771616" lon="17.56777074502169"><ele>60.0</ele><time>2026-04-29T14:44:23Z</time></trkpt><trkpt lat="40.332218573360805" lon="17.56833394643786"><ele>59.0</ele><time>2026-04-29T14:45:34Z</time></trkpt><trkpt lat="40.33251965377863" lon="17.56849474388743"><ele>58.0</ele><time>2026-04-29T14:46:34Z</time></trkpt><trkpt lat="40.33258484529439" lon="17.56856362490372"><ele>57.0</ele><time>2026-04-29T14:46:37Z</time></trkpt><trkpt lat="40.33263324270424" lon="17.568619078786778"><ele>57.0</ele><time>2026-04-29T14:46:39Z</time></trkpt><trkpt lat="40.332713208648734" lon="17.56865147920684"><ele>56.99999999999999</ele><time>2026-04-29T14:46:42Z</time></trkpt><trkpt lat="40.33276900841906" lon="17.568721720464577"><ele>57.0</ele><time>2026-04-29T14:46:44Z</time></trkpt><trkpt lat="40.33280378115088" lon="17.56879225807707"><ele>57.0</ele><time>2026-04-29T14:46:46Z</time></trkpt><trkpt lat="40.332833174101914" lon="17.568878494388358"><ele>56.99999999999999</ele><time>2026-04-29T14:46:48Z</time></trkpt><trkpt lat="40.33287041033127" lon="17.56895937590666"><ele>57.0</ele><time>2026-04-29T14:46:50Z</time></trkpt><trkpt lat="40.33290180673423" lon="17.56904451818988"><ele>57.0</ele><time>2026-04-29T14:46:52Z</time></trkpt><trkpt lat="40.33294022605112" lon="17.569131903297123"><ele>57.0</ele><time>2026-04-29T14:46:54Z</time></trkpt><trkpt lat="40.33298102285334" lon="17.56920492218202"><ele>56.99999999999999</ele><time>2026-04-29T14:46:56Z</time></trkpt><trkpt lat="40.33302605028017" lon="17.56927208858242"><ele>57.0</ele><time>2026-04-29T14:46:58Z</time></trkpt><trkpt lat="40.33306358680768" lon="17.56933884817548"><ele>57.0</ele><time>2026-04-29T14:47:00Z</time></trkpt><trkpt lat="40.33309667457927" lon="17.569426532090382"><ele>56.99999999999999</ele><time>2026-04-29T14:47:03Z</time></trkpt><trkpt lat="40.33307250761413" lon="17.569516592061788"><ele>57.0</ele><time>2026-04-29T14:47:05Z</time></trkpt><trkpt lat="40.33304412115216" lon="17.56959843151437"><ele>57.0</ele><time>2026-04-29T14:47:07Z</time></trkpt><trkpt lat="40.33302105391421" lon="17.569698995827817"><ele>57.166666666666664</ele><time>2026-04-29T14:47:10Z</time></trkpt><trkpt lat="40.33300094494573" lon="17.569797527058704"><ele>57.33333333333333</ele><time>2026-04-29T14:47:13Z</time></trkpt><trkpt lat="40.33298233437265" lon="17.5698919631409"><ele>57.5</ele><time>2026-04-29T14:47:16Z</time></trkpt><trkpt lat="40.33293826812103" lon="17.570003551252764"><ele>57.666666666666664</ele><time>2026-04-29T14:47:19Z</time></trkpt><trkpt lat="40.332910732847424" lon="17.570089567658442"><ele>57.83333333333333</ele><time>2026-04-29T14:47:21Z</time></trkpt><trkpt lat="40.332885782941204" lon="17.57018117439048"><ele>58.0</ele><time>2026-04-29T14:47:23Z</time></trkpt><trkpt lat="40.33273785710524" lon="17.570720464190593"><ele>57.83333333333333</ele><time>2026-04-29T14:47:33Z</time></trkpt><trkpt lat="40.332710236480644" lon="17.570822993869548"><ele>57.666666666666664</ele><time>2026-04-29T14:47:35Z</time></trkpt><trkpt lat="40.33268354017129" lon="17.570929496750864"><ele>57.5</ele><time>2026-04-29T14:47:37Z</time></trkpt><trkpt lat="40.33266292540294" lon="17.571035043167488"><ele>57.33333333333333</ele><time>2026-04-29T14:47:39Z</time></trkpt><trkpt lat="40.332631177210075" lon="17.571138942226366"><ele>57.166666666666664</ele><time>2026-04-29T14:47:41Z</time></trkpt><trkpt lat="40.332591143956044" lon="17.571231612058067"><ele>57.0</ele><time>2026-04-29T14:47:43Z</time></trkpt><trkpt lat="40.33255991129183" lon="17.571335288902375"><ele>57.0</ele><time>2026-04-29T14:47:45Z</time></trkpt><trkpt lat="40.33253635311611" lon="17.571451211762575"><ele>57.0</ele><time>2026-04-29T14:47:47Z</time></trkpt><trkpt lat="40.33250244105015" lon="17.571570080082623"><ele>57.0</ele><time>2026-04-29T14:47:49Z</time></trkpt><trkpt lat="40.33245762823367" lon="17.571679536057047"><ele>57.0</ele><time>2026-04-29T14:47:51Z</time></trkpt><trkpt lat="40.33238015758932" lon="17.571789562036304"><ele>57.0</ele><time>2026-04-29T14:47:53Z</time></trkpt><trkpt lat="40.33232692730435" lon="17.571837060109825"><ele>57.0</ele><time>2026-04-29T14:47:54Z</time></trkpt><trkpt lat="40.332284118125976" lon="17.571902473007352"><ele>56.99999999999999</ele><time>2026-04-29T14:47:55Z</time></trkpt><trkpt lat="40.33223454799436" lon="17.571960198993317"><ele>57.0</ele><time>2026-04-29T14:47:56Z</time></trkpt><trkpt lat="40.3321870300147" lon="17.572022166128882"><ele>57.0</ele><time>2026-04-29T14:47:57Z</time></trkpt><trkpt lat="40.33213886977321" lon="17.572081311350438"><ele>56.99999999999999</ele><time>2026-04-29T14:47:58Z</time></trkpt><trkpt lat="40.33209234047443" lon="17.572142326749137"><ele>57.0</ele><time>2026-04-29T14:47:59Z</time></trkpt><trkpt lat="40.33205343100901" lon="17.572211516917587"><ele>57.0</ele><time>2026-04-29T14:48:00Z</time></trkpt><trkpt lat="40.331972386693415" lon="17.57232841510789"><ele>56.400000000000006</ele><time>2026-04-29T14:48:02Z</time></trkpt><trkpt lat="40.331903172259366" lon="17.57244586610279"><ele>55.800000000000004</ele><time>2026-04-29T14:48:04Z</time></trkpt><trkpt lat="40.33181819807302" lon="17.572563494244527"><ele>55.2</ele><time>2026-04-29T14:48:06Z</time></trkpt><trkpt lat="40.33173611659728" lon="17.572687689736078"><ele>54.6</ele><time>2026-04-29T14:48:08Z</time></trkpt><trkpt lat="40.33168815225471" lon="17.572745545834277"><ele>54.0</ele><time>2026-04-29T14:48:09Z</time></trkpt><trkpt lat="40.33163681925503" lon="17.57279647949985"><ele>53.57142857142857</ele><time>2026-04-29T14:48:10Z</time></trkpt><trkpt lat="40.331588967629784" lon="17.572868864805866"><ele>53.14285714285714</ele><time>2026-04-29T14:48:11Z</time></trkpt><trkpt lat="40.33154255638279" lon="17.572941084971784"><ele>52.714285714285715</ele><time>2026-04-29T14:48:12Z</time></trkpt><trkpt lat="40.33149628746308" lon="17.57301017380523"><ele>52.285714285714285</ele><time>2026-04-29T14:48:13Z</time></trkpt><trkpt lat="40.3314509016575" lon="17.573083253703775"><ele>51.85714285714286</ele><time>2026-04-29T14:48:14Z</time></trkpt><trkpt lat="40.33140497103352" lon="17.57314879785211"><ele>51.42857142857143</ele><time>2026-04-29T14:48:15Z</time></trkpt><trkpt lat="40.331363787366364" lon="17.573227198464387"><ele>51.0</ele><time>2026-04-29T14:48:16Z</time></trkpt><trkpt lat="40.33128392380162" lon="17.573338756581503"><ele>51.0</ele><time>2026-04-29T14:48:18Z</time></trkpt><trkpt lat="40.33120680279489" lon="17.57344474729331"><ele>51.0</ele><time>2026-04-29T14:48:20Z</time></trkpt><trkpt lat="40.33114440247572" lon="17.573550807232465"><ele>51.0</ele><time>2026-04-29T14:48:22Z</time></trkpt><trkpt lat="40.33077664191351" lon="17.574037695819566"><ele>49.8</ele><time>2026-04-29T14:48:34Z</time></trkpt><trkpt lat="40.33069088096699" lon="17.57407195881171"><ele>48.599999999999994</ele><time>2026-04-29T14:48:38Z</time></trkpt><trkpt lat="40.33063518173033" lon="17.574162723642157"><ele>47.4</ele><time>2026-04-29T14:48:40Z</time></trkpt><trkpt lat="40.33054899481219" lon="17.574256074144042"><ele>46.2</ele><time>2026-04-29T14:48:42Z</time></trkpt><trkpt lat="40.330441943326285" lon="17.57433543734746"><ele>45.0</ele><time>2026-04-29T14:48:44Z</time></trkpt><trkpt lat="40.330381281329004" lon="17.574383412192038"><ele>44.166666666666664</ele><time>2026-04-29T14:48:45Z</time></trkpt><trkpt lat="40.330312915061036" lon="17.57443142384473"><ele>43.333333333333336</ele><time>2026-04-29T14:48:46Z</time></trkpt><trkpt lat="40.33024561197959" lon="17.574481414646876"><ele>42.5</ele><time>2026-04-29T14:48:47Z</time></trkpt><trkpt lat="40.330168595975486" lon="17.574529897524307"><ele>41.66666666666667</ele><time>2026-04-29T14:48:48Z</time></trkpt><trkpt lat="40.33008858162605" lon="17.574582270675837"><ele>40.833333333333336</ele><time>2026-04-29T14:48:49Z</time></trkpt><trkpt lat="40.330011673904096" lon="17.574630659359787"><ele>40.0</ele><time>2026-04-29T14:48:50Z</time></trkpt><trkpt lat="40.32994564939285" lon="17.574667715347495"><ele>39.4</ele><time>2026-04-29T14:48:51Z</time></trkpt><trkpt lat="40.329838426049854" lon="17.574751556801832"><ele>38.8</ele><time>2026-04-29T14:48:53Z</time></trkpt><trkpt lat="40.32975444092864" lon="17.57473642791256"><ele>38.2</ele><time>2026-04-29T14:48:55Z</time></trkpt><trkpt lat="40.32967036221663" lon="17.574669597084522"><ele>37.6</ele><time>2026-04-29T14:48:57Z</time></trkpt><trkpt lat="40.329600593554964" lon="17.574594857705"><ele>37.0</ele><time>2026-04-29T14:48:59Z</time></trkpt><trkpt lat="40.329517257676926" lon="17.574519536548326"><ele>36.66666666666667</ele><time>2026-04-29T14:49:01Z</time></trkpt><trkpt lat="40.329435680221" lon="17.574429545951062"><ele>36.333333333333336</ele><time>2026-04-29T14:49:03.001Z</time></trkpt><trkpt lat="40.329331329243864" lon="17.574339692130756"><ele>36.0</ele><time>2026-04-29T14:49:05.001Z</time></trkpt><trkpt lat="40.329275175468844" lon="17.574294185563847"><ele>35.666666666666664</ele><time>2026-04-29T14:49:06.001Z</time></trkpt><trkpt lat="40.32921024842769" lon="17.574253660497718"><ele>35.33333333333333</ele><time>2026-04-29T14:49:07.001Z</time></trkpt><trkpt lat="40.32914334965713" lon="17.574213735163653"><ele>35.0</ele><time>2026-04-29T14:49:08.001Z</time></trkpt><trkpt lat="40.329072434172176" lon="17.574186907969892"><ele>35.0</ele><time>2026-04-29T14:49:09.001Z</time></trkpt><trkpt lat="40.32899546930748" lon="17.57416343195827"><ele>35.0</ele><time>2026-04-29T14:49:10.001Z</time></trkpt><trkpt lat="40.32891760148882" lon="17.574140054573245"><ele>35.0</ele><time>2026-04-29T14:49:11.001Z</time></trkpt><trkpt lat="40.328833229703356" lon="17.574128323412037"><ele>35.0</ele><time>2026-04-29T14:49:12.001Z</time></trkpt><trkpt lat="40.32875916353311" lon="17.574107534501866"><ele>35.0</ele><time>2026-04-29T14:49:13.001Z</time></trkpt><trkpt lat="40.328681461710524" lon="17.574083023711534"><ele>35.0</ele><time>2026-04-29T14:49:14.001Z</time></trkpt><trkpt lat="40.328602769988194" lon="17.574045176971275"><ele>34.8</ele><time>2026-04-29T14:49:15.001Z</time></trkpt><trkpt lat="40.328537515175825" lon="17.574017914113032"><ele>34.6</ele><time>2026-04-29T14:49:16.001Z</time></trkpt><trkpt lat="40.328432385533475" lon="17.574043121426932"><ele>34.4</ele><time>2026-04-29T14:49:18.001Z</time></trkpt><trkpt lat="40.328424163466664" lon="17.574195124583834"><ele>34.2</ele><time>2026-04-29T14:49:20.001Z</time></trkpt><trkpt lat="40.328393979962485" lon="17.574334871525913"><ele>34.0</ele><time>2026-04-29T14:49:22.001Z</time></trkpt><trkpt lat="40.328099773454184" lon="17.574589988249063"><ele>33.99999999999999</ele><time>2026-04-29T14:49:31.001Z</time></trkpt><trkpt lat="40.32803798299235" lon="17.574566841878905"><ele>34.0</ele><time>2026-04-29T14:49:32.001Z</time></trkpt><trkpt lat="40.32797061650813" lon="17.574548836559885"><ele>34.0</ele><time>2026-04-29T14:49:33.001Z</time></trkpt><trkpt lat="40.32790373394203" lon="17.574519857309223"><ele>34.0</ele><time>2026-04-29T14:49:34.001Z</time></trkpt><trkpt lat="40.32783535440358" lon="17.5744942800396"><ele>34.0</ele><time>2026-04-29T14:49:35.001Z</time></trkpt><trkpt lat="40.327774926197165" lon="17.574469637670138"><ele>33.99999999999999</ele><time>2026-04-29T14:49:36.001Z</time></trkpt><trkpt lat="40.327708642108185" lon="17.574437389962586"><ele>34.0</ele><time>2026-04-29T14:49:37.001Z</time></trkpt><trkpt lat="40.32764340170804" lon="17.57441395852768"><ele>33.833333333333336</ele><time>2026-04-29T14:49:38.001Z</time></trkpt><trkpt lat="40.327576103796005" lon="17.574396433923386"><ele>33.66666666666667</ele><time>2026-04-29T14:49:39.001Z</time></trkpt><trkpt lat="40.327509213153846" lon="17.574382358574486"><ele>33.5</ele><time>2026-04-29T14:49:40.001Z</time></trkpt><trkpt lat="40.327448419282135" lon="17.57435871963999"><ele>33.333333333333336</ele><time>2026-04-29T14:49:41.001Z</time></trkpt><trkpt lat="40.327382188210194" lon="17.57433465476644"><ele>33.166666666666664</ele><time>2026-04-29T14:49:42.001Z</time></trkpt><trkpt lat="40.32731513236191" lon="17.574308982642027"><ele>33.0</ele><time>2026-04-29T14:49:43.001Z</time></trkpt><trkpt lat="40.327188853155555" lon="17.574254395945808"><ele>32.833333333333336</ele><time>2026-04-29T14:49:45.001Z</time></trkpt><trkpt lat="40.327129223988365" lon="17.574226199599224"><ele>32.666666666666664</ele><time>2026-04-29T14:49:46.001Z</time></trkpt><trkpt lat="40.327065234033206" lon="17.574203782183137"><ele>32.5</ele><time>2026-04-29T14:49:47.001Z</time></trkpt><trkpt lat="40.32694127357847" lon="17.574155107292295"><ele>32.33333333333333</ele><time>2026-04-29T14:49:49.001Z</time></trkpt><trkpt lat="40.32687480225693" lon="17.57412941453738"><ele>32.166666666666664</ele><time>2026-04-29T14:49:50.001Z</time></trkpt><trkpt lat="40.326810230460715" lon="17.574100955753224"><ele>32.0</ele><time>2026-04-29T14:49:51.001Z</time></trkpt><trkpt lat="40.326747847654374" lon="17.574075723481492"><ele>32.0</ele><time>2026-04-29T14:49:52.001Z</time></trkpt><trkpt lat="40.32667914980407" lon="17.574046508406376"><ele>31.999999999999996</ele><time>2026-04-29T14:49:53.001Z</time></trkpt><trkpt lat="40.32660511049182" lon="17.574021052698942"><ele>32.0</ele><time>2026-04-29T14:49:54.001Z</time></trkpt><trkpt lat="40.326532636356866" lon="17.573994589140263"><ele>32.0</ele><time>2026-04-29T14:49:55.001Z</time></trkpt><trkpt lat="40.32646616921924" lon="17.57397356417135"><ele>31.999999999999996</ele><time>2026-04-29T14:49:56.001Z</time></trkpt><trkpt lat="40.32639679009973" lon="17.573944664991483"><ele>32.0</ele><time>2026-04-29T14:49:57.001Z</time></trkpt><trkpt lat="40.32632653587047" lon="17.573916936268105"><ele>32.0</ele><time>2026-04-29T14:49:58.001Z</time></trkpt><trkpt lat="40.32626054493308" lon="17.573892100820558"><ele>31.6</ele><time>2026-04-29T14:49:59.001Z</time></trkpt><trkpt lat="40.32619402387225" lon="17.57385918274479"><ele>31.200000000000003</ele><time>2026-04-29T14:50:00.001Z</time></trkpt><trkpt lat="40.326130109059974" lon="17.573831849872022"><ele>30.8</ele><time>2026-04-29T14:50:01.001Z</time></trkpt><trkpt lat="40.32600381621235" lon="17.57378568616818"><ele>30.4</ele><time>2026-04-29T14:50:03.001Z</time></trkpt><trkpt lat="40.32589541472442" lon="17.573729353677738"><ele>30.0</ele><time>2026-04-29T14:50:05.001Z</time></trkpt><trkpt lat="40.32580872467189" lon="17.57375802684172"><ele>30.0</ele><time>2026-04-29T14:50:08.001Z</time></trkpt><trkpt lat="40.325797130273976" lon="17.573861746261905"><ele>30.0</ele><time>2026-04-29T14:50:10.001Z</time></trkpt><trkpt lat="40.32577977196944" lon="17.573950017897157"><ele>30.0</ele><time>2026-04-29T14:50:12.001Z</time></trkpt><trkpt lat="40.325663862124195" lon="17.573977960899256"><ele>30.0</ele><time>2026-04-29T14:50:14.001Z</time></trkpt><trkpt lat="40.32556418851421" lon="17.57403903790953"><ele>30.0</ele><time>2026-04-29T14:50:16Z</time></trkpt><trkpt lat="40.32538625738521" lon="17.57410743986611"><ele>29.333333333333336</ele><time>2026-04-29T14:50:19Z</time></trkpt><trkpt lat="40.32527985332173" lon="17.574178449729253"><ele>28.666666666666668</ele><time>2026-04-29T14:50:21Z</time></trkpt><trkpt lat="40.325180231764435" lon="17.574240609172605"><ele>28.0</ele><time>2026-04-29T14:50:23Z</time></trkpt><trkpt lat="40.32393084273011" lon="17.575108438579125"><ele>27.75</ele><time>2026-04-29T14:51:24.001Z</time></trkpt><trkpt lat="40.32381224999143" lon="17.57510792921722"><ele>27.5</ele><time>2026-04-29T14:51:26.001Z</time></trkpt><trkpt lat="40.323698235254874" lon="17.57512465023683"><ele>27.25</ele><time>2026-04-29T14:51:28.001Z</time></trkpt><trkpt lat="40.32358184476795" lon="17.57512297247335"><ele>27.0</ele><time>2026-04-29T14:51:30.001Z</time></trkpt><trkpt lat="40.32346464674626" lon="17.575119464375362"><ele>27.0</ele><time>2026-04-29T14:51:32.001Z</time></trkpt><trkpt lat="40.323357151935866" lon="17.57511447435282"><ele>27.000000000000004</ele><time>2026-04-29T14:51:34.001Z</time></trkpt><trkpt lat="40.323255897535745" lon="17.575114463525356"><ele>27.000000000000004</ele><time>2026-04-29T14:51:36.001Z</time></trkpt><trkpt lat="40.32316428096355" lon="17.575107393175184"><ele>27.0</ele><time>2026-04-29T14:51:38.001Z</time></trkpt><trkpt lat="40.32307900284946" lon="17.57511152127899"><ele>27.0</ele><time>2026-04-29T14:51:40.001Z</time></trkpt><trkpt lat="40.322997672787174" lon="17.575133379003184"><ele>26.8</ele><time>2026-04-29T14:51:42.001Z</time></trkpt><trkpt lat="40.322908336400864" lon="17.575182121465733"><ele>26.6</ele><time>2026-04-29T14:51:44.001Z</time></trkpt><trkpt lat="40.322888594212785" lon="17.57528172664658"><ele>26.400000000000002</ele><time>2026-04-29T14:51:46.001Z</time></trkpt><trkpt lat="40.32285481569833" lon="17.575419856281812"><ele>26.200000000000003</ele><time>2026-04-29T14:51:48.001Z</time></trkpt><trkpt lat="40.32280065157742" lon="17.57554162092848"><ele>26.0</ele><time>2026-04-29T14:51:50.001Z</time></trkpt><trkpt lat="40.32274695681084" lon="17.575663065285262"><ele>26.0</ele><time>2026-04-29T14:51:52.001Z</time></trkpt><trkpt lat="40.32270907792126" lon="17.5758164359655"><ele>26.0</ele><time>2026-04-29T14:51:54.001Z</time></trkpt><trkpt lat="40.32267591200311" lon="17.575972883493872"><ele>26.0</ele><time>2026-04-29T14:51:56.001Z</time></trkpt><trkpt lat="40.3226507399946" lon="17.576127319950608"><ele>26.0</ele><time>2026-04-29T14:51:58.001Z</time></trkpt><trkpt lat="40.3226091601953" lon="17.576279209159026"><ele>26.0</ele><time>2026-04-29T14:52:00.001Z</time></trkpt><trkpt lat="40.32251207835135" lon="17.576361622572364"><ele>26.0</ele><time>2026-04-29T14:52:02.001Z</time></trkpt><trkpt lat="40.32238617192958" lon="17.576351196114686"><ele>26.0</ele><time>2026-04-29T14:52:04.001Z</time></trkpt><trkpt lat="40.32232024484105" lon="17.57633757340068"><ele>26.0</ele><time>2026-04-29T14:52:05.001Z</time></trkpt><trkpt lat="40.32220191316491" lon="17.576326102227682"><ele>26.0</ele><time>2026-04-29T14:52:07.001Z</time></trkpt><trkpt lat="40.322132139940805" lon="17.576326836655962"><ele>26.200000000000003</ele><time>2026-04-29T14:52:08Z</time></trkpt><trkpt lat="40.322013314922366" lon="17.5763224752029"><ele>26.400000000000002</ele><time>2026-04-29T14:52:10Z</time></trkpt><trkpt lat="40.32190024447981" lon="17.576307422843186"><ele>26.6</ele><time>2026-04-29T14:52:12Z</time></trkpt><trkpt lat="40.32183326780426" lon="17.57630278958327"><ele>26.8</ele><time>2026-04-29T14:52:13Z</time></trkpt><trkpt lat="40.32172653890472" lon="17.576295038682787"><ele>27.0</ele><time>2026-04-29T14:52:15Z</time></trkpt><trkpt lat="40.32163966971058" lon="17.576283016473706"><ele>27.0</ele><time>2026-04-29T14:52:17Z</time></trkpt><trkpt lat="40.321563650345816" lon="17.576286504329417"><ele>27.0</ele><time>2026-04-29T14:52:19Z</time></trkpt><trkpt lat="40.32148205178608" lon="17.576236167450123"><ele>27.0</ele><time>2026-04-29T14:52:21Z</time></trkpt><trkpt lat="40.32137067187879" lon="17.57618028444916"><ele>27.0</ele><time>2026-04-29T14:52:23Z</time></trkpt><trkpt lat="40.319293940853726" lon="17.57613082837203"><ele>25.0</ele><time>2026-04-29T14:53:01Z</time></trkpt><trkpt lat="40.319169560790925" lon="17.57612508023721"><ele>23.0</ele><time>2026-04-29T14:53:03Z</time></trkpt><trkpt lat="40.319106110533575" lon="17.576141868544543"><ele>21.0</ele><time>2026-04-29T14:53:04Z</time></trkpt><trkpt lat="40.31715178560513" lon="17.576273081633882"><ele>20.400000000000002</ele><time>2026-04-29T14:53:34Z</time></trkpt><trkpt lat="40.3170447436204" lon="17.576303635146424"><ele>19.8</ele><time>2026-04-29T14:53:36Z</time></trkpt><trkpt lat="40.31691174235643" lon="17.576342563849813"><ele>19.200000000000003</ele><time>2026-04-29T14:53:38Z</time></trkpt><trkpt lat="40.3167915449138" lon="17.576376560249905"><ele>18.6</ele><time>2026-04-29T14:53:40Z</time></trkpt><trkpt lat="40.31672825434377" lon="17.576389546722687"><ele>18.0</ele><time>2026-04-29T14:53:41Z</time></trkpt><trkpt lat="40.316665329592986" lon="17.576392988290376"><ele>18.0</ele><time>2026-04-29T14:53:42Z</time></trkpt><trkpt lat="40.31654329961346" lon="17.576370740436587"><ele>18.0</ele><time>2026-04-29T14:53:44Z</time></trkpt><trkpt lat="40.316412528866366" lon="17.57634546257389"><ele>18.0</ele><time>2026-04-29T14:53:46Z</time></trkpt><trkpt lat="40.316346367556335" lon="17.576328427443613"><ele>18.0</ele><time>2026-04-29T14:53:47Z</time></trkpt><trkpt lat="40.31626511958556" lon="17.576345493139055"><ele>18.0</ele><time>2026-04-29T14:53:48Z</time></trkpt><trkpt lat="40.31620014632933" lon="17.57637621414409"><ele>18.0</ele><time>2026-04-29T14:53:49Z</time></trkpt><trkpt lat="40.316080947026805" lon="17.576407863340044"><ele>18.0</ele><time>2026-04-29T14:53:51Z</time></trkpt><trkpt lat="40.3159533261742" lon="17.576438478439968"><ele>18.0</ele><time>2026-04-29T14:53:53Z</time></trkpt><trkpt lat="40.315869603561026" lon="17.576470639773284"><ele>18.0</ele><time>2026-04-29T14:53:54Z</time></trkpt><trkpt lat="40.315763247316625" lon="17.576511020857314"><ele>18.0</ele><time>2026-04-29T14:53:56Z</time></trkpt><trkpt lat="40.31566384689795" lon="17.576530762551098"><ele>18.0</ele><time>2026-04-29T14:53:58Z</time></trkpt><trkpt lat="40.31565525836007" lon="17.57642751656991"><ele>18.0</ele><time>2026-04-29T14:54:04Z</time></trkpt><trkpt lat="40.31568874417074" lon="17.57633973046831"><ele>18.0</ele><time>2026-04-29T14:54:06Z</time></trkpt><trkpt lat="40.31572696778852" lon="17.57623406400524"><ele>18.0</ele><time>2026-04-29T14:54:08Z</time></trkpt><trkpt lat="40.3157670945133" lon="17.576122262779702"><ele>18.0</ele><time>2026-04-29T14:54:12Z</time></trkpt><trkpt lat="40.31580644324614" lon="17.57601262944211"><ele>18.0</ele><time>2026-04-29T14:54:15Z</time></trkpt><trkpt lat="40.315953273044634" lon="17.575591768651606"><ele>17.4</ele><time>2026-04-29T14:54:17Z</time></trkpt><trkpt lat="40.315991549361414" lon="17.57551356663459"><ele>16.8</ele><time>2026-04-29T14:54:18Z</time></trkpt><trkpt lat="40.31602586929338" lon="17.57542904511317"><ele>16.2</ele><time>2026-04-29T14:54:19Z</time></trkpt><trkpt lat="40.31605001211979" lon="17.575344478406702"><ele>15.6</ele><time>2026-04-29T14:54:20Z</time></trkpt><trkpt lat="40.316110111452026" lon="17.575209119068756"><ele>15.0</ele><time>2026-04-29T14:54:22Z</time></trkpt><trkpt lat="40.312536453650594" lon="17.574063725578732"><ele>14.0</ele><time>2026-04-29T14:55:24Z</time></trkpt><trkpt lat="40.312420205182185" lon="17.574022552576032"><ele>13.0</ele><time>2026-04-29T14:55:26Z</time></trkpt><trkpt lat="40.312306975998005" lon="17.574003148973325"><ele>12.0</ele><time>2026-04-29T14:55:28Z</time></trkpt><trkpt lat="40.31219087021914" lon="17.573985600924193"><ele>11.0</ele><time>2026-04-29T14:55:30Z</time></trkpt><trkpt lat="40.31207601711986" lon="17.57399725566232"><ele>10.8</ele><time>2026-04-29T14:55:32Z</time></trkpt><trkpt lat="40.311960912860805" lon="17.57399963389035"><ele>10.600000000000001</ele><time>2026-04-29T14:55:34Z</time></trkpt><trkpt lat="40.31184684098587" lon="17.573989404037032"><ele>10.4</ele><time>2026-04-29T14:55:36Z</time></trkpt><trkpt lat="40.31174040349468" lon="17.574028490185654"><ele>10.2</ele><time>2026-04-29T14:55:38Z</time></trkpt><trkpt lat="40.31163449138076" lon="17.57403850878571"><ele>10.0</ele><time>2026-04-29T14:55:40Z</time></trkpt><trkpt lat="40.31152478025448" lon="17.574049740264034"><ele>10.0</ele><time>2026-04-29T14:55:42Z</time></trkpt><trkpt lat="40.31141090754372" lon="17.57404786570245"><ele>10.0</ele><time>2026-04-29T14:55:44Z</time></trkpt><trkpt lat="40.311296130229316" lon="17.574034964306186"><ele>10.0</ele><time>2026-04-29T14:55:46Z</time></trkpt><trkpt lat="40.311183396246065" lon="17.57402344033725"><ele>10.0</ele><time>2026-04-29T14:55:48Z</time></trkpt><trkpt lat="40.31106796030586" lon="17.574007940844798"><ele>10.25</ele><time>2026-04-29T14:55:50Z</time></trkpt><trkpt lat="40.31095372356141" lon="17.573993232829686"><ele>10.5</ele><time>2026-04-29T14:55:52Z</time></trkpt><trkpt lat="40.31083895951039" lon="17.573982802027782"><ele>10.75</ele><time>2026-04-29T14:55:54Z</time></trkpt><trkpt lat="40.31072317510228" lon="17.573975300906994"><ele>11.0</ele><time>2026-04-29T14:55:56Z</time></trkpt><trkpt lat="40.31060981295105" lon="17.57396515665562"><ele>10.75</ele><time>2026-04-29T14:55:58Z</time></trkpt><trkpt lat="40.310500405438624" lon="17.573952508017136"><ele>10.5</ele><time>2026-04-29T14:56:00Z</time></trkpt><trkpt lat="40.31038775451699" lon="17.57394262560758"><ele>10.25</ele><time>2026-04-29T14:56:02Z</time></trkpt><trkpt lat="40.31027578659975" lon="17.57393510989499"><ele>10.0</ele><time>2026-04-29T14:56:04Z</time></trkpt><trkpt lat="40.310160792656646" lon="17.573919179753787"><ele>10.0</ele><time>2026-04-29T14:56:06Z</time></trkpt><trkpt lat="40.31005355375887" lon="17.57391018338243"><ele>10.0</ele><time>2026-04-29T14:56:08Z</time></trkpt><trkpt lat="40.30994750385122" lon="17.573901870343605"><ele>10.0</ele><time>2026-04-29T14:56:10Z</time></trkpt><trkpt lat="40.30985084078989" lon="17.573895283539027"><ele>10.0</ele><time>2026-04-29T14:56:12Z</time></trkpt><trkpt lat="40.309751831365205" lon="17.57388926610889"><ele>10.0</ele><time>2026-04-29T14:56:14Z</time></trkpt><trkpt lat="40.309654781244866" lon="17.573881770618012"><ele>10.25</ele><time>2026-04-29T14:56:16Z</time></trkpt><trkpt lat="40.30955930577783" lon="17.573868453096875"><ele>10.5</ele><time>2026-04-29T14:56:18Z</time></trkpt><trkpt lat="40.30946433442982" lon="17.573859835317833"><ele>10.75</ele><time>2026-04-29T14:56:20Z</time></trkpt><trkpt lat="40.30937074242588" lon="17.573855037845043"><ele>11.0</ele><time>2026-04-29T14:56:22Z</time></trkpt><trkpt lat="40.30877681565475" lon="17.573762224240802"><ele>11.200000000000001</ele><time>2026-04-29T14:56:34Z</time></trkpt><trkpt lat="40.30868686782845" lon="17.573734804515233"><ele>11.4</ele><time>2026-04-29T14:56:36Z</time></trkpt><trkpt lat="40.30859225499097" lon="17.573712955785037"><ele>11.6</ele><time>2026-04-29T14:56:38Z</time></trkpt><trkpt lat="40.30849855453427" lon="17.573668579287"><ele>11.8</ele><time>2026-04-29T14:56:40Z</time></trkpt><trkpt lat="40.30840749896078" lon="17.57362184855759"><ele>12.0</ele><time>2026-04-29T14:56:42Z</time></trkpt><trkpt lat="40.30831444955175" lon="17.57357437170968"><ele>12.0</ele><time>2026-04-29T14:56:44Z</time></trkpt><trkpt lat="40.30822340615735" lon="17.57352638452588"><ele>12.0</ele><time>2026-04-29T14:56:46Z</time></trkpt><trkpt lat="40.30812652042383" lon="17.573481298910473"><ele>12.0</ele><time>2026-04-29T14:56:48Z</time></trkpt><trkpt lat="40.3079820371002" lon="17.573414954379878"><ele>12.0</ele><time>2026-04-29T14:56:51Z</time></trkpt><trkpt lat="40.30788824731725" lon="17.573367381224042"><ele>12.2</ele><time>2026-04-29T14:56:53Z</time></trkpt><trkpt lat="40.30779338501825" lon="17.57331491376236"><ele>12.399999999999999</ele><time>2026-04-29T14:56:55Z</time></trkpt><trkpt lat="40.30770385937069" lon="17.57326595660362"><ele>12.600000000000001</ele><time>2026-04-29T14:56:57Z</time></trkpt><trkpt lat="40.3076075864048" lon="17.57322266619545"><ele>12.8</ele><time>2026-04-29T14:56:59Z</time></trkpt><trkpt lat="40.307517348254365" lon="17.573185223595818"><ele>13.0</ele><time>2026-04-29T14:57:01Z</time></trkpt><trkpt lat="40.30742563026178" lon="17.573141422636215"><ele>13.0</ele><time>2026-04-29T14:57:03Z</time></trkpt><trkpt lat="40.307344189156915" lon="17.573103187815143"><ele>13.0</ele><time>2026-04-29T14:57:05Z</time></trkpt><trkpt lat="40.307254934862776" lon="17.573071167365363"><ele>13.0</ele><time>2026-04-29T14:57:07Z</time></trkpt><trkpt lat="40.30716496746455" lon="17.57304099409706"><ele>13.0</ele><time>2026-04-29T14:57:09Z</time></trkpt><trkpt lat="40.30706619236389" lon="17.573012321388376"><ele>13.0</ele><time>2026-04-29T14:57:11Z</time></trkpt><trkpt lat="40.30697070495014" lon="17.572995381997742"><ele>13.0</ele><time>2026-04-29T14:57:13Z</time></trkpt><trkpt lat="40.30687779600411" lon="17.572977060787235"><ele>13.0</ele><time>2026-04-29T14:57:15Z</time></trkpt><trkpt lat="40.30678515390073" lon="17.572979005053973"><ele>13.0</ele><time>2026-04-29T14:57:17Z</time></trkpt><trkpt lat="40.30669243571435" lon="17.573015958597868"><ele>13.0</ele><time>2026-04-29T14:57:19Z</time></trkpt><trkpt lat="40.30660249545575" lon="17.573052870644062"><ele>13.0</ele><time>2026-04-29T14:57:21Z</time></trkpt><trkpt lat="40.30652265790791" lon="17.57309765279425"><ele>13.0</ele><time>2026-04-29T14:57:23Z</time></trkpt><trkpt lat="40.306110270767356" lon="17.57321722347194"><ele>13.0</ele><time>2026-04-29T14:57:34Z</time></trkpt><trkpt lat="40.30613144140207" lon="17.57311505704649"><ele>13.0</ele><time>2026-04-29T14:57:36Z</time></trkpt><trkpt lat="40.30613660275689" lon="17.57300444910631"><ele>13.0</ele><time>2026-04-29T14:57:38Z</time></trkpt><trkpt lat="40.30613831510237" lon="17.572879763911224"><ele>13.0</ele><time>2026-04-29T14:57:40Z</time></trkpt><trkpt lat="40.306141484777996" lon="17.57274885280429"><ele>13.0</ele><time>2026-04-29T14:57:42Z</time></trkpt><trkpt lat="40.306146889348874" lon="17.572627566183634"><ele>13.0</ele><time>2026-04-29T14:57:44Z</time></trkpt><trkpt lat="40.30614842099" lon="17.572507233940414"><ele>13.0</ele><time>2026-04-29T14:57:46Z</time></trkpt><trkpt lat="40.30615622626473" lon="17.57237682409606"><ele>13.0</ele><time>2026-04-29T14:57:48Z</time></trkpt><trkpt lat="40.30615756179037" lon="17.572261217072153"><ele>13.0</ele><time>2026-04-29T14:57:50Z</time></trkpt><trkpt lat="40.306154052688086" lon="17.572151257906675"><ele>13.0</ele><time>2026-04-29T14:57:52Z</time></trkpt><trkpt lat="40.306204308544956" lon="17.572078753312343"><ele>13.0</ele><time>2026-04-29T14:57:54Z</time></trkpt><trkpt lat="40.30631368140221" lon="17.5720735699986"><ele>13.0</ele><time>2026-04-29T14:57:56Z</time></trkpt><trkpt lat="40.30638550363187" lon="17.572020064271705"><ele>13.0</ele><time>2026-04-29T14:57:58Z</time></trkpt><trkpt lat="40.30637552239924" lon="17.571890576754797"><ele>13.0</ele><time>2026-04-29T14:58:00Z</time></trkpt><trkpt lat="40.30637204180646" lon="17.57175404052118"><ele>13.0</ele><time>2026-04-29T14:58:02Z</time></trkpt><trkpt lat="40.30637676920363" lon="17.571641503754375"><ele>13.0</ele><time>2026-04-29T14:58:04Z</time></trkpt><trkpt lat="40.306378372095345" lon="17.571504421436313"><ele>13.0</ele><time>2026-04-29T14:58:06Z</time></trkpt><trkpt lat="40.30638107324836" lon="17.57138680269965"><ele>13.0</ele><time>2026-04-29T14:58:08Z</time></trkpt><trkpt lat="40.30638497887544" lon="17.571294405395147"><ele>13.0</ele><time>2026-04-29T14:58:10Z</time></trkpt><trkpt lat="40.306379946095454" lon="17.57120066251442"><ele>13.0</ele><time>2026-04-29T14:58:12Z</time></trkpt><trkpt lat="40.30636966331614" lon="17.571119099077908"><ele>13.0</ele><time>2026-04-29T14:58:15Z</time></trkpt></trkseg></trk></gpx>